Darstellungsparameter: Aktuell verwendete Einstellungen:
Skalierung der Graphiken ... ?
xyx+y,   Skalierungsfaktor:      Skalierung: Modus: x, Faktor: 1
Darstellungszeitraum ... ?
Vom - - bis: - -   Zeitraum: 03.06.2019 - 02.12.2019
Min/Max/Avg-Anzeige ... ?
Zeige MMA aktuell
Zeige MMA Monat
Zeige MMA alles
Zeige --A aktuell
Zeige --A Monat
Zeige --A alles
Keine MMA-Anzeige
MMA:
Keine MMA-Graphiken
MMA-Basis: 03.06.2019 - 02.12.2019
Quicknavigation für Darstellung... ?
Tage:      1T, 2T, 3T, 5T -1T -2T -3T -5T +1T +2T +3T +5T
Wochen: 1W, 2W, 3W -1W -2W -3W +1W +2W +3W
Monate: 1M, 3M, 6M -1M -3M -6M +1M +3M +6M
Jahre:    1J, 3J, 5J, 10J -1J -3J -5J -10J +1J +3J +5J +10J
Nutze für die Darstellung ... ?
Originaldaten oder Mittelwerte auf ...
Stundenbasis Tagesbasis Wochenbasis
Monatsbasis Jahresbasis      Datenbasis: Original-Daten
Darstellen als:
Statistik (Auto) Statistik J:M      Darstellung:
Zur Graphik,    zurück zur Übersicht aller Sensoren.
 
Tabellarische Datenbersicht: ?
 
Sensor: Nr:Datum:Temp:Feuchte:Taupunkt:
Aussen-T/F 1 03-06-2019 00:00:00 18.3 C 79 % 14.6 C
2 03-06-2019 00:05:00 18.2 C 79 % 14.5 C
3 03-06-2019 00:10:00 18 C 79 % 14.31 C
4 03-06-2019 00:15:00 17.9 C 80 % 14.4 C
5 03-06-2019 00:20:00 17.8 C 80 % 14.31 C
6 03-06-2019 00:25:00 17.7 C 79 % 14.01 C
7 03-06-2019 00:30:00 17.7 C 80 % 14.21 C
8 03-06-2019 00:35:00 17.6 C 80 % 14.11 C
9 03-06-2019 00:40:00 17.6 C 80 % 14.11 C
10 03-06-2019 00:45:00 17.5 C 80 % 14.01 C
11 03-06-2019 00:50:00 17.4 C 81 % 14.11 C
12 03-06-2019 00:55:00 17.4 C 81 % 14.11 C
13 03-06-2019 01:00:00 17.3 C 80 % 13.82 C
14 03-06-2019 01:05:00 17.3 C 80 % 13.82 C
15 03-06-2019 01:10:00 17.2 C 81 % 13.91 C
16 03-06-2019 01:15:00 17.1 C 82 % 14 C
17 03-06-2019 01:20:00 16.9 C 82 % 13.81 C
18 03-06-2019 01:25:00 16.9 C 82 % 13.81 C
19 03-06-2019 01:30:00 16.8 C 83 % 13.9 C
20 03-06-2019 01:35:00 16.7 C 83 % 13.8 C
21 03-06-2019 01:40:00 16.6 C 83 % 13.7 C
22 03-06-2019 01:45:00 16.4 C 84 % 13.69 C
23 03-06-2019 01:50:00 16.4 C 84 % 13.69 C
24 03-06-2019 01:55:00 16.3 C 84 % 13.59 C
25 03-06-2019 02:00:00 16.3 C 84 % 13.59 C
Sensor: Nr:Datum:Temp:Feuchte:Taupunkt:
Aussen-T/F 26 03-06-2019 02:05:00 16.3 C 84 % 13.59 C
27 03-06-2019 02:10:00 16.3 C 84 % 13.59 C
28 03-06-2019 02:15:00 16.2 C 84 % 13.5 C
29 03-06-2019 02:20:00 16.2 C 85 % 13.68 C
30 03-06-2019 02:25:00 16.2 C 85 % 13.68 C
31 03-06-2019 02:30:00 16.1 C 85 % 13.58 C
32 03-06-2019 02:35:00 16.1 C 85 % 13.58 C
33 03-06-2019 02:40:00 16 C 85 % 13.48 C
34 03-06-2019 02:45:00 16 C 86 % 13.66 C
35 03-06-2019 02:50:00 16.1 C 86 % 13.76 C
36 03-06-2019 02:55:00 16 C 86 % 13.66 C
37 03-06-2019 03:00:00 15.9 C 86 % 13.56 C
38 03-06-2019 03:05:00 15.8 C 87 % 13.64 C
39 03-06-2019 03:10:00 15.8 C 87 % 13.64 C
40 03-06-2019 03:15:00 15.7 C 87 % 13.54 C
41 03-06-2019 03:20:00 15.7 C 87 % 13.54 C
42 03-06-2019 03:25:00 15.6 C 87 % 13.45 C
43 03-06-2019 03:30:00 15.4 C 88 % 13.42 C
44 03-06-2019 03:35:00 15.3 C 88 % 13.33 C
45 03-06-2019 03:40:00 15.3 C 88 % 13.33 C
46 03-06-2019 03:45:00 15.3 C 89 % 13.5 C
47 03-06-2019 03:50:00 15.2 C 88 % 13.23 C
48 03-06-2019 03:55:00 15.2 C 89 % 13.4 C
49 03-06-2019 04:00:00 15.1 C 89 % 13.3 C
50 03-06-2019 04:05:00 15.1 C 89 % 13.3 C
Sensor: Nr:Datum:Temp:Feuchte:Taupunkt:
Aussen-T/F 51 03-06-2019 04:10:00 15 C 89 % 13.2 C
52 03-06-2019 04:15:00 14.9 C 90 % 13.28 C
53 03-06-2019 04:20:00 14.9 C 90 % 13.28 C
54 03-06-2019 04:25:00 14.9 C 90 % 13.28 C
55 03-06-2019 04:30:00 14.8 C 90 % 13.18 C
56 03-06-2019 04:35:00 14.8 C 90 % 13.18 C
57 03-06-2019 04:40:00 14.7 C 90 % 13.08 C
58 03-06-2019 04:45:00 14.7 C 90 % 13.08 C
59 03-06-2019 04:50:00 14.6 C 91 % 13.15 C
60 03-06-2019 04:55:00 14.6 C 91 % 13.15 C
61 03-06-2019 05:00:00 14.6 C 91 % 13.15 C
62 03-06-2019 05:05:00 14.6 C 91 % 13.15 C
63 03-06-2019 05:10:00 14.6 C 92 % 13.32 C
64 03-06-2019 05:15:00 14.6 C 92 % 13.32 C
65 03-06-2019 05:20:00 14.6 C 92 % 13.32 C
66 03-06-2019 05:25:00 14.7 C 92 % 13.41 C
67 03-06-2019 05:30:00 14.8 C 92 % 13.51 C
68 03-06-2019 05:35:00 14.8 C 92 % 13.51 C
69 03-06-2019 05:40:00 14.9 C 92 % 13.61 C
70 03-06-2019 05:45:00 14.9 C 92 % 13.61 C
71 03-06-2019 05:50:00 15.1 C 92 % 13.81 C
72 03-06-2019 05:55:00 15.1 C 92 % 13.81 C
73 03-06-2019 06:00:00 15.1 C 91 % 13.64 C
74 03-06-2019 06:05:00 15 C 92 % 13.71 C
75 03-06-2019 06:10:00 15 C 92 % 13.71 C
Sensor: Nr:Datum:Temp:Feuchte:Taupunkt:
Aussen-T/F 76 03-06-2019 06:15:00 15.1 C 92 % 13.81 C
77 03-06-2019 06:20:00 15.1 C 92 % 13.81 C
78 03-06-2019 06:25:00 15.2 C 92 % 13.91 C
79 03-06-2019 06:30:00 15.2 C 92 % 13.91 C
80 03-06-2019 06:35:00 15.3 C 92 % 14.01 C
81 03-06-2019 06:40:00 15.3 C 92 % 14.01 C
82 03-06-2019 06:45:00 15.4 C 92 % 14.11 C
83 03-06-2019 06:50:00 15.5 C 93 % 14.37 C
84 03-06-2019 06:55:00 15.6 C 92 % 14.31 C
85 03-06-2019 07:00:00 15.7 C 92 % 14.4 C
86 03-06-2019 07:05:00 15.8 C 92 % 14.5 C
87 03-06-2019 07:10:00 15.8 C 92 % 14.5 C
88 03-06-2019 07:15:00 15.9 C 92 % 14.6 C
89 03-06-2019 07:20:00 16.1 C 92 % 14.8 C
90 03-06-2019 07:25:00 16.2 C 92 % 14.9 C
91 03-06-2019 07:30:00 16.2 C 92 % 14.9 C
92 03-06-2019 07:35:00 16.3 C 92 % 15 C
93 03-06-2019 07:40:00 16.3 C 91 % 14.83 C
94 03-06-2019 07:45:00 16.3 C 91 % 14.83 C
95 03-06-2019 07:50:00 16.4 C 91 % 14.93 C
96 03-06-2019 07:55:00 16.4 C 90 % 14.76 C
97 03-06-2019 08:00:00 16.6 C 89 % 14.78 C
98 03-06-2019 08:05:00 16.7 C 89 % 14.88 C
99 03-06-2019 08:10:00 16.9 C 90 % 15.25 C
100 03-06-2019 08:15:00 17.1 C 90 % 15.45 C
Sensor: Nr:Datum:Temp:Feuchte:Taupunkt:
Aussen-T/F 101 03-06-2019 08:20:00 17.2 C 90 % 15.55 C
102 03-06-2019 08:25:00 17.4 C 90 % 15.74 C
103 03-06-2019 08:30:00 17.6 C 90 % 15.94 C
104 03-06-2019 08:35:00 17.8 C 89 % 15.96 C
105 03-06-2019 08:40:00 18.1 C 88 % 16.08 C
106 03-06-2019 08:45:00 18.4 C 87 % 16.2 C
107 03-06-2019 08:50:00 18.7 C 86 % 16.31 C
108 03-06-2019 08:55:00 19.1 C 86 % 16.7 C
109 03-06-2019 09:00:00 19.5 C 87 % 17.28 C
110 03-06-2019 09:05:00 19.7 C 85 % 17.11 C
111 03-06-2019 09:10:00 19.8 C 85 % 17.21 C
112 03-06-2019 09:15:00 19.9 C 85 % 17.3 C
113 03-06-2019 09:20:00 20.1 C 84 % 17.31 C
114 03-06-2019 09:25:00 20.2 C 85 % 17.6 C
115 03-06-2019 09:30:00 20.3 C 86 % 17.88 C
116 03-06-2019 09:35:00 20.5 C 86 % 18.08 C
117 03-06-2019 09:40:00 20.7 C 86 % 18.27 C
118 03-06-2019 09:45:00 20.8 C 83 % 17.81 C
119 03-06-2019 09:50:00 21 C 85 % 18.38 C
120 03-06-2019 09:55:00 21.2 C 86 % 18.76 C
121 03-06-2019 10:00:00 21.2 C 86 % 18.76 C
122 03-06-2019 10:05:00 21.2 C 87 % 18.95 C
123 03-06-2019 10:10:00 21.3 C 88 % 19.23 C
124 03-06-2019 10:15:00 21.4 C 88 % 19.33 C
125 03-06-2019 10:20:00 21.5 C 88 % 19.43 C
Sensor: Nr:Datum:Temp:Feuchte:Taupunkt:
Aussen-T/F 126 03-06-2019 10:25:00 21.4 C 87 % 19.15 C
127 03-06-2019 10:30:00 21.4 C 87 % 19.15 C
128 03-06-2019 10:35:00 21.2 C 86 % 18.76 C
129 03-06-2019 10:40:00 21.2 C 87 % 18.95 C
130 03-06-2019 10:45:00 21.3 C 87 % 19.05 C
131 03-06-2019 10:50:00 21.3 C 85 % 18.67 C
132 03-06-2019 10:55:00 21.5 C 83 % 18.49 C
133 03-06-2019 11:00:00 21.8 C 83 % 18.78 C
134 03-06-2019 11:05:00 22.1 C 83 % 19.08 C
135 03-06-2019 11:10:00 22.3 C 81 % 18.88 C
136 03-06-2019 11:15:00 22.5 C 82 % 19.27 C
137 03-06-2019 11:20:00 22.7 C 80 % 19.07 C
138 03-06-2019 11:25:00 23.1 C 75 % 18.43 C
139 03-06-2019 11:30:00 23.7 C 72 % 18.35 C
140 03-06-2019 11:35:00 24.1 C 71 % 18.51 C
141 03-06-2019 11:40:00 24.4 C 69 % 18.34 C
142 03-06-2019 11:45:00 24.7 C 68 % 18.4 C
143 03-06-2019 11:50:00 25 C 67 % 18.44 C
144 03-06-2019 11:55:00 25.3 C 64 % 18 C
145 03-06-2019 12:00:00 25.6 C 64 % 18.28 C
146 03-06-2019 12:05:00 25.8 C 61 % 17.71 C
147 03-06-2019 12:10:00 25.9 C 66 % 19.06 C
148 03-06-2019 12:15:00 25.9 C 62 % 18.06 C
149 03-06-2019 12:20:00 26.2 C 60 % 17.82 C
150 03-06-2019 12:25:00 26.3 C 60 % 17.91 C
Sensor: Nr:Datum:Temp:Feuchte:Taupunkt:
Aussen-T/F 151 03-06-2019 12:30:00 26.6 C 58 % 17.66 C
152 03-06-2019 12:35:00 26.7 C 58 % 17.75 C
153 03-06-2019 12:40:00 26.7 C 57 % 17.47 C
154 03-06-2019 12:45:00 26.8 C 57 % 17.57 C
155 03-06-2019 12:50:00 27 C 56 % 17.47 C
156 03-06-2019 12:55:00 27.2 C 58 % 18.22 C
157 03-06-2019 13:00:00 27.3 C 55 % 17.47 C
158 03-06-2019 13:05:00 27.4 C 55 % 17.56 C
159 03-06-2019 13:10:00 27.6 C 60 % 19.13 C
160 03-06-2019 13:15:00 27.7 C 57 % 18.41 C
161 03-06-2019 13:20:00 27.7 C 56 % 18.12 C
162 03-06-2019 13:25:00 27.8 C 55 % 17.93 C
163 03-06-2019 13:30:00 27.8 C 57 % 18.5 C
164 03-06-2019 13:35:00 27.8 C 51 % 16.73 C
165 03-06-2019 13:40:00 27.8 C 49 % 16.11 C
166 03-06-2019 13:45:00 27.8 C 46 % 15.12 C
167 03-06-2019 13:50:00 27.8 C 47 % 15.45 C
168 03-06-2019 13:55:00 27.8 C 45 % 14.78 C
169 03-06-2019 14:00:00 28 C 46 % 15.3 C
170 03-06-2019 14:05:00 28.1 C 45 % 15.05 C
171 03-06-2019 14:10:00 28.1 C 41 % 13.61 C
172 03-06-2019 14:15:00 28.2 C 40 % 13.32 C
173 03-06-2019 14:20:00 28.2 C 40 % 13.32 C
174 03-06-2019 14:25:00 28.3 C 40 % 13.41 C
175 03-06-2019 14:30:00 28.4 C 39 % 13.11 C
Sensor: Nr:Datum:Temp:Feuchte:Taupunkt:
Aussen-T/F 176 03-06-2019 14:35:00 28.7 C 40 % 13.77 C
177 03-06-2019 14:40:00 28.9 C 44 % 15.42 C
178 03-06-2019 14:45:00 28.9 C 41 % 14.33 C
179 03-06-2019 14:50:00 28.8 C 37 % 12.66 C
180 03-06-2019 14:55:00 28.7 C 33 % 10.84 C
181 03-06-2019 15:00:00 28.6 C 40 % 13.68 C
182 03-06-2019 15:05:00 28.9 C 36 % 12.33 C
183 03-06-2019 15:10:00 29.2 C 37 % 13.02 C
184 03-06-2019 15:15:00 29.4 C 37 % 13.19 C
185 03-06-2019 15:20:00 29.6 C 34 % 12.08 C
186 03-06-2019 15:25:00 29.5 C 33 % 11.54 C
187 03-06-2019 15:30:00 29.4 C 34 % 11.9 C
188 03-06-2019 15:35:00 29.7 C 33 % 11.71 C
189 03-06-2019 15:40:00 30.1 C 32 % 11.59 C
190 03-06-2019 15:45:00 29.9 C 34 % 12.34 C
191 03-06-2019 15:50:00 29.6 C 35 % 12.52 C
192 03-06-2019 15:55:00 29 C 35 % 11.99 C
193 03-06-2019 16:00:00 28.6 C 37 % 12.49 C
194 03-06-2019 16:05:00 28.2 C 39 % 12.93 C
195 03-06-2019 16:10:00 27.9 C 41 % 13.43 C
196 03-06-2019 16:15:00 27.4 C 42 % 13.35 C
197 03-06-2019 16:20:00 27.1 C 43 % 13.45 C
198 03-06-2019 16:25:00 26.7 C 45 % 13.78 C
199 03-06-2019 16:30:00 26.2 C 42 % 12.28 C
200 03-06-2019 16:35:00 25.9 C 47 % 13.73 C
Sensor: Nr:Datum:Temp:Feuchte:Taupunkt:
Aussen-T/F 201 03-06-2019 16:40:00 25.8 C 52 % 15.2 C
202 03-06-2019 16:45:00 25.7 C 56 % 16.26 C
203 03-06-2019 16:50:00 25.6 C 54 % 15.6 C
204 03-06-2019 16:55:00 25.5 C 55 % 15.8 C
205 03-06-2019 17:00:00 25.4 C 50 % 14.22 C
206 03-06-2019 17:05:00 25.3 C 49 % 13.82 C
207 03-06-2019 17:10:00 25.3 C 52 % 14.74 C
208 03-06-2019 17:15:00 25.3 C 48 % 13.5 C
209 03-06-2019 17:20:00 25.3 C 52 % 14.74 C
210 03-06-2019 17:25:00 25.4 C 60 % 17.07 C
211 03-06-2019 17:30:00 25.4 C 61 % 17.33 C
212 03-06-2019 17:35:00 25.3 C 63 % 17.75 C
213 03-06-2019 17:40:00 25.1 C 64 % 17.81 C
214 03-06-2019 17:45:00 24.9 C 65 % 17.87 C
215 03-06-2019 17:50:00 24.7 C 66 % 17.92 C
216 03-06-2019 17:55:00 24.5 C 65 % 17.49 C
217 03-06-2019 18:00:00 24.3 C 66 % 17.54 C
218 03-06-2019 18:05:00 24.2 C 66 % 17.45 C
219 03-06-2019 18:10:00 24.1 C 64 % 16.86 C
220 03-06-2019 18:15:00 24 C 64 % 16.77 C
221 03-06-2019 18:20:00 23.9 C 64 % 16.68 C
222 03-06-2019 18:25:00 23.8 C 64 % 16.58 C
223 03-06-2019 18:30:00 23.7 C 64 % 16.49 C
224 03-06-2019 18:35:00 23.6 C 64 % 16.39 C
225 03-06-2019 18:40:00 23.4 C 63 % 15.96 C
Sensor: Nr:Datum:Temp:Feuchte:Taupunkt:
Aussen-T/F 226 03-06-2019 18:45:00 23.3 C 62 % 15.61 C
227 03-06-2019 18:50:00 23.2 C 63 % 15.77 C
228 03-06-2019 18:55:00 23.1 C 63 % 15.67 C
229 03-06-2019 19:00:00 23.1 C 63 % 15.67 C
230 03-06-2019 19:05:00 23 C 64 % 15.82 C
231 03-06-2019 19:10:00 22.9 C 64 % 15.73 C
232 03-06-2019 19:15:00 22.9 C 65 % 15.97 C
233 03-06-2019 19:20:00 22.8 C 70 % 17.04 C
234 03-06-2019 19:25:00 22.7 C 70 % 16.95 C
235 03-06-2019 19:30:00 22.6 C 67 % 16.16 C
236 03-06-2019 19:35:00 22.4 C 70 % 16.66 C
237 03-06-2019 19:40:00 22.4 C 71 % 16.88 C
238 03-06-2019 19:45:00 22.4 C 72 % 17.1 C
239 03-06-2019 19:50:00 22.4 C 72 % 17.1 C
240 03-06-2019 19:55:00 22.4 C 69 % 16.43 C
241 03-06-2019 20:00:00 22.4 C 67 % 15.97 C
242 03-06-2019 20:05:00 22.4 C 67 % 15.97 C
243 03-06-2019 20:10:00 22.5 C 70 % 16.76 C
244 03-06-2019 20:15:00 22.5 C 70 % 16.76 C
245 03-06-2019 20:20:00 22.4 C 70 % 16.66 C
246 03-06-2019 20:25:00 22.3 C 71 % 16.79 C
247 03-06-2019 20:30:00 22.3 C 70 % 16.56 C
248 03-06-2019 20:35:00 22.3 C 69 % 16.34 C
249 03-06-2019 20:40:00 22.2 C 71 % 16.69 C
250 03-06-2019 20:45:00 22.2 C 71 % 16.69 C
Sensor: Nr:Datum:Temp:Feuchte:Taupunkt:
Aussen-T/F 251 03-06-2019 20:50:00 22.1 C 71 % 16.6 C
252 03-06-2019 20:55:00 21.9 C 73 % 16.84 C
253 03-06-2019 21:00:00 21.8 C 73 % 16.75 C
254 03-06-2019 21:05:00 21.6 C 72 % 16.34 C
255 03-06-2019 21:10:00 21.3 C 73 % 16.26 C
256 03-06-2019 21:15:00 21.1 C 74 % 16.29 C
257 03-06-2019 21:20:00 20.8 C 74 % 16 C
258 03-06-2019 21:25:00 20.6 C 75 % 16.01 C
259 03-06-2019 21:30:00 20.4 C 75 % 15.82 C
260 03-06-2019 21:35:00 20.2 C 75 % 15.63 C
261 03-06-2019 21:40:00 20.1 C 76 % 15.74 C
262 03-06-2019 21:45:00 20 C 76 % 15.64 C
263 03-06-2019 21:50:00 19.9 C 76 % 15.54 C
264 03-06-2019 21:55:00 19.8 C 76 % 15.45 C
265 03-06-2019 22:00:00 19.8 C 77 % 15.65 C
266 03-06-2019 22:05:00 19.7 C 77 % 15.56 C
267 03-06-2019 22:10:00 19.7 C 77 % 15.56 C
268 03-06-2019 22:15:00 19.6 C 77 % 15.46 C
269 03-06-2019 22:20:00 19.6 C 78 % 15.66 C
270 03-06-2019 22:25:00 19.4 C 78 % 15.47 C
271 03-06-2019 22:30:00 19.4 C 78 % 15.47 C
272 03-06-2019 22:35:00 19.3 C 78 % 15.37 C
273 03-06-2019 22:40:00 19.2 C 78 % 15.27 C
274 03-06-2019 22:45:00 19.2 C 78 % 15.27 C
275 03-06-2019 22:50:00 19.1 C 78 % 15.18 C
Sensor: Nr:Datum:Temp:Feuchte:Taupunkt:
Aussen-T/F 276 03-06-2019 22:55:00 18.9 C 79 % 15.18 C
277 03-06-2019 23:00:00 18.8 C 80 % 15.28 C
278 03-06-2019 23:05:00 18.6 C 80 % 15.08 C
279 03-06-2019 23:10:00 18.5 C 80 % 14.99 C
280 03-06-2019 23:15:00 18.4 C 81 % 15.08 C
281 03-06-2019 23:20:00 18.3 C 81 % 14.98 C
282 03-06-2019 23:25:00 18.2 C 81 % 14.89 C
283 03-06-2019 23:30:00 18 C 82 % 14.88 C
284 03-06-2019 23:35:00 17.8 C 82 % 14.69 C
285 03-06-2019 23:40:00 17.7 C 82 % 14.59 C
286 03-06-2019 23:45:00 17.6 C 83 % 14.68 C
287 03-06-2019 23:50:00 17.5 C 83 % 14.58 C
288 03-06-2019 23:55:00 17.4 C 84 % 14.67 C
289 04-06-2019 00:00:00 17.3 C 84 % 14.57 C
290 04-06-2019 00:05:00 17.2 C 85 % 14.66 C
291 04-06-2019 00:10:00 17.1 C 85 % 14.56 C
292 04-06-2019 00:15:00 16.9 C 86 % 14.54 C
293 04-06-2019 00:20:00 16.8 C 86 % 14.45 C
294 04-06-2019 00:25:00 16.7 C 86 % 14.35 C
295 04-06-2019 00:30:00 16.6 C 87 % 14.43 C
296 04-06-2019 00:35:00 16.6 C 87 % 14.43 C
297 04-06-2019 00:40:00 16.4 C 88 % 14.41 C
298 04-06-2019 00:45:00 16.4 C 88 % 14.41 C
299 04-06-2019 00:50:00 16.3 C 88 % 14.31 C
300 04-06-2019 00:55:00 16.3 C 88 % 14.31 C
Sensor: Nr:Datum:Temp:Feuchte:Taupunkt:
Aussen-T/F 301 04-06-2019 01:00:00 16.2 C 89 % 14.39 C
302 04-06-2019 01:05:00 16.2 C 89 % 14.39 C
303 04-06-2019 01:10:00 16.1 C 89 % 14.29 C
304 04-06-2019 01:15:00 16.1 C 89 % 14.29 C
305 04-06-2019 01:20:00 15.9 C 89 % 14.09 C
306 04-06-2019 01:25:00 15.8 C 90 % 14.16 C
307 04-06-2019 01:30:00 15.8 C 90 % 14.16 C
308 04-06-2019 01:35:00 15.7 C 90 % 14.06 C
309 04-06-2019 01:40:00 15.7 C 90 % 14.06 C
310 04-06-2019 01:45:00 15.6 C 90 % 13.97 C
311 04-06-2019 01:50:00 15.5 C 91 % 14.04 C
312 04-06-2019 01:55:00 15.5 C 91 % 14.04 C
313 04-06-2019 02:00:00 15.4 C 91 % 13.94 C
314 04-06-2019 02:05:00 15.4 C 91 % 13.94 C
315 04-06-2019 02:10:00 15.3 C 92 % 14.01 C
316 04-06-2019 02:15:00 15.3 C 92 % 14.01 C
317 04-06-2019 02:20:00 15.3 C 92 % 14.01 C
318 04-06-2019 02:25:00 15.2 C 92 % 13.91 C
319 04-06-2019 02:30:00 15.1 C 92 % 13.81 C
320 04-06-2019 02:35:00 15.1 C 92 % 13.81 C
321 04-06-2019 02:40:00 15.1 C 92 % 13.81 C
322 04-06-2019 02:45:00 14.9 C 92 % 13.61 C
323 04-06-2019 02:50:00 14.9 C 92 % 13.61 C
324 04-06-2019 02:55:00 14.8 C 92 % 13.51 C
325 04-06-2019 03:00:00 14.8 C 93 % 13.68 C
Sensor: Nr:Datum:Temp:Feuchte:Taupunkt:
Aussen-T/F 326 04-06-2019 03:05:00 14.7 C 93 % 13.58 C
327 04-06-2019 03:10:00 14.6 C 92 % 13.32 C
328 04-06-2019 03:15:00 14.6 C 93 % 13.48 C
329 04-06-2019 03:20:00 14.5 C 93 % 13.38 C
330 04-06-2019 03:25:00 14.4 C 93 % 13.28 C
331 04-06-2019 03:30:00 14.4 C 93 % 13.28 C
332 04-06-2019 03:35:00 14.3 C 93 % 13.18 C
333 04-06-2019 03:40:00 14.3 C 93 % 13.18 C
334 04-06-2019 03:45:00 14.2 C 93 % 13.08 C
335 04-06-2019 03:50:00 14.1 C 93 % 12.99 C
336 04-06-2019 03:55:00 14.1 C 93 % 12.99 C
337 04-06-2019 04:00:00 14 C 93 % 12.89 C
338 04-06-2019 04:05:00 14 C 93 % 12.89 C
339 04-06-2019 04:10:00 13.9 C 93 % 12.79 C
340 04-06-2019 04:15:00 13.9 C 94 % 12.95 C
341 04-06-2019 04:20:00 13.8 C 93 % 12.69 C
342 04-06-2019 04:25:00 13.7 C 94 % 12.75 C
343 04-06-2019 04:30:00 13.6 C 93 % 12.49 C
344 04-06-2019 04:35:00 13.6 C 93 % 12.49 C
345 04-06-2019 04:40:00 13.4 C 94 % 12.45 C
346 04-06-2019 04:45:00 13.4 C 94 % 12.45 C
347 04-06-2019 04:50:00 13.3 C 94 % 12.36 C
348 04-06-2019 04:55:00 13.3 C 94 % 12.36 C
349 04-06-2019 05:00:00 13.3 C 94 % 12.36 C
350 04-06-2019 05:05:00 13.3 C 94 % 12.36 C
Sensor: Nr:Datum:Temp:Feuchte:Taupunkt:
Aussen-T/F 351 04-06-2019 05:10:00 13.3 C 94 % 12.36 C
352 04-06-2019 05:15:00 13.3 C 94 % 12.36 C
353 04-06-2019 05:20:00 13.2 C 94 % 12.26 C
354 04-06-2019 05:25:00 13.2 C 94 % 12.26 C
355 04-06-2019 05:30:00 13.1 C 94 % 12.16 C
356 04-06-2019 05:35:00 13.1 C 94 % 12.16 C
357 04-06-2019 05:40:00 13.2 C 95 % 12.42 C
358 04-06-2019 05:45:00 13.2 C 95 % 12.42 C
359 04-06-2019 05:50:00 13.1 C 95 % 12.32 C
360 04-06-2019 05:55:00 13.1 C 94 % 12.16 C
361 04-06-2019 06:00:00 13.1 C 95 % 12.32 C
362 04-06-2019 06:05:00 13.1 C 95 % 12.32 C
363 04-06-2019 06:10:00 13.1 C 95 % 12.32 C
364 04-06-2019 06:15:00 13.1 C 95 % 12.32 C
365 04-06-2019 06:20:00 13.1 C 95 % 12.32 C
366 04-06-2019 06:25:00 13.2 C 95 % 12.42 C
367 04-06-2019 06:30:00 13.2 C 95 % 12.42 C
368 04-06-2019 06:35:00 13.3 C 95 % 12.52 C
369 04-06-2019 06:40:00 13.3 C 95 % 12.52 C
370 04-06-2019 06:45:00 13.4 C 95 % 12.62 C
371 04-06-2019 06:50:00 13.6 C 96 % 12.97 C
372 04-06-2019 06:55:00 13.8 C 96 % 13.17 C
373 04-06-2019 07:00:00 13.9 C 96 % 13.27 C
374 04-06-2019 07:05:00 14.1 C 96 % 13.47 C
375 04-06-2019 07:10:00 14.2 C 96 % 13.57 C
Sensor: Nr:Datum:Temp:Feuchte:Taupunkt:
Aussen-T/F 376 04-06-2019 07:15:00 14.3 C 95 % 13.51 C
377 04-06-2019 07:20:00 14.4 C 95 % 13.61 C
378 04-06-2019 07:25:00 14.4 C 95 % 13.61 C
379 04-06-2019 07:30:00 14.6 C 95 % 13.81 C
380 04-06-2019 07:35:00 14.7 C 95 % 13.91 C
381 04-06-2019 07:40:00 14.8 C 95 % 14.01 C
382 04-06-2019 07:45:00 14.9 C 94 % 13.94 C
383 04-06-2019 07:50:00 14.9 C 94 % 13.94 C
384 04-06-2019 07:55:00 15.1 C 94 % 14.14 C
385 04-06-2019 08:00:00 15.2 C 94 % 14.24 C
386 04-06-2019 08:05:00 15.3 C 93 % 14.18 C
387 04-06-2019 08:10:00 15.5 C 93 % 14.37 C
388 04-06-2019 08:15:00 15.6 C 93 % 14.47 C
389 04-06-2019 08:20:00 15.8 C 92 % 14.5 C
390 04-06-2019 08:25:00 15.9 C 92 % 14.6 C
391 04-06-2019 08:30:00 16.1 C 91 % 14.63 C
392 04-06-2019 08:35:00 16.3 C 91 % 14.83 C
393 04-06-2019 08:40:00 16.6 C 92 % 15.3 C
394 04-06-2019 08:45:00 16.7 C 91 % 15.22 C
395 04-06-2019 08:50:00 16.8 C 91 % 15.32 C
396 04-06-2019 08:55:00 16.8 C 90 % 15.15 C
397 04-06-2019 09:00:00 16.8 C 90 % 15.15 C
398 04-06-2019 09:05:00 16.8 C 90 % 15.15 C
399 04-06-2019 09:10:00 16.9 C 90 % 15.25 C
400 04-06-2019 09:15:00 17.1 C 90 % 15.45 C
Sensor: Nr:Datum:Temp:Feuchte:Taupunkt:
Aussen-T/F 401 04-06-2019 09:20:00 17.2 C 90 % 15.55 C
402 04-06-2019 09:25:00 17.3 C 90 % 15.64 C
403 04-06-2019 09:30:00 17.4 C 89 % 15.57 C
404 04-06-2019 09:35:00 17.6 C 88 % 15.59 C
405 04-06-2019 09:40:00 17.8 C 87 % 15.61 C
406 04-06-2019 09:45:00 17.9 C 87 % 15.71 C
407 04-06-2019 09:50:00 18.2 C 87 % 16 C
408 04-06-2019 09:55:00 18.4 C 86 % 16.02 C
409 04-06-2019 10:00:00 18.6 C 85 % 16.03 C
410 04-06-2019 10:05:00 18.8 C 84 % 16.04 C
411 04-06-2019 10:10:00 19.2 C 83 % 16.24 C
412 04-06-2019 10:15:00 19.6 C 81 % 16.25 C
413 04-06-2019 10:20:00 19.9 C 79 % 16.15 C
414 04-06-2019 10:25:00 20.2 C 79 % 16.44 C
415 04-06-2019 10:30:00 20.4 C 77 % 16.23 C
416 04-06-2019 10:35:00 20.6 C 77 % 16.43 C
417 04-06-2019 10:40:00 20.9 C 76 % 16.51 C
418 04-06-2019 10:45:00 21.2 C 75 % 16.59 C
419 04-06-2019 10:50:00 21.3 C 75 % 16.69 C
420 04-06-2019 10:55:00 21.3 C 73 % 16.26 C
421 04-06-2019 11:00:00 21.6 C 73 % 16.55 C
422 04-06-2019 11:05:00 21.7 C 72 % 16.43 C
423 04-06-2019 11:10:00 21.8 C 72 % 16.53 C
424 04-06-2019 11:15:00 21.9 C 71 % 16.4 C
425 04-06-2019 11:20:00 22.1 C 71 % 16.6 C
Sensor: Nr:Datum:Temp:Feuchte:Taupunkt:
Aussen-T/F 426 04-06-2019 11:25:00 22.2 C 72 % 16.91 C
427 04-06-2019 11:30:00 22.4 C 72 % 17.1 C
428 04-06-2019 11:35:00 22.6 C 70 % 16.85 C
429 04-06-2019 11:40:00 22.8 C 70 % 17.04 C
430 04-06-2019 11:45:00 22.9 C 70 % 17.14 C
431 04-06-2019 11:50:00 23.1 C 70 % 17.33 C
432 04-06-2019 11:55:00 23.2 C 70 % 17.42 C
433 04-06-2019 12:00:00 23.3 C 69 % 17.29 C
434 04-06-2019 12:05:00 23.3 C 69 % 17.29 C
435 04-06-2019 12:10:00 23.3 C 69 % 17.29 C
436 04-06-2019 12:15:00 23.3 C 69 % 17.29 C
437 04-06-2019 12:20:00 23.5 C 69 % 17.48 C
438 04-06-2019 12:25:00 23.7 C 69 % 17.67 C
439 04-06-2019 12:30:00 24 C 69 % 17.96 C
440 04-06-2019 12:35:00 24.2 C 67 % 17.68 C
441 04-06-2019 12:40:00 24.3 C 68 % 18.01 C
442 04-06-2019 12:45:00 24.4 C 67 % 17.87 C
443 04-06-2019 12:50:00 24.6 C 67 % 18.06 C
444 04-06-2019 12:55:00 24.8 C 66 % 18.01 C
445 04-06-2019 13:00:00 24.9 C 65 % 17.87 C
446 04-06-2019 13:05:00 25.2 C 63 % 17.65 C
447 04-06-2019 13:10:00 25.3 C 63 % 17.75 C
448 04-06-2019 13:15:00 25.5 C 61 % 17.43 C
449 04-06-2019 13:20:00 25.6 C 64 % 18.28 C
450 04-06-2019 13:25:00 25.7 C 59 % 17.09 C
Sensor: Nr:Datum:Temp:Feuchte:Taupunkt:
Aussen-T/F 451 04-06-2019 13:30:00 25.8 C 59 % 17.18 C
452 04-06-2019 13:35:00 25.8 C 60 % 17.45 C
453 04-06-2019 13:40:00 25.9 C 59 % 17.27 C
454 04-06-2019 13:45:00 26.2 C 58 % 17.28 C
455 04-06-2019 13:50:00 26.4 C 57 % 17.19 C
456 04-06-2019 13:55:00 26.6 C 57 % 17.38 C
457 04-06-2019 14:00:00 26.7 C 56 % 17.19 C
458 04-06-2019 14:05:00 26.8 C 55 % 17 C
459 04-06-2019 14:10:00 26.9 C 54 % 16.81 C
460 04-06-2019 14:15:00 27.1 C 56 % 17.57 C
461 04-06-2019 14:20:00 27.3 C 56 % 17.75 C
462 04-06-2019 14:25:00 27.4 C 56 % 17.84 C
463 04-06-2019 14:30:00 27.4 C 54 % 17.27 C
464 04-06-2019 14:35:00 27.5 C 53 % 17.07 C
465 04-06-2019 14:40:00 27.6 C 54 % 17.45 C
466 04-06-2019 14:45:00 27.9 C 55 % 18.02 C
467 04-06-2019 14:50:00 28.1 C 52 % 17.32 C
468 04-06-2019 14:55:00 28.1 C 54 % 17.92 C
469 04-06-2019 15:00:00 28.2 C 54 % 18.01 C
470 04-06-2019 15:05:00 28.3 C 52 % 17.5 C
471 04-06-2019 15:10:00 28.4 C 54 % 18.19 C
472 04-06-2019 15:15:00 28.3 C 52 % 17.5 C
473 04-06-2019 15:20:00 28.4 C 52 % 17.59 C
474 04-06-2019 15:25:00 28.6 C 51 % 17.47 C
475 04-06-2019 15:30:00 28.7 C 51 % 17.56 C
Sensor: Nr:Datum:Temp:Feuchte:Taupunkt:
Aussen-T/F 476 04-06-2019 15:35:00 28.8 C 55 % 18.86 C
477 04-06-2019 15:40:00 29.2 C 53 % 18.63 C
478 04-06-2019 15:45:00 29.2 C 50 % 17.71 C
479 04-06-2019 15:50:00 29.1 C 51 % 17.93 C
480 04-06-2019 15:55:00 29.2 C 52 % 18.33 C
481 04-06-2019 16:00:00 29.4 C 54 % 19.12 C
482 04-06-2019 16:05:00 29.8 C 54 % 19.49 C
483 04-06-2019 16:10:00 30.3 C 50 % 18.71 C
484 04-06-2019 16:15:00 30.4 C 50 % 18.8 C
485 04-06-2019 16:20:00 30.4 C 50 % 18.8 C
486 04-06-2019 16:25:00 30.5 C 48 % 18.24 C
487 04-06-2019 16:30:00 30.4 C 50 % 18.8 C
488 04-06-2019 16:35:00 30.6 C 52 % 19.62 C
489 04-06-2019 16:40:00 30.9 C 48 % 18.61 C
490 04-06-2019 16:45:00 31.2 C 46 % 18.2 C
491 04-06-2019 16:50:00 31.3 C 47 % 18.63 C
492 04-06-2019 16:55:00 31.6 C 46 % 18.56 C
493 04-06-2019 17:00:00 31.7 C 44 % 17.94 C
494 04-06-2019 17:05:00 31.8 C 45 % 18.39 C
495 04-06-2019 17:10:00 31.8 C 46 % 18.74 C
496 04-06-2019 17:15:00 31.9 C 44 % 18.12 C
497 04-06-2019 17:20:00 32 C 44 % 18.21 C
498 04-06-2019 17:25:00 32.1 C 45 % 18.66 C
499 04-06-2019 17:30:00 32.1 C 44 % 18.3 C
500 04-06-2019 17:35:00 32.1 C 43 % 17.94 C
Sensor: Nr:Datum:Temp:Feuchte:Taupunkt:
Aussen-T/F 501 04-06-2019 17:40:00 31.9 C 45 % 18.48 C
502 04-06-2019 17:45:00 31.9 C 44 % 18.12 C
503 04-06-2019 17:50:00 31.9 C 45 % 18.48 C
504 04-06-2019 17:55:00 31.9 C 44 % 18.12 C
505 04-06-2019 18:00:00 32.1 C 45 % 18.66 C
506 04-06-2019 18:05:00 32.1 C 43 % 17.94 C
507 04-06-2019 18:10:00 31.9 C 43 % 17.76 C
508 04-06-2019 18:15:00 31.8 C 48 % 19.43 C
509 04-06-2019 18:20:00 31.8 C 46 % 18.74 C
510 04-06-2019 18:25:00 31.6 C 45 % 18.21 C
511 04-06-2019 18:30:00 31.3 C 45 % 17.94 C
512 04-06-2019 18:35:00 31.1 C 45 % 17.76 C
513 04-06-2019 18:40:00 30.8 C 49 % 18.85 C
514 04-06-2019 18:45:00 30.5 C 50 % 18.9 C
515 04-06-2019 18:50:00 30.1 C 54 % 19.76 C
516 04-06-2019 18:55:00 29.8 C 56 % 20.07 C
517 04-06-2019 19:00:00 29.8 C 49 % 17.93 C
518 04-06-2019 19:05:00 30.1 C 55 % 20.06 C
519 04-06-2019 19:10:00 30.2 C 53 % 19.56 C
520 04-06-2019 19:15:00 30.2 C 54 % 19.86 C
521 04-06-2019 19:20:00 29.9 C 55 % 19.88 C
522 04-06-2019 19:25:00 29.5 C 51 % 18.3 C
523 04-06-2019 19:30:00 29.2 C 57 % 19.8 C
524 04-06-2019 19:35:00 28.8 C 58 % 19.71 C
525 04-06-2019 19:40:00 28.5 C 54 % 18.29 C
Sensor: Nr:Datum:Temp:Feuchte:Taupunkt:
Aussen-T/F 526 04-06-2019 19:45:00 28.4 C 59 % 19.61 C
527 04-06-2019 19:50:00 28.3 C 60 % 19.79 C
528 04-06-2019 19:55:00 28.1 C 54 % 17.92 C
529 04-06-2019 20:00:00 28.1 C 59 % 19.33 C
530 04-06-2019 20:05:00 27.9 C 60 % 19.41 C
531 04-06-2019 20:10:00 27.6 C 61 % 19.4 C
532 04-06-2019 20:15:00 27.3 C 61 % 19.12 C
533 04-06-2019 20:20:00 27 C 62 % 19.1 C
534 04-06-2019 20:25:00 26.7 C 62 % 18.81 C
535 04-06-2019 20:30:00 26.4 C 63 % 18.79 C
536 04-06-2019 20:35:00 26.1 C 64 % 18.76 C
537 04-06-2019 20:40:00 25.8 C 64 % 18.47 C
538 04-06-2019 20:45:00 25.4 C 64 % 18.09 C
539 04-06-2019 20:50:00 25.1 C 65 % 18.06 C
540 04-06-2019 20:55:00 24.8 C 66 % 18.01 C
541 04-06-2019 21:00:00 24.5 C 66 % 17.73 C
542 04-06-2019 21:05:00 24.2 C 66 % 17.45 C
543 04-06-2019 21:10:00 24 C 66 % 17.26 C
544 04-06-2019 21:15:00 23.8 C 66 % 17.07 C
545 04-06-2019 21:20:00 23.6 C 67 % 17.11 C
546 04-06-2019 21:25:00 23.4 C 67 % 16.92 C
547 04-06-2019 21:30:00 23.2 C 68 % 16.97 C
548 04-06-2019 21:35:00 23.1 C 69 % 17.1 C
549 04-06-2019 21:40:00 22.9 C 69 % 16.91 C
550 04-06-2019 21:45:00 22.7 C 69 % 16.72 C
Sensor: Nr:Datum:Temp:Feuchte:Taupunkt:
Aussen-T/F 551 04-06-2019 21:50:00 22.6 C 69 % 16.62 C
552 04-06-2019 21:55:00 22.4 C 70 % 16.66 C
553 04-06-2019 22:00:00 22.3 C 71 % 16.79 C
554 04-06-2019 22:05:00 22.3 C 71 % 16.79 C
555 04-06-2019 22:10:00 22.2 C 70 % 16.47 C
556 04-06-2019 22:15:00 22.1 C 70 % 16.37 C
557 04-06-2019 22:20:00 22.1 C 71 % 16.6 C
558 04-06-2019 22:25:00 22 C 70 % 16.28 C
559 04-06-2019 22:30:00 21.9 C 72 % 16.62 C
560 04-06-2019 22:35:00 21.9 C 71 % 16.4 C
561 04-06-2019 22:40:00 21.9 C 72 % 16.62 C
562 04-06-2019 22:45:00 21.9 C 70 % 16.18 C
563 04-06-2019 22:50:00 21.9 C 70 % 16.18 C
564 04-06-2019 22:55:00 21.8 C 70 % 16.09 C
565 04-06-2019 23:00:00 21.9 C 71 % 16.4 C
566 04-06-2019 23:05:00 22 C 66 % 15.36 C
567 04-06-2019 23:10:00 22.4 C 68 % 16.2 C
568 04-06-2019 23:15:00 22.7 C 67 % 16.26 C
569 04-06-2019 23:20:00 22.7 C 65 % 15.78 C
570 04-06-2019 23:25:00 22.8 C 63 % 15.39 C
571 04-06-2019 23:30:00 22.9 C 63 % 15.48 C
572 04-06-2019 23:35:00 23.1 C 64 % 15.92 C
573 04-06-2019 23:40:00 23 C 65 % 16.07 C
574 04-06-2019 23:45:00 22.9 C 65 % 15.97 C
575 04-06-2019 23:50:00 22.9 C 61 % 14.98 C
Sensor: Nr:Datum:Temp:Feuchte:Taupunkt:
Aussen-T/F 576 04-06-2019 23:55:00 23.2 C 60 % 15.01 C
577 05-06-2019 00:00:00 23.4 C 64 % 16.2 C
578 05-06-2019 00:05:00 23.4 C 63 % 15.96 C
579 05-06-2019 00:10:00 23.3 C 62 % 15.61 C
580 05-06-2019 00:15:00 23.6 C 58 % 14.86 C
581 05-06-2019 00:20:00 24 C 60 % 15.76 C
582 05-06-2019 00:25:00 24 C 61 % 16.02 C
583 05-06-2019 00:30:00 23.8 C 62 % 16.08 C
584 05-06-2019 00:35:00 23.6 C 62 % 15.89 C
585 05-06-2019 00:40:00 23.2 C 64 % 16.01 C
586 05-06-2019 00:45:00 22.7 C 66 % 16.02 C
587 05-06-2019 00:50:00 22.3 C 67 % 15.88 C
588 05-06-2019 00:55:00 22.1 C 67 % 15.69 C
589 05-06-2019 01:00:00 21.8 C 67 % 15.4 C
590 05-06-2019 01:05:00 21.7 C 68 % 15.54 C
591 05-06-2019 01:10:00 21.6 C 70 % 15.89 C
592 05-06-2019 01:15:00 21.4 C 69 % 15.48 C
593 05-06-2019 01:20:00 21.3 C 69 % 15.38 C
594 05-06-2019 01:25:00 21.2 C 71 % 15.73 C
595 05-06-2019 01:30:00 21.2 C 70 % 15.51 C
596 05-06-2019 01:35:00 21.2 C 70 % 15.51 C
597 05-06-2019 01:40:00 21.2 C 71 % 15.73 C
598 05-06-2019 01:45:00 21.2 C 71 % 15.73 C
599 05-06-2019 01:50:00 21.1 C 72 % 15.86 C
600 05-06-2019 01:55:00 21.1 C 71 % 15.64 C
Sensor: Nr:Datum:Temp:Feuchte:Taupunkt:
Aussen-T/F 601 05-06-2019 02:00:00 21 C 72 % 15.76 C
602 05-06-2019 02:05:00 21 C 72 % 15.76 C
603 05-06-2019 02:10:00 20.9 C 73 % 15.88 C
604 05-06-2019 02:15:00 20.8 C 73 % 15.78 C
605 05-06-2019 02:20:00 20.7 C 74 % 15.9 C
606 05-06-2019 02:25:00 20.6 C 75 % 16.01 C
607 05-06-2019 02:30:00 20.6 C 75 % 16.01 C
608 05-06-2019 02:35:00 20.4 C 75 % 15.82 C
609 05-06-2019 02:40:00 20.3 C 75 % 15.72 C
610 05-06-2019 02:45:00 20.3 C 75 % 15.72 C
611 05-06-2019 02:50:00 20.2 C 75 % 15.63 C
612 05-06-2019 02:55:00 20.1 C 76 % 15.74 C
613 05-06-2019 03:00:00 19.9 C 76 % 15.54 C
614 05-06-2019 03:05:00 19.7 C 76 % 15.35 C
615 05-06-2019 03:10:00 19.5 C 77 % 15.36 C
616 05-06-2019 03:15:00 19.3 C 77 % 15.17 C
617 05-06-2019 03:20:00 19.2 C 78 % 15.27 C
618 05-06-2019 03:25:00 19.2 C 78 % 15.27 C
619 05-06-2019 03:30:00 19.2 C 78 % 15.27 C
620 05-06-2019 03:35:00 19.2 C 78 % 15.27 C
621 05-06-2019 03:40:00 19.2 C 79 % 15.47 C
622 05-06-2019 03:45:00 19.2 C 79 % 15.47 C
623 05-06-2019 03:50:00 19.3 C 79 % 15.57 C
624 05-06-2019 03:55:00 19.3 C 79 % 15.57 C
625 05-06-2019 04:00:00 19.3 C 79 % 15.57 C
Sensor: Nr:Datum:Temp:Feuchte:Taupunkt:
Aussen-T/F 626 05-06-2019 04:05:00 19.3 C 80 % 15.76 C
627 05-06-2019 04:10:00 19.3 C 79 % 15.57 C
628 05-06-2019 04:15:00 19.3 C 80 % 15.76 C
629 05-06-2019 04:20:00 19.2 C 80 % 15.67 C
630 05-06-2019 04:25:00 19 C 80 % 15.47 C
631 05-06-2019 04:30:00 18.8 C 79 % 15.08 C
632 05-06-2019 04:35:00 18.7 C 81 % 15.37 C
633 05-06-2019 04:40:00 18.5 C 81 % 15.18 C
634 05-06-2019 04:45:00 18.3 C 81 % 14.98 C
635 05-06-2019 04:50:00 18.1 C 81 % 14.79 C
636 05-06-2019 04:55:00 17.9 C 82 % 14.78 C
637 05-06-2019 05:00:00 17.8 C 82 % 14.69 C
638 05-06-2019 05:05:00 17.7 C 83 % 14.78 C
639 05-06-2019 05:10:00 17.6 C 83 % 14.68 C
640 05-06-2019 05:15:00 17.5 C 83 % 14.58 C
641 05-06-2019 05:20:00 17.4 C 83 % 14.48 C
642 05-06-2019 05:25:00 17.4 C 84 % 14.67 C
643 05-06-2019 05:30:00 17.4 C 84 % 14.67 C
644 05-06-2019 05:35:00 17.3 C 84 % 14.57 C
645 05-06-2019 05:40:00 17.3 C 85 % 14.76 C
646 05-06-2019 05:45:00 17.3 C 85 % 14.76 C
647 05-06-2019 05:50:00 17.3 C 85 % 14.76 C
648 05-06-2019 05:55:00 17.3 C 85 % 14.76 C
649 05-06-2019 06:00:00 17.4 C 85 % 14.85 C
650 05-06-2019 06:05:00 17.6 C 85 % 15.05 C
Sensor: Nr:Datum:Temp:Feuchte:Taupunkt:
Aussen-T/F 651 05-06-2019 06:10:00 17.7 C 85 % 15.15 C
652 05-06-2019 06:15:00 17.7 C 85 % 15.15 C
653 05-06-2019 06:20:00 17.7 C 85 % 15.15 C
654 05-06-2019 06:25:00 17.7 C 85 % 15.15 C
655 05-06-2019 06:30:00 17.7 C 85 % 15.15 C
656 05-06-2019 06:35:00 17.7 C 86 % 15.33 C
657 05-06-2019 06:40:00 17.7 C 86 % 15.33 C
658 05-06-2019 06:45:00 17.7 C 85 % 15.15 C
659 05-06-2019 06:50:00 17.8 C 85 % 15.25 C
660 05-06-2019 06:55:00 17.9 C 86 % 15.53 C
661 05-06-2019 07:00:00 17.9 C 86 % 15.53 C
662 05-06-2019 07:05:00 17.9 C 86 % 15.53 C
663 05-06-2019 07:10:00 17.9 C 86 % 15.53 C
664 05-06-2019 07:15:00 17.9 C 86 % 15.53 C
665 05-06-2019 07:20:00 17.9 C 87 % 15.71 C
666 05-06-2019 07:25:00 17.9 C 86 % 15.53 C
667 05-06-2019 07:30:00 18 C 87 % 15.8 C
668 05-06-2019 07:35:00 18 C 87 % 15.8 C
669 05-06-2019 07:40:00 18.1 C 87 % 15.9 C
670 05-06-2019 07:45:00 18.1 C 87 % 15.9 C
671 05-06-2019 07:50:00 18.1 C 87 % 15.9 C
672 05-06-2019 07:55:00 18.1 C 87 % 15.9 C
673 05-06-2019 08:00:00 18.1 C 87 % 15.9 C
674 05-06-2019 08:05:00 18.1 C 88 % 16.08 C
675 05-06-2019 08:10:00 18.2 C 88 % 16.18 C
Sensor: Nr:Datum:Temp:Feuchte:Taupunkt:
Aussen-T/F 676 05-06-2019 08:15:00 18.2 C 88 % 16.18 C
677 05-06-2019 08:20:00 18.3 C 88 % 16.28 C
678 05-06-2019 08:25:00 18.3 C 88 % 16.28 C
679 05-06-2019 08:30:00 18.4 C 88 % 16.38 C
680 05-06-2019 08:35:00 18.4 C 88 % 16.38 C
681 05-06-2019 08:40:00 18.5 C 88 % 16.48 C
682 05-06-2019 08:45:00 18.6 C 88 % 16.57 C
683 05-06-2019 08:50:00 18.7 C 88 % 16.67 C
684 05-06-2019 08:55:00 18.8 C 89 % 16.95 C
685 05-06-2019 09:00:00 19.2 C 84 % 16.43 C
686 05-06-2019 09:05:00 19.6 C 83 % 16.63 C
687 05-06-2019 09:10:00 20.1 C 81 % 16.74 C
688 05-06-2019 09:15:00 20.5 C 78 % 16.53 C
689 05-06-2019 09:20:00 20.8 C 78 % 16.82 C
690 05-06-2019 09:25:00 21.2 C 77 % 17.01 C
691 05-06-2019 09:30:00 21.3 C 76 % 16.9 C
692 05-06-2019 09:35:00 21.6 C 73 % 16.55 C
693 05-06-2019 09:40:00 21.8 C 72 % 16.53 C
694 05-06-2019 09:45:00 22 C 72 % 16.72 C
695 05-06-2019 09:50:00 22.1 C 72 % 16.82 C
696 05-06-2019 09:55:00 22.1 C 71 % 16.6 C
697 05-06-2019 10:00:00 22.1 C 71 % 16.6 C
698 05-06-2019 10:05:00 22.1 C 73 % 17.03 C
699 05-06-2019 10:10:00 22.2 C 72 % 16.91 C
700 05-06-2019 10:15:00 22.3 C 73 % 17.23 C
Sensor: Nr:Datum:Temp:Feuchte:Taupunkt:
Aussen-T/F 701 05-06-2019 10:20:00 22.5 C 71 % 16.98 C
702 05-06-2019 10:25:00 22.6 C 72 % 17.3 C
703 05-06-2019 10:30:00 22.8 C 72 % 17.49 C
704 05-06-2019 10:35:00 23.1 C 71 % 17.55 C
705 05-06-2019 10:40:00 23.2 C 70 % 17.42 C
706 05-06-2019 10:45:00 23.3 C 68 % 17.06 C
707 05-06-2019 10:50:00 23.3 C 67 % 16.83 C
708 05-06-2019 10:55:00 23.3 C 67 % 16.83 C
709 05-06-2019 11:00:00 23.4 C 69 % 17.39 C
710 05-06-2019 11:05:00 23.4 C 66 % 16.69 C
711 05-06-2019 11:10:00 23.4 C 66 % 16.69 C
712 05-06-2019 11:15:00 23.4 C 66 % 16.69 C
713 05-06-2019 11:20:00 23.5 C 68 % 17.25 C
714 05-06-2019 11:25:00 23.6 C 68 % 17.35 C
715 05-06-2019 11:30:00 23.7 C 67 % 17.21 C
716 05-06-2019 11:35:00 23.8 C 66 % 17.07 C
717 05-06-2019 11:40:00 23.8 C 65 % 16.83 C
718 05-06-2019 11:45:00 23.8 C 64 % 16.58 C
719 05-06-2019 11:50:00 23.9 C 66 % 17.16 C
720 05-06-2019 11:55:00 24 C 65 % 17.01 C
721 05-06-2019 12:00:00 24.2 C 65 % 17.2 C
722 05-06-2019 12:05:00 24.3 C 63 % 16.81 C
723 05-06-2019 12:10:00 24.3 C 62 % 16.55 C
724 05-06-2019 12:15:00 24.3 C 63 % 16.81 C
725 05-06-2019 12:20:00 24.3 C 63 % 16.81 C
Sensor: Nr:Datum:Temp:Feuchte:Taupunkt:
Aussen-T/F 726 05-06-2019 12:25:00 24.3 C 63 % 16.81 C
727 05-06-2019 12:30:00 24.4 C 65 % 17.39 C
728 05-06-2019 12:35:00 24.3 C 63 % 16.81 C
729 05-06-2019 12:40:00 24.3 C 63 % 16.81 C
730 05-06-2019 12:45:00 24.3 C 64 % 17.05 C
731 05-06-2019 12:50:00 24.4 C 63 % 16.9 C
732 05-06-2019 12:55:00 24.7 C 62 % 16.93 C
733 05-06-2019 13:00:00 25 C 61 % 16.96 C
734 05-06-2019 13:05:00 25.3 C 60 % 16.98 C
735 05-06-2019 13:10:00 25.6 C 61 % 17.52 C
736 05-06-2019 13:15:00 25.8 C 60 % 17.45 C
737 05-06-2019 13:20:00 25.9 C 59 % 17.27 C
738 05-06-2019 13:25:00 26 C 61 % 17.9 C
739 05-06-2019 13:30:00 26.1 C 61 % 17.99 C
740 05-06-2019 13:35:00 26.1 C 60 % 17.73 C
741 05-06-2019 13:40:00 26.2 C 59 % 17.55 C
742 05-06-2019 13:45:00 26.3 C 60 % 17.91 C
743 05-06-2019 13:50:00 26.4 C 60 % 18.01 C
744 05-06-2019 13:55:00 26.4 C 60 % 18.01 C
745 05-06-2019 14:00:00 26.5 C 58 % 17.56 C
746 05-06-2019 14:05:00 26.7 C 56 % 17.19 C
747 05-06-2019 14:10:00 26.8 C 57 % 17.57 C
748 05-06-2019 14:15:00 26.9 C 56 % 17.38 C
749 05-06-2019 14:20:00 27.1 C 58 % 18.12 C
750 05-06-2019 14:25:00 27.2 C 57 % 17.94 C
Sensor: Nr:Datum:Temp:Feuchte:Taupunkt:
Aussen-T/F 751 05-06-2019 14:30:00 27.3 C 57 % 18.03 C
752 05-06-2019 14:35:00 27.4 C 55 % 17.56 C
753 05-06-2019 14:40:00 27.5 C 56 % 17.94 C
754 05-06-2019 14:45:00 27.7 C 56 % 18.12 C
755 05-06-2019 14:50:00 27.9 C 54 % 17.73 C
756 05-06-2019 14:55:00 28.1 C 53 % 17.62 C
757 05-06-2019 15:00:00 28.2 C 54 % 18.01 C
758 05-06-2019 15:05:00 28.3 C 54 % 18.1 C
759 05-06-2019 15:10:00 28.6 C 53 % 18.08 C
760 05-06-2019 15:15:00 28.8 C 51 % 17.65 C
761 05-06-2019 15:20:00 29 C 50 % 17.52 C
762 05-06-2019 15:25:00 29.3 C 49 % 17.48 C
763 05-06-2019 15:30:00 29.4 C 49 % 17.57 C
764 05-06-2019 15:35:00 29.6 C 50 % 18.07 C
765 05-06-2019 15:40:00 30 C 50 % 18.44 C
766 05-06-2019 15:45:00 30.5 C 50 % 18.9 C
767 05-06-2019 15:50:00 31 C 42 % 16.58 C
768 05-06-2019 15:55:00 31.3 C 43 % 17.22 C
769 05-06-2019 16:00:00 31.6 C 39 % 15.95 C
770 05-06-2019 16:05:00 31.5 C 40 % 16.26 C
771 05-06-2019 16:10:00 31.4 C 40 % 16.17 C
772 05-06-2019 16:15:00 31.7 C 43 % 17.58 C
773 05-06-2019 16:20:00 31.9 C 43 % 17.76 C
774 05-06-2019 16:25:00 32.2 C 42 % 17.65 C
775 05-06-2019 16:30:00 32.2 C 41 % 17.27 C
Sensor: Nr:Datum:Temp:Feuchte:Taupunkt:
Aussen-T/F 776 05-06-2019 16:35:00 32 C 42 % 17.48 C
777 05-06-2019 16:40:00 31.4 C 45 % 18.03 C
778 05-06-2019 16:45:00 30.6 C 41 % 15.85 C
779 05-06-2019 16:50:00 29.9 C 42 % 15.6 C
780 05-06-2019 16:55:00 29.8 C 43 % 15.87 C
781 05-06-2019 17:00:00 29.9 C 50 % 18.35 C
782 05-06-2019 17:05:00 29.8 C 55 % 19.78 C
783 05-06-2019 17:10:00 29.8 C 54 % 19.49 C
784 05-06-2019 17:15:00 29.8 C 47 % 17.27 C
785 05-06-2019 17:20:00 29.9 C 48 % 17.7 C
786 05-06-2019 17:25:00 29.9 C 49 % 18.02 C
787 05-06-2019 17:30:00 30.2 C 42 % 15.86 C
788 05-06-2019 17:35:00 30.6 C 48 % 18.33 C
789 05-06-2019 17:40:00 31.3 C 40 % 16.08 C
790 05-06-2019 17:45:00 31.4 C 41 % 16.56 C
791 05-06-2019 17:50:00 31.4 C 43 % 17.31 C
792 05-06-2019 17:55:00 31.2 C 44 % 17.49 C
793 05-06-2019 18:00:00 30.8 C 48 % 18.52 C
794 05-06-2019 18:05:00 30.3 C 52 % 19.34 C
795 05-06-2019 18:10:00 29.7 C 53 % 19.09 C
796 05-06-2019 18:15:00 29.1 C 54 % 18.84 C
797 05-06-2019 18:20:00 28.4 C 56 % 18.77 C
798 05-06-2019 18:25:00 27.8 C 57 % 18.5 C
799 05-06-2019 18:30:00 27.3 C 58 % 18.31 C
800 05-06-2019 18:35:00 27.1 C 60 % 18.66 C
Sensor: Nr:Datum:Temp:Feuchte:Taupunkt:
Aussen-T/F 801 05-06-2019 18:40:00 27.3 C 62 % 19.38 C
802 05-06-2019 18:45:00 27.8 C 59 % 19.05 C
803 05-06-2019 18:50:00 28.4 C 59 % 19.61 C
804 05-06-2019 18:55:00 29.3 C 56 % 19.61 C
805 05-06-2019 19:00:00 29.8 C 49 % 17.93 C
806 05-06-2019 19:05:00 30.2 C 54 % 19.86 C
807 05-06-2019 19:10:00 30.4 C 56 % 20.63 C
808 05-06-2019 19:15:00 30.3 C 55 % 20.25 C
809 05-06-2019 19:20:00 30.2 C 54 % 19.86 C
810 05-06-2019 19:25:00 30.1 C 57 % 20.64 C
811 05-06-2019 19:30:00 29.9 C 56 % 20.17 C
812 05-06-2019 19:35:00 29.7 C 55 % 19.69 C
813 05-06-2019 19:40:00 29.4 C 55 % 19.41 C
814 05-06-2019 19:45:00 29.2 C 55 % 19.23 C
815 05-06-2019 19:50:00 28.9 C 55 % 18.95 C
816 05-06-2019 19:55:00 28.7 C 55 % 18.76 C
817 05-06-2019 20:00:00 28.5 C 58 % 19.43 C
818 05-06-2019 20:05:00 28.4 C 57 % 19.06 C
819 05-06-2019 20:10:00 28.4 C 57 % 19.06 C
820 05-06-2019 20:15:00 28.3 C 57 % 18.96 C
821 05-06-2019 20:20:00 28.2 C 56 % 18.59 C
822 05-06-2019 20:25:00 28 C 56 % 18.4 C
823 05-06-2019 20:30:00 27.7 C 55 % 17.84 C
824 05-06-2019 20:35:00 27.4 C 55 % 17.56 C
825 05-06-2019 20:40:00 27.1 C 55 % 17.28 C
Sensor: Nr:Datum:Temp:Feuchte:Taupunkt:
Aussen-T/F 826 05-06-2019 20:45:00 26.7 C 57 % 17.47 C
827 05-06-2019 20:50:00 26.2 C 57 % 17.01 C
828 05-06-2019 20:55:00 25.8 C 59 % 17.18 C
829 05-06-2019 21:00:00 25.3 C 60 % 16.98 C
830 05-06-2019 21:05:00 24.8 C 61 % 16.77 C
831 05-06-2019 21:10:00 24.4 C 63 % 16.9 C
832 05-06-2019 21:15:00 23.9 C 64 % 16.68 C
833 05-06-2019 21:20:00 23.6 C 66 % 16.88 C
834 05-06-2019 21:25:00 23.3 C 68 % 17.06 C
835 05-06-2019 21:30:00 23.1 C 70 % 17.33 C
836 05-06-2019 21:35:00 22.9 C 72 % 17.58 C
837 05-06-2019 21:40:00 22.7 C 73 % 17.61 C
838 05-06-2019 21:45:00 22.6 C 74 % 17.73 C
839 05-06-2019 21:50:00 22.4 C 74 % 17.54 C
840 05-06-2019 21:55:00 22.3 C 75 % 17.65 C
841 05-06-2019 22:00:00 22.2 C 75 % 17.56 C
842 05-06-2019 22:05:00 22.1 C 76 % 17.67 C
843 05-06-2019 22:10:00 21.9 C 75 % 17.27 C
844 05-06-2019 22:15:00 21.8 C 75 % 17.17 C
845 05-06-2019 22:20:00 21.8 C 75 % 17.17 C
846 05-06-2019 22:25:00 21.7 C 75 % 17.07 C
847 05-06-2019 22:30:00 21.6 C 76 % 17.19 C
848 05-06-2019 22:35:00 21.4 C 76 % 16.99 C
849 05-06-2019 22:40:00 21.4 C 76 % 16.99 C
850 05-06-2019 22:45:00 21.3 C 76 % 16.9 C
Sensor: Nr:Datum:Temp:Feuchte:Taupunkt:
Aussen-T/F 851 05-06-2019 22:50:00 21.2 C 77 % 17.01 C
852 05-06-2019 22:55:00 21.1 C 76 % 16.7 C
853 05-06-2019 23:00:00 21 C 76 % 16.61 C
854 05-06-2019 23:05:00 20.9 C 76 % 16.51 C
855 05-06-2019 23:10:00 20.9 C 77 % 16.72 C
856 05-06-2019 23:15:00 20.8 C 77 % 16.62 C
857 05-06-2019 23:20:00 20.8 C 78 % 16.82 C
858 05-06-2019 23:25:00 20.8 C 77 % 16.62 C
859 05-06-2019 23:30:00 20.8 C 77 % 16.62 C
860 05-06-2019 23:35:00 20.8 C 77 % 16.62 C
861 05-06-2019 23:40:00 20.8 C 77 % 16.62 C
862 05-06-2019 23:45:00 20.8 C 78 % 16.82 C
863 05-06-2019 23:50:00 20.8 C 78 % 16.82 C
864 05-06-2019 23:55:00 20.8 C 79 % 17.02 C
865 06-06-2019 00:00:00 20.8 C 79 % 17.02 C
866 06-06-2019 00:05:00 20.8 C 79 % 17.02 C
867 06-06-2019 00:10:00 20.7 C 80 % 17.13 C
868 06-06-2019 00:15:00 21.1 C 76 % 16.7 C
869 06-06-2019 00:20:00 21.6 C 72 % 16.34 C
870 06-06-2019 00:25:00 22.2 C 67 % 15.78 C
871 06-06-2019 00:30:00 22.4 C 64 % 15.26 C
872 06-06-2019 00:35:00 22.3 C 63 % 14.92 C
873 06-06-2019 00:40:00 22.1 C 62 % 14.48 C
874 06-06-2019 00:45:00 21.8 C 62 % 14.2 C
875 06-06-2019 00:50:00 21.7 C 62 % 14.1 C
Sensor: Nr:Datum:Temp:Feuchte:Taupunkt:
Aussen-T/F 876 06-06-2019 00:55:00 21.4 C 65 % 14.55 C
877 06-06-2019 01:00:00 21.2 C 67 % 14.83 C
878 06-06-2019 01:05:00 20.8 C 71 % 15.35 C
879 06-06-2019 01:10:00 20.4 C 76 % 16.03 C
880 06-06-2019 01:15:00 19.7 C 78 % 15.76 C
881 06-06-2019 01:20:00 19.2 C 81 % 15.86 C
882 06-06-2019 01:25:00 18.7 C 83 % 15.75 C
883 06-06-2019 01:30:00 18.3 C 84 % 15.55 C
884 06-06-2019 01:35:00 18.1 C 86 % 15.72 C
885 06-06-2019 01:40:00 17.9 C 87 % 15.71 C
886 06-06-2019 01:45:00 17.8 C 88 % 15.79 C
887 06-06-2019 01:50:00 17.6 C 88 % 15.59 C
888 06-06-2019 01:55:00 17.4 C 90 % 15.74 C
889 06-06-2019 02:00:00 17.4 C 90 % 15.74 C
890 06-06-2019 02:05:00 17.3 C 91 % 15.82 C
891 06-06-2019 02:10:00 17.3 C 91 % 15.82 C
892 06-06-2019 02:15:00 17.2 C 92 % 15.89 C
893 06-06-2019 02:20:00 17.2 C 92 % 15.89 C
894 06-06-2019 02:25:00 17.1 C 92 % 15.79 C
895 06-06-2019 02:30:00 17.1 C 92 % 15.79 C
896 06-06-2019 02:35:00 17 C 92 % 15.69 C
897 06-06-2019 02:40:00 17 C 92 % 15.69 C
898 06-06-2019 02:45:00 16.9 C 93 % 15.76 C
899 06-06-2019 02:50:00 16.9 C 93 % 15.76 C
900 06-06-2019 02:55:00 16.9 C 93 % 15.76 C
Sensor: Nr:Datum:Temp:Feuchte:Taupunkt:
Aussen-T/F 901 06-06-2019 03:00:00 16.9 C 93 % 15.76 C
902 06-06-2019 03:05:00 16.8 C 93 % 15.66 C
903 06-06-2019 03:10:00 16.8 C 93 % 15.66 C
904 06-06-2019 03:15:00 16.8 C 93 % 15.66 C
905 06-06-2019 03:20:00 16.7 C 94 % 15.73 C
906 06-06-2019 03:25:00 16.7 C 94 % 15.73 C
907 06-06-2019 03:30:00 16.7 C 94 % 15.73 C
908 06-06-2019 03:35:00 16.7 C 94 % 15.73 C
909 06-06-2019 03:40:00 16.6 C 94 % 15.63 C
910 06-06-2019 03:45:00 16.6 C 94 % 15.63 C
911 06-06-2019 03:50:00 16.6 C 94 % 15.63 C
912 06-06-2019 03:55:00 16.6 C 94 % 15.63 C
913 06-06-2019 04:00:00 16.6 C 94 % 15.63 C
914 06-06-2019 04:05:00 16.6 C 94 % 15.63 C
915 06-06-2019 04:10:00 16.6 C 94 % 15.63 C
916 06-06-2019 04:15:00 16.6 C 94 % 15.63 C
917 06-06-2019 04:20:00 16.5 C 94 % 15.53 C
918 06-06-2019 04:25:00 16.5 C 95 % 15.7 C
919 06-06-2019 04:30:00 16.4 C 95 % 15.6 C
920 06-06-2019 04:35:00 16.4 C 95 % 15.6 C
921 06-06-2019 04:40:00 16.4 C 95 % 15.6 C
922 06-06-2019 04:45:00 16.4 C 95 % 15.6 C
923 06-06-2019 04:50:00 16.4 C 95 % 15.6 C
924 06-06-2019 04:55:00 16.4 C 95 % 15.6 C
925 06-06-2019 05:00:00 16.4 C 95 % 15.6 C
Sensor: Nr:Datum:Temp:Feuchte:Taupunkt:
Aussen-T/F 926 06-06-2019 05:05:00 16.4 C 95 % 15.6 C
927 06-06-2019 05:10:00 16.3 C 94 % 15.33 C
928 06-06-2019 05:15:00 16 C 94 % 15.03 C
929 06-06-2019 05:20:00 15.7 C 94 % 14.74 C
930 06-06-2019 05:25:00 15.5 C 94 % 14.54 C
931 06-06-2019 05:30:00 15.3 C 93 % 14.18 C
932 06-06-2019 05:35:00 15.2 C 93 % 14.08 C
933 06-06-2019 05:40:00 15 C 93 % 13.88 C
934 06-06-2019 05:45:00 14.9 C 93 % 13.78 C
935 06-06-2019 05:50:00 14.8 C 93 % 13.68 C
936 06-06-2019 05:55:00 14.7 C 93 % 13.58 C
937 06-06-2019 06:00:00 14.6 C 93 % 13.48 C
938 06-06-2019 06:05:00 14.5 C 93 % 13.38 C
939 06-06-2019 06:10:00 14.3 C 93 % 13.18 C
940 06-06-2019 06:15:00 14.3 C 93 % 13.18 C
941 06-06-2019 06:20:00 14.2 C 93 % 13.08 C
942 06-06-2019 06:25:00 14.2 C 93 % 13.08 C
943 06-06-2019 06:30:00 14 C 93 % 12.89 C
944 06-06-2019 06:35:00 13.7 C 92 % 12.42 C
945 06-06-2019 06:40:00 13.5 C 91 % 12.06 C
946 06-06-2019 06:45:00 13.4 C 91 % 11.96 C
947 06-06-2019 06:50:00 13.3 C 92 % 12.03 C
948 06-06-2019 06:55:00 13.3 C 91 % 11.86 C
949 06-06-2019 07:00:00 13.2 C 91 % 11.76 C
950 06-06-2019 07:05:00 13.1 C 91 % 11.67 C
Sensor: Nr:Datum:Temp:Feuchte:Taupunkt:
Aussen-T/F 951 06-06-2019 07:10:00 13.1 C 91 % 11.67 C
952 06-06-2019 07:15:00 13.1 C 91 % 11.67 C
953 06-06-2019 07:20:00 13.1 C 91 % 11.67 C
954 06-06-2019 07:25:00 13.1 C 90 % 11.5 C
955 06-06-2019 07:30:00 13 C 90 % 11.4 C
956 06-06-2019 07:35:00 13.1 C 89 % 11.33 C
957 06-06-2019 07:40:00 13.3 C 89 % 11.53 C
958 06-06-2019 07:45:00 13.4 C 88 % 11.45 C
959 06-06-2019 07:50:00 13.4 C 87 % 11.28 C
960 06-06-2019 07:55:00 13.4 C 88 % 11.45 C
961 06-06-2019 08:00:00 13.6 C 88 % 11.65 C
962 06-06-2019 08:05:00 13.6 C 88 % 11.65 C
963 06-06-2019 08:10:00 13.4 C 87 % 11.28 C
964 06-06-2019 08:15:00 13.4 C 87 % 11.28 C
965 06-06-2019 08:20:00 13.4 C 86 % 11.11 C
966 06-06-2019 08:25:00 13.4 C 84 % 10.75 C
967 06-06-2019 08:30:00 13.3 C 83 % 10.48 C
968 06-06-2019 08:35:00 13.2 C 82 % 10.2 C
969 06-06-2019 08:40:00 13.2 C 83 % 10.38 C
970 06-06-2019 08:45:00 13.2 C 83 % 10.38 C
971 06-06-2019 08:50:00 13.1 C 82 % 10.1 C
972 06-06-2019 08:55:00 13.1 C 82 % 10.1 C
973 06-06-2019 09:00:00 13 C 82 % 10 C
974 06-06-2019 09:05:00 12.9 C 82 % 9.9 C
975 06-06-2019 09:10:00 12.9 C 82 % 9.9 C
Sensor: Nr:Datum:Temp:Feuchte:Taupunkt:
Aussen-T/F 976 06-06-2019 09:15:00 12.9 C 82 % 9.9 C
977 06-06-2019 09:20:00 12.9 C 81 % 9.72 C
978 06-06-2019 09:25:00 13 C 82 % 10 C
979 06-06-2019 09:30:00 13.1 C 81 % 9.92 C
980 06-06-2019 09:35:00 13.1 C 80 % 9.73 C
981 06-06-2019 09:40:00 13.2 C 81 % 10.01 C
982 06-06-2019 09:45:00 13.3 C 81 % 10.11 C
983 06-06-2019 09:50:00 13.4 C 80 % 10.02 C
984 06-06-2019 09:55:00 13.6 C 80 % 10.22 C
985 06-06-2019 10:00:00 13.6 C 81 % 10.4 C
986 06-06-2019 10:05:00 13.7 C 80 % 10.32 C
987 06-06-2019 10:10:00 13.6 C 78 % 9.84 C
988 06-06-2019 10:15:00 13.6 C 79 % 10.03 C
989 06-06-2019 10:20:00 13.6 C 80 % 10.22 C
990 06-06-2019 10:25:00 13.6 C 79 % 10.03 C
991 06-06-2019 10:30:00 13.6 C 80 % 10.22 C
992 06-06-2019 10:35:00 13.7 C 80 % 10.32 C
993 06-06-2019 10:40:00 13.8 C 81 % 10.6 C
994 06-06-2019 10:45:00 14.1 C 81 % 10.89 C
995 06-06-2019 10:50:00 14.3 C 80 % 10.9 C
996 06-06-2019 10:55:00 14.5 C 81 % 11.28 C
997 06-06-2019 11:00:00 14.6 C 76 % 10.42 C
998 06-06-2019 11:05:00 14.7 C 76 % 10.52 C
999 06-06-2019 11:10:00 14.9 C 77 % 10.91 C
1000 06-06-2019 11:15:00 15.1 C 77 % 11.1 C
Sensor: Nr:Datum:Temp:Feuchte:Taupunkt:
Aussen-T/F 1001 06-06-2019 11:20:00 15.2 C 77 % 11.2 C
1002 06-06-2019 11:25:00 15.1 C 76 % 10.9 C
1003 06-06-2019 11:30:00 15.1 C 76 % 10.9 C
1004 06-06-2019 11:35:00 15 C 75 % 10.61 C
1005 06-06-2019 11:40:00 14.9 C 74 % 10.31 C
1006 06-06-2019 11:45:00 14.9 C 74 % 10.31 C
1007 06-06-2019 11:50:00 14.8 C 74 % 10.22 C
1008 06-06-2019 11:55:00 14.9 C 74 % 10.31 C
1009 06-06-2019 12:00:00 14.8 C 73 % 10.01 C
1010 06-06-2019 12:05:00 14.8 C 73 % 10.01 C
1011 06-06-2019 12:10:00 14.9 C 74 % 10.31 C
1012 06-06-2019 12:15:00 15.1 C 75 % 10.71 C
1013 06-06-2019 12:20:00 15.2 C 74 % 10.6 C
1014 06-06-2019 12:25:00 15.2 C 74 % 10.6 C
1015 06-06-2019 12:30:00 15.3 C 76 % 11.1 C
1016 06-06-2019 12:35:00 15.5 C 74 % 10.89 C
1017 06-06-2019 12:40:00 15.8 C 73 % 10.97 C
1018 06-06-2019 12:45:00 16 C 73 % 11.17 C
1019 06-06-2019 12:50:00 16.1 C 71 % 10.84 C
1020 06-06-2019 12:55:00 16.2 C 69 % 10.51 C
1021 06-06-2019 13:00:00 16.3 C 69 % 10.61 C
1022 06-06-2019 13:05:00 16.4 C 70 % 10.92 C
1023 06-06-2019 13:10:00 16.5 C 67 % 10.36 C
1024 06-06-2019 13:15:00 16.6 C 69 % 10.89 C
1025 06-06-2019 13:20:00 16.6 C 69 % 10.89 C
Sensor: Nr:Datum:Temp:Feuchte:Taupunkt:
Aussen-T/F 1026 06-06-2019 13:25:00 16.6 C 69 % 10.89 C
1027 06-06-2019 13:30:00 16.4 C 68 % 10.48 C
1028 06-06-2019 13:35:00 16.4 C 70 % 10.92 C
1029 06-06-2019 13:40:00 16.4 C 70 % 10.92 C
1030 06-06-2019 13:45:00 16.4 C 70 % 10.92 C
1031 06-06-2019 13:50:00 16.6 C 71 % 11.32 C
1032 06-06-2019 13:55:00 16.7 C 70 % 11.21 C
1033 06-06-2019 14:00:00 16.8 C 70 % 11.3 C
1034 06-06-2019 14:05:00 16.9 C 70 % 11.4 C
1035 06-06-2019 14:10:00 16.9 C 69 % 11.18 C
1036 06-06-2019 14:15:00 17 C 67 % 10.83 C
1037 06-06-2019 14:20:00 16.9 C 69 % 11.18 C
1038 06-06-2019 14:25:00 17 C 67 % 10.83 C
1039 06-06-2019 14:30:00 17.1 C 68 % 11.15 C
1040 06-06-2019 14:35:00 17.1 C 68 % 11.15 C
1041 06-06-2019 14:40:00 17.1 C 68 % 11.15 C
1042 06-06-2019 14:45:00 17.1 C 67 % 10.93 C
1043 06-06-2019 14:50:00 17.1 C 67 % 10.93 C
1044 06-06-2019 14:55:00 17.3 C 68 % 11.34 C
1045 06-06-2019 15:00:00 17.4 C 68 % 11.44 C
1046 06-06-2019 15:05:00 17.2 C 68 % 11.25 C
1047 06-06-2019 15:10:00 17.2 C 71 % 11.9 C
1048 06-06-2019 15:15:00 17.2 C 69 % 11.47 C
1049 06-06-2019 15:20:00 17.5 C 67 % 11.31 C
1050 06-06-2019 15:25:00 18 C 69 % 12.23 C
Sensor: Nr:Datum:Temp:Feuchte:Taupunkt:
Aussen-T/F 1051 06-06-2019 15:30:00 18.4 C 65 % 11.71 C
1052 06-06-2019 15:35:00 18.4 C 62 % 10.99 C
1053 06-06-2019 15:40:00 18.1 C 63 % 10.95 C
1054 06-06-2019 15:45:00 17.8 C 65 % 11.14 C
1055 06-06-2019 15:50:00 17.8 C 66 % 11.37 C
1056 06-06-2019 15:55:00 18.1 C 64 % 11.19 C
1057 06-06-2019 16:00:00 18.1 C 66 % 11.65 C
1058 06-06-2019 16:05:00 18.3 C 65 % 11.61 C
1059 06-06-2019 16:10:00 18.3 C 64 % 11.38 C
1060 06-06-2019 16:15:00 18.1 C 63 % 10.95 C
1061 06-06-2019 16:20:00 17.9 C 65 % 11.23 C
1062 06-06-2019 16:25:00 17.8 C 66 % 11.37 C
1063 06-06-2019 16:30:00 17.7 C 67 % 11.5 C
1064 06-06-2019 16:35:00 17.8 C 68 % 11.82 C
1065 06-06-2019 16:40:00 18.2 C 66 % 11.75 C
1066 06-06-2019 16:45:00 18.1 C 65 % 11.42 C
1067 06-06-2019 16:50:00 17.9 C 65 % 11.23 C
1068 06-06-2019 16:55:00 17.8 C 66 % 11.37 C
1069 06-06-2019 17:00:00 17.5 C 67 % 11.31 C
1070 06-06-2019 17:05:00 17.2 C 66 % 10.8 C
1071 06-06-2019 17:10:00 17 C 67 % 10.83 C
1072 06-06-2019 17:15:00 16.9 C 68 % 10.96 C
1073 06-06-2019 17:20:00 16.8 C 68 % 10.87 C
1074 06-06-2019 17:25:00 16.7 C 69 % 10.99 C
1075 06-06-2019 17:30:00 16.6 C 69 % 10.89 C
Sensor: Nr:Datum:Temp:Feuchte:Taupunkt:
Aussen-T/F 1076 06-06-2019 17:35:00 16.6 C 71 % 11.32 C
1077 06-06-2019 17:40:00 16.5 C 71 % 11.23 C
1078 06-06-2019 17:45:00 16.4 C 71 % 11.13 C
1079 06-06-2019 17:50:00 16.3 C 72 % 11.25 C
1080 06-06-2019 17:55:00 16.3 C 71 % 11.04 C
1081 06-06-2019 18:00:00 16.2 C 71 % 10.94 C
1082 06-06-2019 18:05:00 16.2 C 72 % 11.15 C
1083 06-06-2019 18:10:00 16.1 C 73 % 11.26 C
1084 06-06-2019 18:15:00 16.1 C 73 % 11.26 C
1085 06-06-2019 18:20:00 16.1 C 72 % 11.06 C
1086 06-06-2019 18:25:00 16.3 C 74 % 11.66 C
1087 06-06-2019 18:30:00 16.7 C 72 % 11.63 C
1088 06-06-2019 18:35:00 17.1 C 70 % 11.59 C
1089 06-06-2019 18:40:00 17.6 C 69 % 11.85 C
1090 06-06-2019 18:45:00 18.2 C 65 % 11.52 C
1091 06-06-2019 18:50:00 18.5 C 64 % 11.57 C
1092 06-06-2019 18:55:00 18.6 C 64 % 11.66 C
1093 06-06-2019 19:00:00 18.6 C 63 % 11.42 C
1094 06-06-2019 19:05:00 18.7 C 62 % 11.28 C
1095 06-06-2019 19:10:00 18.6 C 62 % 11.18 C
1096 06-06-2019 19:15:00 18.3 C 63 % 11.14 C
1097 06-06-2019 19:20:00 18.3 C 63 % 11.14 C
1098 06-06-2019 19:25:00 18.4 C 64 % 11.47 C
1099 06-06-2019 19:30:00 18.4 C 65 % 11.71 C
1100 06-06-2019 19:35:00 18.2 C 63 % 11.05 C
Sensor: Nr:Datum:Temp:Feuchte:Taupunkt:
Aussen-T/F 1101 06-06-2019 19:40:00 17.9 C 66 % 11.46 C
1102 06-06-2019 19:45:00 17.9 C 64 % 11 C
1103 06-06-2019 19:50:00 17.9 C 64 % 11 C
1104 06-06-2019 19:55:00 18 C 64 % 11.09 C
1105 06-06-2019 20:00:00 17.9 C 63 % 10.76 C
1106 06-06-2019 20:05:00 17.9 C 64 % 11 C
1107 06-06-2019 20:10:00 17.9 C 63 % 10.76 C
1108 06-06-2019 20:15:00 17.9 C 64 % 11 C
1109 06-06-2019 20:20:00 17.9 C 64 % 11 C
1110 06-06-2019 20:25:00 17.8 C 63 % 10.67 C
1111 06-06-2019 20:30:00 17.7 C 64 % 10.81 C
1112 06-06-2019 20:35:00 17.6 C 66 % 11.18 C
1113 06-06-2019 20:40:00 17.7 C 66 % 11.27 C
1114 06-06-2019 20:45:00 17.6 C 65 % 10.95 C
1115 06-06-2019 20:50:00 17.5 C 71 % 12.19 C
1116 06-06-2019 20:55:00 17.3 C 71 % 12 C
1117 06-06-2019 21:00:00 17.1 C 72 % 12.02 C
1118 06-06-2019 21:05:00 16.7 C 73 % 11.84 C
1119 06-06-2019 21:10:00 16.5 C 73 % 11.65 C
1120 06-06-2019 21:15:00 16.2 C 74 % 11.56 C
1121 06-06-2019 21:20:00 15.8 C 74 % 11.18 C
1122 06-06-2019 21:25:00 15.5 C 74 % 10.89 C
1123 06-06-2019 21:30:00 15.2 C 75 % 10.8 C
1124 06-06-2019 21:35:00 14.9 C 76 % 10.71 C
1125 06-06-2019 21:40:00 14.7 C 77 % 10.71 C
Sensor: Nr:Datum:Temp:Feuchte:Taupunkt:
Aussen-T/F 1126 06-06-2019 21:45:00 14.4 C 78 % 10.62 C
1127 06-06-2019 21:50:00 14.2 C 79 % 10.61 C
1128 06-06-2019 21:55:00 14 C 80 % 10.61 C
1129 06-06-2019 22:00:00 13.8 C 81 % 10.6 C
1130 06-06-2019 22:05:00 13.6 C 82 % 10.59 C
1131 06-06-2019 22:10:00 13.3 C 83 % 10.48 C
1132 06-06-2019 22:15:00 13.1 C 83 % 10.28 C
1133 06-06-2019 22:20:00 12.9 C 84 % 10.26 C
1134 06-06-2019 22:25:00 12.8 C 84 % 10.17 C
1135 06-06-2019 22:30:00 12.6 C 84 % 9.97 C
1136 06-06-2019 22:35:00 12.4 C 84 % 9.78 C
1137 06-06-2019 22:40:00 12.3 C 85 % 9.85 C
1138 06-06-2019 22:45:00 12.2 C 85 % 9.76 C
1139 06-06-2019 22:50:00 12.1 C 85 % 9.66 C
1140 06-06-2019 22:55:00 11.9 C 86 % 9.64 C
1141 06-06-2019 23:00:00 11.9 C 86 % 9.64 C
1142 06-06-2019 23:05:00 11.8 C 86 % 9.54 C
1143 06-06-2019 23:10:00 11.8 C 87 % 9.71 C
1144 06-06-2019 23:15:00 11.7 C 87 % 9.61 C
1145 06-06-2019 23:20:00 11.6 C 87 % 9.51 C
1146 06-06-2019 23:25:00 11.4 C 87 % 9.32 C
1147 06-06-2019 23:30:00 11.3 C 88 % 9.39 C
1148 06-06-2019 23:35:00 11.3 C 88 % 9.39 C
1149 06-06-2019 23:40:00 11.2 C 88 % 9.29 C
1150 06-06-2019 23:45:00 11.2 C 88 % 9.29 C
Sensor: Nr:Datum:Temp:Feuchte:Taupunkt:
Aussen-T/F 1151 06-06-2019 23:50:00 11.1 C 89 % 9.36 C
1152 06-06-2019 23:55:00 10.9 C 89 % 9.16 C
1153 07-06-2019 00:00:00 10.8 C 89 % 9.06 C
1154 07-06-2019 00:05:00 10.8 C 89 % 9.06 C
1155 07-06-2019 00:10:00 10.7 C 90 % 9.13 C
1156 07-06-2019 00:15:00 10.6 C 90 % 9.03 C
1157 07-06-2019 00:20:00 10.6 C 91 % 9.19 C
1158 07-06-2019 00:25:00 10.5 C 90 % 8.93 C
1159 07-06-2019 00:30:00 10.4 C 91 % 9 C
1160 07-06-2019 00:35:00 10.4 C 91 % 9 C
1161 07-06-2019 00:40:00 10.3 C 91 % 8.9 C
1162 07-06-2019 00:45:00 10.2 C 91 % 8.8 C
1163 07-06-2019 00:50:00 10.2 C 91 % 8.8 C
1164 07-06-2019 00:55:00 10.2 C 91 % 8.8 C
1165 07-06-2019 01:00:00 10.1 C 92 % 8.86 C
1166 07-06-2019 01:05:00 10.1 C 92 % 8.86 C
1167 07-06-2019 01:10:00 10 C 92 % 8.76 C
1168 07-06-2019 01:15:00 10 C 92 % 8.76 C
1169 07-06-2019 01:20:00 9.9 C 92 % 8.66 C
1170 07-06-2019 01:25:00 9.9 C 92 % 8.66 C
1171 07-06-2019 01:30:00 9.8 C 92 % 8.56 C
1172 07-06-2019 01:35:00 9.8 C 92 % 8.56 C
1173 07-06-2019 01:40:00 9.8 C 92 % 8.56 C
1174 07-06-2019 01:45:00 9.7 C 92 % 8.46 C
1175 07-06-2019 01:50:00 9.7 C 93 % 8.62 C
Sensor: Nr:Datum:Temp:Feuchte:Taupunkt:
Aussen-T/F 1176 07-06-2019 01:55:00 9.7 C 93 % 8.62 C
1177 07-06-2019 02:00:00 9.6 C 93 % 8.53 C
1178 07-06-2019 02:05:00 9.6 C 93 % 8.53 C
1179 07-06-2019 02:10:00 9.5 C 93 % 8.43 C
1180 07-06-2019 02:15:00 9.6 C 93 % 8.53 C
1181 07-06-2019 02:20:00 9.5 C 93 % 8.43 C
1182 07-06-2019 02:25:00 9.5 C 93 % 8.43 C
1183 07-06-2019 02:30:00 9.4 C 93 % 8.33 C
1184 07-06-2019 02:35:00 9.3 C 93 % 8.23 C
1185 07-06-2019 02:40:00 9.3 C 93 % 8.23 C
1186 07-06-2019 02:45:00 9.3 C 93 % 8.23 C
1187 07-06-2019 02:50:00 9.2 C 93 % 8.13 C
1188 07-06-2019 02:55:00 9.3 C 94 % 8.39 C
1189 07-06-2019 03:00:00 9.4 C 94 % 8.48 C
1190 07-06-2019 03:05:00 9.3 C 94 % 8.39 C
1191 07-06-2019 03:10:00 9.3 C 94 % 8.39 C
1192 07-06-2019 03:15:00 9.3 C 94 % 8.39 C
1193 07-06-2019 03:20:00 9.3 C 94 % 8.39 C
1194 07-06-2019 03:25:00 9.3 C 94 % 8.39 C
1195 07-06-2019 03:30:00 9.4 C 95 % 8.64 C
1196 07-06-2019 03:35:00 9.6 C 95 % 8.84 C
1197 07-06-2019 03:40:00 9.8 C 95 % 9.04 C
1198 07-06-2019 03:45:00 9.9 C 95 % 9.14 C
1199 07-06-2019 03:50:00 10.1 C 95 % 9.34 C
1200 07-06-2019 03:55:00 10.1 C 95 % 9.34 C
Sensor: Nr:Datum:Temp:Feuchte:Taupunkt:
Aussen-T/F 1201 07-06-2019 04:00:00 10.2 C 95 % 9.44 C
1202 07-06-2019 04:05:00 10.2 C 95 % 9.44 C
1203 07-06-2019 04:10:00 10.3 C 95 % 9.54 C
1204 07-06-2019 04:15:00 10.3 C 95 % 9.54 C
1205 07-06-2019 04:20:00 10.3 C 95 % 9.54 C
1206 07-06-2019 04:25:00 10.3 C 95 % 9.54 C
1207 07-06-2019 04:30:00 10.3 C 95 % 9.54 C
1208 07-06-2019 04:35:00 10.2 C 95 % 9.44 C
1209 07-06-2019 04:40:00 10.1 C 94 % 9.18 C
1210 07-06-2019 04:45:00 9.9 C 94 % 8.98 C
1211 07-06-2019 04:50:00 9.8 C 94 % 8.88 C
1212 07-06-2019 04:55:00 9.7 C 94 % 8.78 C
1213 07-06-2019 05:00:00 9.6 C 94 % 8.68 C
1214 07-06-2019 05:05:00 9.4 C 94 % 8.48 C
1215 07-06-2019 05:10:00 9.3 C 94 % 8.39 C
1216 07-06-2019 05:15:00 9.3 C 94 % 8.39 C
1217 07-06-2019 05:20:00 9.2 C 94 % 8.29 C
1218 07-06-2019 05:25:00 9.2 C 94 % 8.29 C
1219 07-06-2019 05:30:00 9.1 C 94 % 8.19 C
1220 07-06-2019 05:35:00 9.1 C 94 % 8.19 C
1221 07-06-2019 05:40:00 9.1 C 95 % 8.34 C
1222 07-06-2019 05:45:00 9.1 C 95 % 8.34 C
1223 07-06-2019 05:50:00 9.2 C 95 % 8.44 C
1224 07-06-2019 05:55:00 9.2 C 95 % 8.44 C
1225 07-06-2019 06:00:00 9.2 C 95 % 8.44 C
Sensor: Nr:Datum:Temp:Feuchte:Taupunkt:
Aussen-T/F 1226 07-06-2019 06:05:00 9.3 C 95 % 8.54 C
1227 07-06-2019 06:10:00 9.4 C 95 % 8.64 C
1228 07-06-2019 06:15:00 9.5 C 96 % 8.89 C
1229 07-06-2019 06:20:00 9.6 C 96 % 8.99 C
1230 07-06-2019 06:25:00 9.6 C 96 % 8.99 C
1231 07-06-2019 06:30:00 9.6 C 96 % 8.99 C
1232 07-06-2019 06:35:00 9.7 C 96 % 9.09 C
1233 07-06-2019 06:40:00 9.7 C 96 % 9.09 C
1234 07-06-2019 06:45:00 9.7 C 96 % 9.09 C
1235 07-06-2019 06:50:00 9.9 C 96 % 9.29 C
1236 07-06-2019 06:55:00 10.1 C 96 % 9.49 C
1237 07-06-2019 07:00:00 10.2 C 96 % 9.59 C
1238 07-06-2019 07:05:00 10.3 C 96 % 9.69 C
1239 07-06-2019 07:10:00 10.3 C 96 % 9.69 C
1240 07-06-2019 07:15:00 10.3 C 96 % 9.69 C
1241 07-06-2019 07:20:00 10.3 C 96 % 9.69 C
1242 07-06-2019 07:25:00 10.3 C 96 % 9.69 C
1243 07-06-2019 07:30:00 10.3 C 96 % 9.69 C
1244 07-06-2019 07:35:00 10.3 C 96 % 9.69 C
1245 07-06-2019 07:40:00 10.4 C 96 % 9.79 C
1246 07-06-2019 07:45:00 10.5 C 96 % 9.89 C
1247 07-06-2019 07:50:00 10.6 C 96 % 9.99 C
1248 07-06-2019 07:55:00 10.8 C 96 % 10.19 C
1249 07-06-2019 08:00:00 10.9 C 96 % 10.29 C
1250 07-06-2019 08:05:00 11.1 C 96 % 10.49 C
Sensor: Nr:Datum:Temp:Feuchte:Taupunkt:
Aussen-T/F 1251 07-06-2019 08:10:00 11.2 C 95 % 10.43 C
1252 07-06-2019 08:15:00 11.4 C 95 % 10.63 C
1253 07-06-2019 08:20:00 11.6 C 94 % 10.67 C
1254 07-06-2019 08:25:00 11.7 C 94 % 10.77 C
1255 07-06-2019 08:30:00 11.8 C 93 % 10.71 C
1256 07-06-2019 08:35:00 12 C 92 % 10.74 C
1257 07-06-2019 08:40:00 12.2 C 91 % 10.78 C
1258 07-06-2019 08:45:00 12.6 C 90 % 11 C
1259 07-06-2019 08:50:00 12.8 C 88 % 10.86 C
1260 07-06-2019 08:55:00 13.1 C 87 % 10.99 C
1261 07-06-2019 09:00:00 13.2 C 86 % 10.91 C
1262 07-06-2019 09:05:00 13.3 C 86 % 11.01 C
1263 07-06-2019 09:10:00 13.4 C 85 % 10.93 C
1264 07-06-2019 09:15:00 13.6 C 85 % 11.13 C
1265 07-06-2019 09:20:00 13.6 C 84 % 10.95 C
1266 07-06-2019 09:25:00 13.7 C 84 % 11.05 C
1267 07-06-2019 09:30:00 13.7 C 84 % 11.05 C
1268 07-06-2019 09:35:00 13.9 C 84 % 11.24 C
1269 07-06-2019 09:40:00 14 C 83 % 11.16 C
1270 07-06-2019 09:45:00 14.1 C 83 % 11.26 C
1271 07-06-2019 09:50:00 14.2 C 83 % 11.36 C
1272 07-06-2019 09:55:00 14.4 C 83 % 11.55 C
1273 07-06-2019 10:00:00 14.7 C 82 % 11.66 C
1274 07-06-2019 10:05:00 15 C 82 % 11.95 C
1275 07-06-2019 10:10:00 15.3 C 81 % 12.06 C
Sensor: Nr:Datum:Temp:Feuchte:Taupunkt:
Aussen-T/F 1276 07-06-2019 10:15:00 15.7 C 80 % 12.26 C
1277 07-06-2019 10:20:00 16.1 C 79 % 12.46 C
1278 07-06-2019 10:25:00 16.5 C 78 % 12.65 C
1279 07-06-2019 10:30:00 16.9 C 76 % 12.65 C
1280 07-06-2019 10:35:00 17.3 C 74 % 12.62 C
1281 07-06-2019 10:40:00 17.7 C 72 % 12.59 C
1282 07-06-2019 10:45:00 18 C 70 % 12.45 C
1283 07-06-2019 10:50:00 18.2 C 68 % 12.2 C
1284 07-06-2019 10:55:00 18.4 C 68 % 12.39 C
1285 07-06-2019 11:00:00 18.5 C 66 % 12.03 C
1286 07-06-2019 11:05:00 18.6 C 65 % 11.9 C
1287 07-06-2019 11:10:00 18.6 C 66 % 12.13 C
1288 07-06-2019 11:15:00 18.6 C 66 % 12.13 C
1289 07-06-2019 11:20:00 18.8 C 64 % 11.85 C
1290 07-06-2019 11:25:00 18.8 C 65 % 12.09 C
1291 07-06-2019 11:30:00 18.8 C 66 % 12.32 C
1292 07-06-2019 11:35:00 18.8 C 66 % 12.32 C
1293 07-06-2019 11:40:00 18.8 C 65 % 12.09 C
1294 07-06-2019 11:45:00 18.8 C 65 % 12.09 C
1295 07-06-2019 11:50:00 18.9 C 67 % 12.64 C
1296 07-06-2019 11:55:00 19.1 C 65 % 12.37 C
1297 07-06-2019 12:00:00 19.3 C 64 % 12.32 C
1298 07-06-2019 12:05:00 19.4 C 64 % 12.42 C
1299 07-06-2019 12:10:00 19.6 C 64 % 12.61 C
1300 07-06-2019 12:15:00 19.7 C 64 % 12.7 C
Sensor: Nr:Datum:Temp:Feuchte:Taupunkt:
Aussen-T/F 1301 07-06-2019 12:20:00 19.9 C 62 % 12.41 C
1302 07-06-2019 12:25:00 19.9 C 62 % 12.41 C
1303 07-06-2019 12:30:00 19.9 C 63 % 12.65 C
1304 07-06-2019 12:35:00 19.9 C 63 % 12.65 C
1305 07-06-2019 12:40:00 20.1 C 63 % 12.84 C
1306 07-06-2019 12:45:00 20.2 C 63 % 12.94 C
1307 07-06-2019 12:50:00 20.3 C 65 % 13.51 C
1308 07-06-2019 12:55:00 20.6 C 64 % 13.55 C
1309 07-06-2019 13:00:00 20.8 C 63 % 13.5 C
1310 07-06-2019 13:05:00 20.9 C 64 % 13.84 C
1311 07-06-2019 13:10:00 21.1 C 63 % 13.79 C
1312 07-06-2019 13:15:00 21.2 C 65 % 14.36 C
1313 07-06-2019 13:20:00 21.3 C 62 % 13.73 C
1314 07-06-2019 13:25:00 21.2 C 63 % 13.88 C
1315 07-06-2019 13:30:00 21.1 C 63 % 13.79 C
1316 07-06-2019 13:35:00 21 C 63 % 13.69 C
1317 07-06-2019 13:40:00 20.8 C 66 % 14.22 C
1318 07-06-2019 13:45:00 20.6 C 65 % 13.79 C
1319 07-06-2019 13:50:00 20.4 C 67 % 14.07 C
1320 07-06-2019 13:55:00 20.3 C 68 % 14.2 C
1321 07-06-2019 14:00:00 20.4 C 68 % 14.3 C
1322 07-06-2019 14:05:00 20.4 C 69 % 14.52 C
1323 07-06-2019 14:10:00 20.6 C 70 % 14.94 C
1324 07-06-2019 14:15:00 20.6 C 71 % 15.16 C
1325 07-06-2019 14:20:00 20.8 C 73 % 15.78 C
Sensor: Nr:Datum:Temp:Feuchte:Taupunkt:
Aussen-T/F 1326 07-06-2019 14:25:00 21.2 C 72 % 15.95 C
1327 07-06-2019 14:30:00 21.2 C 66 % 14.6 C
1328 07-06-2019 14:35:00 21.2 C 66 % 14.6 C
1329 07-06-2019 14:40:00 21.3 C 70 % 15.61 C
1330 07-06-2019 14:45:00 21.5 C 65 % 14.65 C
1331 07-06-2019 14:50:00 21.8 C 66 % 15.17 C
1332 07-06-2019 14:55:00 22.1 C 62 % 14.48 C
1333 07-06-2019 15:00:00 22.3 C 63 % 14.92 C
1334 07-06-2019 15:05:00 22.7 C 64 % 15.54 C
1335 07-06-2019 15:10:00 23.1 C 61 % 15.17 C
1336 07-06-2019 15:15:00 23.4 C 59 % 14.93 C
1337 07-06-2019 15:20:00 23.8 C 58 % 15.04 C
1338 07-06-2019 15:25:00 23.9 C 57 % 14.87 C
1339 07-06-2019 15:30:00 24.2 C 57 % 15.14 C
1340 07-06-2019 15:35:00 24.7 C 55 % 15.05 C
1341 07-06-2019 15:40:00 25.2 C 54 % 15.23 C
1342 07-06-2019 15:45:00 25.4 C 51 % 14.53 C
1343 07-06-2019 15:50:00 25.6 C 53 % 15.31 C
1344 07-06-2019 15:55:00 25.8 C 54 % 15.79 C
1345 07-06-2019 16:00:00 26.2 C 51 % 15.27 C
1346 07-06-2019 16:05:00 26.6 C 49 % 15.01 C
1347 07-06-2019 16:10:00 26.8 C 49 % 15.19 C
1348 07-06-2019 16:15:00 27 C 48 % 15.05 C
1349 07-06-2019 16:20:00 26.7 C 48 % 14.78 C
1350 07-06-2019 16:25:00 26.2 C 49 % 14.64 C
Sensor: Nr:Datum:Temp:Feuchte:Taupunkt:
Aussen-T/F 1351 07-06-2019 16:30:00 25.7 C 51 % 14.81 C
1352 07-06-2019 16:35:00 25.4 C 51 % 14.53 C
1353 07-06-2019 16:40:00 25.2 C 53 % 14.94 C
1354 07-06-2019 16:45:00 25.1 C 52 % 14.55 C
1355 07-06-2019 16:50:00 25.1 C 54 % 15.14 C
1356 07-06-2019 16:55:00 25.6 C 52 % 15.02 C
1357 07-06-2019 17:00:00 26.2 C 54 % 16.16 C
1358 07-06-2019 17:05:00 26.9 C 52 % 16.21 C
1359 07-06-2019 17:10:00 26.9 C 49 % 15.28 C
1360 07-06-2019 17:15:00 26.2 C 51 % 15.27 C
1361 07-06-2019 17:20:00 25.5 C 61 % 17.43 C
1362 07-06-2019 17:25:00 25.3 C 55 % 15.61 C
1363 07-06-2019 17:30:00 25.3 C 60 % 16.98 C
1364 07-06-2019 17:35:00 25.1 C 61 % 17.05 C
1365 07-06-2019 17:40:00 24.7 C 63 % 17.18 C
1366 07-06-2019 17:45:00 24.3 C 65 % 17.3 C
1367 07-06-2019 17:50:00 24.1 C 61 % 16.11 C
1368 07-06-2019 17:55:00 23.9 C 63 % 16.43 C
1369 07-06-2019 18:00:00 23.8 C 65 % 16.83 C
1370 07-06-2019 18:05:00 23.8 C 64 % 16.58 C
1371 07-06-2019 18:10:00 23.7 C 60 % 15.48 C
1372 07-06-2019 18:15:00 23.1 C 61 % 15.17 C
1373 07-06-2019 18:20:00 22.4 C 60 % 14.26 C
1374 07-06-2019 18:25:00 21.8 C 59 % 13.44 C
1375 07-06-2019 18:30:00 21.2 C 58 % 12.61 C
Sensor: Nr:Datum:Temp:Feuchte:Taupunkt:
Aussen-T/F 1376 07-06-2019 18:35:00 20.9 C 56 % 11.8 C
1377 07-06-2019 18:40:00 20.7 C 55 % 11.34 C
1378 07-06-2019 18:45:00 20.3 C 55 % 10.97 C
1379 07-06-2019 18:50:00 19.8 C 55 % 10.51 C
1380 07-06-2019 18:55:00 19.4 C 55 % 10.13 C
1381 07-06-2019 19:00:00 19.1 C 54 % 9.58 C
1382 07-06-2019 19:05:00 18.3 C 57 % 9.64 C
1383 07-06-2019 19:10:00 17.7 C 58 % 9.34 C
1384 07-06-2019 19:15:00 17.3 C 62 % 9.96 C
1385 07-06-2019 19:20:00 17.2 C 62 % 9.86 C
1386 07-06-2019 19:25:00 17 C 62 % 9.67 C
1387 07-06-2019 19:30:00 16.8 C 63 % 9.72 C
1388 07-06-2019 19:35:00 16.8 C 65 % 10.19 C
1389 07-06-2019 19:40:00 16.7 C 65 % 10.09 C
1390 07-06-2019 19:45:00 16.6 C 67 % 10.45 C
1391 07-06-2019 19:50:00 16.4 C 69 % 10.7 C
1392 07-06-2019 19:55:00 16.3 C 68 % 10.39 C
1393 07-06-2019 20:00:00 16.1 C 68 % 10.2 C
1394 07-06-2019 20:05:00 15.9 C 68 % 10.01 C
1395 07-06-2019 20:10:00 15.9 C 70 % 10.44 C
1396 07-06-2019 20:15:00 15.8 C 70 % 10.34 C
1397 07-06-2019 20:20:00 15.7 C 69 % 10.03 C
1398 07-06-2019 20:25:00 15.7 C 71 % 10.46 C
1399 07-06-2019 20:30:00 15.4 C 72 % 10.38 C
1400 07-06-2019 20:35:00 15.1 C 73 % 10.3 C
Sensor: Nr:Datum:Temp:Feuchte:Taupunkt:
Aussen-T/F 1401 07-06-2019 20:40:00 14.9 C 74 % 10.31 C
1402 07-06-2019 20:45:00 14.8 C 76 % 10.61 C
1403 07-06-2019 20:50:00 14.8 C 74 % 10.22 C
1404 07-06-2019 20:55:00 14.9 C 75 % 10.51 C
1405 07-06-2019 21:00:00 14.9 C 76 % 10.71 C
1406 07-06-2019 21:05:00 15 C 73 % 10.2 C
1407 07-06-2019 21:10:00 15.1 C 75 % 10.71 C
1408 07-06-2019 21:15:00 15.1 C 74 % 10.5 C
1409 07-06-2019 21:20:00 15.1 C 76 % 10.9 C
1410 07-06-2019 21:25:00 14.9 C 72 % 9.9 C
1411 07-06-2019 21:30:00 14.9 C 73 % 10.11 C
1412 07-06-2019 21:35:00 14.8 C 73 % 10.01 C
1413 07-06-2019 21:40:00 14.8 C 73 % 10.01 C
1414 07-06-2019 21:45:00 14.8 C 70 % 9.39 C
1415 07-06-2019 21:50:00 14.9 C 70 % 9.48 C
1416 07-06-2019 21:55:00 15.1 C 70 % 9.67 C
1417 07-06-2019 22:00:00 15.2 C 68 % 9.34 C
1418 07-06-2019 22:05:00 15.2 C 69 % 9.56 C
1419 07-06-2019 22:10:00 15.2 C 69 % 9.56 C
1420 07-06-2019 22:15:00 15.1 C 71 % 9.89 C
1421 07-06-2019 22:20:00 14.8 C 70 % 9.39 C
1422 07-06-2019 22:25:00 14.6 C 68 % 8.77 C
1423 07-06-2019 22:30:00 14.7 C 70 % 9.29 C
1424 07-06-2019 22:35:00 14.8 C 68 % 8.96 C
1425 07-06-2019 22:40:00 14.7 C 69 % 9.08 C
Sensor: Nr:Datum:Temp:Feuchte:Taupunkt:
Aussen-T/F 1426 07-06-2019 22:45:00 14.6 C 72 % 9.61 C
1427 07-06-2019 22:50:00 14.4 C 73 % 9.63 C
1428 07-06-2019 22:55:00 14.3 C 71 % 9.12 C
1429 07-06-2019 23:00:00 14.4 C 68 % 8.58 C
1430 07-06-2019 23:05:00 14.7 C 69 % 9.08 C
1431 07-06-2019 23:10:00 15 C 65 % 8.48 C
1432 07-06-2019 23:15:00 15.1 C 66 % 8.8 C
1433 07-06-2019 23:20:00 15.2 C 66 % 8.9 C
1434 07-06-2019 23:25:00 15.2 C 66 % 8.9 C
1435 07-06-2019 23:30:00 15.2 C 65 % 8.67 C
1436 07-06-2019 23:35:00 15.3 C 67 % 9.21 C
1437 07-06-2019 23:40:00 15.4 C 66 % 9.09 C
1438 07-06-2019 23:45:00 15.4 C 67 % 9.31 C
1439 07-06-2019 23:50:00 15.3 C 67 % 9.21 C
1440 07-06-2019 23:55:00 15.3 C 66 % 8.99 C
1441 08-06-2019 00:00:00 15.3 C 66 % 8.99 C
1442 08-06-2019 00:05:00 15.4 C 69 % 9.75 C
1443 08-06-2019 00:10:00 15.3 C 66 % 8.99 C
1444 08-06-2019 00:15:00 15.3 C 66 % 8.99 C
1445 08-06-2019 00:20:00 15.4 C 67 % 9.31 C
1446 08-06-2019 00:25:00 15.4 C 67 % 9.31 C
1447 08-06-2019 00:30:00 15.4 C 66 % 9.09 C
1448 08-06-2019 00:35:00 15.5 C 67 % 9.41 C
1449 08-06-2019 00:40:00 15.5 C 67 % 9.41 C
1450 08-06-2019 00:45:00 15.6 C 66 % 9.28 C
Sensor: Nr:Datum:Temp:Feuchte:Taupunkt:
Aussen-T/F 1451 08-06-2019 00:50:00 15.7 C 65 % 9.15 C
1452 08-06-2019 00:55:00 15.8 C 65 % 9.24 C
1453 08-06-2019 01:00:00 15.7 C 66 % 9.37 C
1454 08-06-2019 01:05:00 15.5 C 66 % 9.18 C
1455 08-06-2019 01:10:00 15.5 C 66 % 9.18 C
1456 08-06-2019 01:15:00 15.6 C 65 % 9.05 C
1457 08-06-2019 01:20:00 15.7 C 65 % 9.15 C
1458 08-06-2019 01:25:00 15.7 C 65 % 9.15 C
1459 08-06-2019 01:30:00 15.7 C 66 % 9.37 C
1460 08-06-2019 01:35:00 15.6 C 65 % 9.05 C
1461 08-06-2019 01:40:00 15.6 C 65 % 9.05 C
1462 08-06-2019 01:45:00 15.6 C 65 % 9.05 C
1463 08-06-2019 01:50:00 15.6 C 65 % 9.05 C
1464 08-06-2019 01:55:00 15.6 C 64 % 8.82 C
1465 08-06-2019 02:00:00 15.7 C 65 % 9.15 C
1466 08-06-2019 02:05:00 15.8 C 64 % 9.01 C
1467 08-06-2019 02:10:00 15.8 C 65 % 9.24 C
1468 08-06-2019 02:15:00 15.8 C 65 % 9.24 C
1469 08-06-2019 02:20:00 15.8 C 66 % 9.47 C
1470 08-06-2019 02:25:00 15.7 C 68 % 9.82 C
1471 08-06-2019 02:30:00 15.4 C 68 % 9.53 C
1472 08-06-2019 02:35:00 15.1 C 68 % 9.24 C
1473 08-06-2019 02:40:00 14.8 C 69 % 9.17 C
1474 08-06-2019 02:45:00 14.8 C 69 % 9.17 C
1475 08-06-2019 02:50:00 14.7 C 69 % 9.08 C
Sensor: Nr:Datum:Temp:Feuchte:Taupunkt:
Aussen-T/F 1476 08-06-2019 02:55:00 14.7 C 69 % 9.08 C
1477 08-06-2019 03:00:00 14.9 C 68 % 9.05 C
1478 08-06-2019 03:05:00 15 C 67 % 8.93 C
1479 08-06-2019 03:10:00 15.1 C 67 % 9.02 C
1480 08-06-2019 03:15:00 15 C 67 % 8.93 C
1481 08-06-2019 03:20:00 15 C 67 % 8.93 C
1482 08-06-2019 03:25:00 15.1 C 68 % 9.24 C
1483 08-06-2019 03:30:00 15.1 C 67 % 9.02 C
1484 08-06-2019 03:35:00 15.1 C 68 % 9.24 C
1485 08-06-2019 03:40:00 15.1 C 67 % 9.02 C
1486 08-06-2019 03:45:00 15.1 C 66 % 8.8 C
1487 08-06-2019 03:50:00 15.1 C 66 % 8.8 C
1488 08-06-2019 03:55:00 15.2 C 66 % 8.9 C
1489 08-06-2019 04:00:00 15.2 C 67 % 9.12 C
1490 08-06-2019 04:05:00 15.1 C 65 % 8.58 C
1491 08-06-2019 04:10:00 15.1 C 64 % 8.35 C
1492 08-06-2019 04:15:00 14.9 C 64 % 8.16 C
1493 08-06-2019 04:20:00 14.9 C 64 % 8.16 C
1494 08-06-2019 04:25:00 14.8 C 63 % 7.83 C
1495 08-06-2019 04:30:00 14.8 C 62 % 7.6 C
1496 08-06-2019 04:35:00 14.8 C 63 % 7.83 C
1497 08-06-2019 04:40:00 14.8 C 65 % 8.29 C
1498 08-06-2019 04:45:00 14.7 C 64 % 7.97 C
1499 08-06-2019 04:50:00 14.7 C 63 % 7.74 C
1500 08-06-2019 04:55:00 14.6 C 64 % 7.87 C
Sensor: Nr:Datum:Temp:Feuchte:Taupunkt:
Aussen-T/F 1501 08-06-2019 05:00:00 14.5 C 63 % 7.55 C
1502 08-06-2019 05:05:00 14.4 C 63 % 7.45 C
1503 08-06-2019 05:10:00 14.4 C 64 % 7.68 C
1504 08-06-2019 05:15:00 14.3 C 63 % 7.36 C
1505 08-06-2019 05:20:00 14.3 C 63 % 7.36 C
1506 08-06-2019 05:25:00 14.2 C 62 % 7.03 C
1507 08-06-2019 05:30:00 14.1 C 63 % 7.17 C
1508 08-06-2019 05:35:00 14 C 63 % 7.08 C
1509 08-06-2019 05:40:00 13.9 C 64 % 7.21 C
1510 08-06-2019 05:45:00 13.8 C 64 % 7.12 C
1511 08-06-2019 05:50:00 13.7 C 64 % 7.02 C
1512 08-06-2019 05:55:00 13.7 C 64 % 7.02 C
1513 08-06-2019 06:00:00 13.6 C 65 % 7.15 C
1514 08-06-2019 06:05:00 13.5 C 65 % 7.06 C
1515 08-06-2019 06:10:00 13.4 C 66 % 7.19 C
1516 08-06-2019 06:15:00 13.4 C 66 % 7.19 C
1517 08-06-2019 06:20:00 13.3 C 67 % 7.31 C
1518 08-06-2019 06:25:00 13.3 C 67 % 7.31 C
1519 08-06-2019 06:30:00 13.2 C 67 % 7.21 C
1520 08-06-2019 06:35:00 13.2 C 67 % 7.21 C
1521 08-06-2019 06:40:00 13.2 C 68 % 7.43 C
1522 08-06-2019 06:45:00 13.2 C 68 % 7.43 C
1523 08-06-2019 06:50:00 13.3 C 68 % 7.53 C
1524 08-06-2019 06:55:00 13.3 C 67 % 7.31 C
1525 08-06-2019 07:00:00 13.4 C 67 % 7.4 C
Sensor: Nr:Datum:Temp:Feuchte:Taupunkt:
Aussen-T/F 1526 08-06-2019 07:05:00 13.4 C 66 % 7.19 C
1527 08-06-2019 07:10:00 13.5 C 65 % 7.06 C
1528 08-06-2019 07:15:00 13.5 C 66 % 7.28 C
1529 08-06-2019 07:20:00 13.6 C 65 % 7.15 C
1530 08-06-2019 07:25:00 13.7 C 64 % 7.02 C
1531 08-06-2019 07:30:00 13.8 C 65 % 7.34 C
1532 08-06-2019 07:35:00 13.8 C 66 % 7.57 C
1533 08-06-2019 07:40:00 13.8 C 66 % 7.57 C
1534 08-06-2019 07:45:00 13.8 C 65 % 7.34 C
1535 08-06-2019 07:50:00 13.9 C 66 % 7.66 C
1536 08-06-2019 07:55:00 14.1 C 65 % 7.63 C
1537 08-06-2019 08:00:00 14.1 C 65 % 7.63 C
1538 08-06-2019 08:05:00 14.1 C 65 % 7.63 C
1539 08-06-2019 08:10:00 14.3 C 66 % 8.04 C
1540 08-06-2019 08:15:00 14.4 C 64 % 7.68 C
1541 08-06-2019 08:20:00 14.4 C 64 % 7.68 C
1542 08-06-2019 08:25:00 14.5 C 64 % 7.78 C
1543 08-06-2019 08:30:00 14.4 C 66 % 8.14 C
1544 08-06-2019 08:35:00 14.3 C 65 % 7.82 C
1545 08-06-2019 08:40:00 14.3 C 66 % 8.04 C
1546 08-06-2019 08:45:00 14.3 C 66 % 8.04 C
1547 08-06-2019 08:50:00 14.2 C 66 % 7.95 C
1548 08-06-2019 08:55:00 14.2 C 67 % 8.17 C
1549 08-06-2019 09:00:00 14.2 C 66 % 7.95 C
1550 08-06-2019 09:05:00 14.3 C 66 % 8.04 C
Sensor: Nr:Datum:Temp:Feuchte:Taupunkt:
Aussen-T/F 1551 08-06-2019 09:10:00 14.3 C 66 % 8.04 C
1552 08-06-2019 09:15:00 14.3 C 66 % 8.04 C
1553 08-06-2019 09:20:00 14.3 C 66 % 8.04 C
1554 08-06-2019 09:25:00 14.3 C 68 % 8.48 C
1555 08-06-2019 09:30:00 14.5 C 67 % 8.45 C
1556 08-06-2019 09:35:00 14.7 C 65 % 8.2 C
1557 08-06-2019 09:40:00 14.9 C 67 % 8.83 C
1558 08-06-2019 09:45:00 15 C 65 % 8.48 C
1559 08-06-2019 09:50:00 15 C 66 % 8.71 C
1560 08-06-2019 09:55:00 15.1 C 65 % 8.58 C
1561 08-06-2019 10:00:00 15.1 C 65 % 8.58 C
1562 08-06-2019 10:05:00 14.9 C 66 % 8.61 C
1563 08-06-2019 10:10:00 14.8 C 67 % 8.74 C
1564 08-06-2019 10:15:00 14.7 C 66 % 8.42 C
1565 08-06-2019 10:20:00 14.7 C 68 % 8.86 C
1566 08-06-2019 10:25:00 14.6 C 66 % 8.33 C
1567 08-06-2019 10:30:00 14.6 C 67 % 8.55 C
1568 08-06-2019 10:35:00 14.7 C 68 % 8.86 C
1569 08-06-2019 10:40:00 14.9 C 67 % 8.83 C
1570 08-06-2019 10:45:00 15.2 C 66 % 8.9 C
1571 08-06-2019 10:50:00 15.3 C 67 % 9.21 C
1572 08-06-2019 10:55:00 15.4 C 66 % 9.09 C
1573 08-06-2019 11:00:00 15.3 C 65 % 8.77 C
1574 08-06-2019 11:05:00 15.4 C 67 % 9.31 C
1575 08-06-2019 11:10:00 15.5 C 65 % 8.96 C
Sensor: Nr:Datum:Temp:Feuchte:Taupunkt:
Aussen-T/F 1576 08-06-2019 11:15:00 15.6 C 65 % 9.05 C
1577 08-06-2019 11:20:00 15.6 C 64 % 8.82 C
1578 08-06-2019 11:25:00 15.6 C 65 % 9.05 C
1579 08-06-2019 11:30:00 15.7 C 64 % 8.92 C
1580 08-06-2019 11:35:00 15.8 C 64 % 9.01 C
1581 08-06-2019 11:40:00 15.9 C 65 % 9.34 C
1582 08-06-2019 11:45:00 16.1 C 62 % 8.82 C
1583 08-06-2019 11:50:00 16 C 62 % 8.73 C
1584 08-06-2019 11:55:00 16 C 62 % 8.73 C
1585 08-06-2019 12:00:00 16.2 C 63 % 9.16 C
1586 08-06-2019 12:05:00 16.3 C 61 % 8.77 C
1587 08-06-2019 12:10:00 16.3 C 61 % 8.77 C
1588 08-06-2019 12:15:00 16.2 C 62 % 8.92 C
1589 08-06-2019 12:20:00 16.2 C 63 % 9.16 C
1590 08-06-2019 12:25:00 16.2 C 63 % 9.16 C
1591 08-06-2019 12:30:00 16.4 C 63 % 9.35 C
1592 08-06-2019 12:35:00 16.6 C 62 % 9.3 C
1593 08-06-2019 12:40:00 16.7 C 60 % 8.9 C
1594 08-06-2019 12:45:00 16.9 C 61 % 9.34 C
1595 08-06-2019 12:50:00 17.1 C 60 % 9.28 C
1596 08-06-2019 12:55:00 17.2 C 59 % 9.13 C
1597 08-06-2019 13:00:00 17.1 C 58 % 8.78 C
1598 08-06-2019 13:05:00 17.1 C 58 % 8.78 C
1599 08-06-2019 13:10:00 17.2 C 58 % 8.87 C
1600 08-06-2019 13:15:00 17.3 C 57 % 8.71 C
Sensor: Nr:Datum:Temp:Feuchte:Taupunkt:
Aussen-T/F 1601 08-06-2019 13:20:00 17.4 C 56 % 8.54 C
1602 08-06-2019 13:25:00 17.4 C 57 % 8.8 C
1603 08-06-2019 13:30:00 17.6 C 59 % 9.5 C
1604 08-06-2019 13:35:00 17.6 C 57 % 8.99 C
1605 08-06-2019 13:40:00 17.4 C 58 % 9.06 C
1606 08-06-2019 13:45:00 17.3 C 57 % 8.71 C
1607 08-06-2019 13:50:00 17.5 C 58 % 9.15 C
1608 08-06-2019 13:55:00 17.7 C 59 % 9.59 C
1609 08-06-2019 14:00:00 17.9 C 57 % 9.27 C
1610 08-06-2019 14:05:00 18 C 58 % 9.62 C
1611 08-06-2019 14:10:00 18 C 57 % 9.36 C
1612 08-06-2019 14:15:00 17.9 C 56 % 9.01 C
1613 08-06-2019 14:20:00 17.8 C 57 % 9.18 C
1614 08-06-2019 14:25:00 18 C 57 % 9.36 C
1615 08-06-2019 14:30:00 18.4 C 57 % 9.74 C
1616 08-06-2019 14:35:00 18.7 C 54 % 9.21 C
1617 08-06-2019 14:40:00 18.7 C 54 % 9.21 C
1618 08-06-2019 14:45:00 18.8 C 54 % 9.3 C
1619 08-06-2019 14:50:00 18.9 C 54 % 9.4 C
1620 08-06-2019 14:55:00 18.8 C 54 % 9.3 C
1621 08-06-2019 15:00:00 19.2 C 52 % 9.11 C
1622 08-06-2019 15:05:00 19.3 C 51 % 8.92 C
1623 08-06-2019 15:10:00 19.2 C 53 % 9.4 C
1624 08-06-2019 15:15:00 18.8 C 54 % 9.3 C
1625 08-06-2019 15:20:00 18.8 C 55 % 9.58 C
Sensor: Nr:Datum:Temp:Feuchte:Taupunkt:
Aussen-T/F 1626 08-06-2019 15:25:00 19.1 C 56 % 10.12 C
1627 08-06-2019 15:30:00 19.4 C 53 % 9.58 C
1628 08-06-2019 15:35:00 19.4 C 51 % 9.01 C
1629 08-06-2019 15:40:00 19.3 C 52 % 9.21 C
1630 08-06-2019 15:45:00 19.2 C 50 % 8.53 C
1631 08-06-2019 15:50:00 19.2 C 51 % 8.83 C
1632 08-06-2019 15:55:00 18.9 C 52 % 8.84 C
1633 08-06-2019 16:00:00 18.7 C 54 % 9.21 C
1634 08-06-2019 16:05:00 18.8 C 52 % 8.75 C
1635 08-06-2019 16:10:00 18.8 C 51 % 8.46 C
1636 08-06-2019 16:15:00 19.3 C 54 % 9.77 C
1637 08-06-2019 16:20:00 19.9 C 51 % 9.47 C
1638 08-06-2019 16:25:00 20.2 C 51 % 9.75 C
1639 08-06-2019 16:30:00 20.5 C 49 % 9.43 C
1640 08-06-2019 16:35:00 20.4 C 52 % 10.22 C
1641 08-06-2019 16:40:00 20.1 C 48 % 8.76 C
1642 08-06-2019 16:45:00 19.7 C 50 % 8.99 C
1643 08-06-2019 16:50:00 19.7 C 49 % 8.7 C
1644 08-06-2019 16:55:00 19.8 C 49 % 8.79 C
1645 08-06-2019 17:00:00 19.6 C 51 % 9.2 C
1646 08-06-2019 17:05:00 19.7 C 52 % 9.58 C
1647 08-06-2019 17:10:00 19.9 C 49 % 8.88 C
1648 08-06-2019 17:15:00 20.1 C 50 % 9.36 C
1649 08-06-2019 17:20:00 20.4 C 49 % 9.34 C
1650 08-06-2019 17:25:00 20 C 48 % 8.67 C
Sensor: Nr:Datum:Temp:Feuchte:Taupunkt:
Aussen-T/F 1651 08-06-2019 17:30:00 19.7 C 49 % 8.7 C
1652 08-06-2019 17:35:00 19.4 C 49 % 8.42 C
1653 08-06-2019 17:40:00 19.6 C 51 % 9.2 C
1654 08-06-2019 17:45:00 20.2 C 49 % 9.15 C
1655 08-06-2019 17:50:00 20.3 C 49 % 9.24 C
1656 08-06-2019 17:55:00 20.2 C 48 % 8.85 C
1657 08-06-2019 18:00:00 19.8 C 49 % 8.79 C
1658 08-06-2019 18:05:00 19.8 C 50 % 9.09 C
1659 08-06-2019 18:10:00 20.5 C 48 % 9.12 C
1660 08-06-2019 18:15:00 20.8 C 46 % 8.77 C
1661 08-06-2019 18:20:00 21.1 C 46 % 9.04 C
1662 08-06-2019 18:25:00 21.1 C 46 % 9.04 C
1663 08-06-2019 18:30:00 20.4 C 49 % 9.34 C
1664 08-06-2019 18:35:00 19.8 C 49 % 8.79 C
1665 08-06-2019 18:40:00 19.4 C 52 % 9.3 C
1666 08-06-2019 18:45:00 19.2 C 53 % 9.4 C
1667 08-06-2019 18:50:00 18.9 C 52 % 8.84 C
1668 08-06-2019 18:55:00 18.7 C 53 % 8.93 C
1669 08-06-2019 19:00:00 18.4 C 54 % 8.93 C
1670 08-06-2019 19:05:00 18.3 C 53 % 8.56 C
1671 08-06-2019 19:10:00 18.3 C 54 % 8.84 C
1672 08-06-2019 19:15:00 18.6 C 56 % 9.66 C
1673 08-06-2019 19:20:00 18.8 C 56 % 9.84 C
1674 08-06-2019 19:25:00 19.3 C 56 % 10.31 C
1675 08-06-2019 19:30:00 19.4 C 55 % 10.13 C
Sensor: Nr:Datum:Temp:Feuchte:Taupunkt:
Aussen-T/F 1676 08-06-2019 19:35:00 19.3 C 54 % 9.77 C
1677 08-06-2019 19:40:00 19.4 C 55 % 10.13 C
1678 08-06-2019 19:45:00 19.4 C 54 % 9.86 C
1679 08-06-2019 19:50:00 19.3 C 54 % 9.77 C
1680 08-06-2019 19:55:00 19.3 C 53 % 9.49 C
1681 08-06-2019 20:00:00 19.1 C 54 % 9.58 C
1682 08-06-2019 20:05:00 18.8 C 56 % 9.84 C
1683 08-06-2019 20:10:00 18.4 C 57 % 9.74 C
1684 08-06-2019 20:15:00 18.1 C 59 % 9.97 C
1685 08-06-2019 20:20:00 17.8 C 60 % 9.94 C
1686 08-06-2019 20:25:00 17.6 C 62 % 10.24 C
1687 08-06-2019 20:30:00 17.4 C 63 % 10.29 C
1688 08-06-2019 20:35:00 17.2 C 65 % 10.57 C
1689 08-06-2019 20:40:00 16.9 C 66 % 10.51 C
1690 08-06-2019 20:45:00 16.8 C 67 % 10.64 C
1691 08-06-2019 20:50:00 16.7 C 69 % 10.99 C
1692 08-06-2019 20:55:00 16.6 C 69 % 10.89 C
1693 08-06-2019 21:00:00 16.6 C 70 % 11.11 C
1694 08-06-2019 21:05:00 16.4 C 69 % 10.7 C
1695 08-06-2019 21:10:00 16.3 C 70 % 10.82 C
1696 08-06-2019 21:15:00 16.3 C 70 % 10.82 C
1697 08-06-2019 21:20:00 16.2 C 72 % 11.15 C
1698 08-06-2019 21:25:00 16.1 C 70 % 10.63 C
1699 08-06-2019 21:30:00 16.1 C 68 % 10.2 C
1700 08-06-2019 21:35:00 16 C 69 % 10.32 C
Sensor: Nr:Datum:Temp:Feuchte:Taupunkt:
Aussen-T/F 1701 08-06-2019 21:40:00 16 C 70 % 10.54 C
1702 08-06-2019 21:45:00 15.9 C 71 % 10.65 C
1703 08-06-2019 21:50:00 15.8 C 71 % 10.56 C
1704 08-06-2019 21:55:00 15.7 C 70 % 10.25 C
1705 08-06-2019 22:00:00 15.5 C 71 % 10.27 C
1706 08-06-2019 22:05:00 15.3 C 72 % 10.29 C
1707 08-06-2019 22:10:00 15.1 C 72 % 10.09 C
1708 08-06-2019 22:15:00 14.8 C 73 % 10.01 C
1709 08-06-2019 22:20:00 14.6 C 73 % 9.82 C
1710 08-06-2019 22:25:00 14.4 C 74 % 9.83 C
1711 08-06-2019 22:30:00 14.2 C 75 % 9.84 C
1712 08-06-2019 22:35:00 14.1 C 76 % 9.94 C
1713 08-06-2019 22:40:00 13.9 C 76 % 9.74 C
1714 08-06-2019 22:45:00 13.8 C 77 % 9.84 C
1715 08-06-2019 22:50:00 13.6 C 78 % 9.84 C
1716 08-06-2019 22:55:00 13.4 C 78 % 9.65 C
1717 08-06-2019 23:00:00 13.3 C 78 % 9.55 C
1718 08-06-2019 23:05:00 13.1 C 79 % 9.54 C
1719 08-06-2019 23:10:00 12.9 C 79 % 9.35 C
1720 08-06-2019 23:15:00 12.8 C 80 % 9.44 C
1721 08-06-2019 23:20:00 12.7 C 80 % 9.34 C
1722 08-06-2019 23:25:00 12.7 C 81 % 9.53 C
1723 08-06-2019 23:30:00 12.6 C 81 % 9.43 C
1724 08-06-2019 23:35:00 12.5 C 81 % 9.33 C
1725 08-06-2019 23:40:00 12.4 C 81 % 9.23 C
Sensor: Nr:Datum:Temp:Feuchte:Taupunkt:
Aussen-T/F 1726 08-06-2019 23:45:00 12.4 C 82 % 9.42 C
1727 08-06-2019 23:50:00 12.3 C 82 % 9.32 C
1728 08-06-2019 23:55:00 12.2 C 83 % 9.4 C
1729 09-06-2019 00:00:00 12.1 C 83 % 9.3 C
1730 09-06-2019 00:05:00 12.1 C 84 % 9.48 C
1731 09-06-2019 00:10:00 11.9 C 84 % 9.29 C
1732 09-06-2019 00:15:00 11.9 C 84 % 9.29 C
1733 09-06-2019 00:20:00 11.8 C 84 % 9.19 C
1734 09-06-2019 00:25:00 11.7 C 84 % 9.09 C
1735 09-06-2019 00:30:00 11.6 C 85 % 9.17 C
1736 09-06-2019 00:35:00 11.6 C 85 % 9.17 C
1737 09-06-2019 00:40:00 11.4 C 85 % 8.97 C
1738 09-06-2019 00:45:00 11.3 C 86 % 9.05 C
1739 09-06-2019 00:50:00 11.3 C 86 % 9.05 C
1740 09-06-2019 00:55:00 11.3 C 86 % 9.05 C
1741 09-06-2019 01:00:00 11.2 C 86 % 8.95 C
1742 09-06-2019 01:05:00 11.2 C 87 % 9.12 C
1743 09-06-2019 01:10:00 11.2 C 87 % 9.12 C
1744 09-06-2019 01:15:00 11.1 C 87 % 9.02 C
1745 09-06-2019 01:20:00 11 C 87 % 8.92 C
1746 09-06-2019 01:25:00 11 C 87 % 8.92 C
1747 09-06-2019 01:30:00 11.1 C 87 % 9.02 C
1748 09-06-2019 01:35:00 11.1 C 87 % 9.02 C
1749 09-06-2019 01:40:00 11.1 C 87 % 9.02 C
1750 09-06-2019 01:45:00 11.1 C 87 % 9.02 C
Sensor: Nr:Datum:Temp:Feuchte:Taupunkt:
Aussen-T/F 1751 09-06-2019 01:50:00 11 C 87 % 8.92 C
1752 09-06-2019 01:55:00 10.9 C 87 % 8.82 C
1753 09-06-2019 02:00:00 10.9 C 87 % 8.82 C
1754 09-06-2019 02:05:00 11.1 C 87 % 9.02 C
1755 09-06-2019 02:10:00 11 C 87 % 8.92 C
1756 09-06-2019 02:15:00 11 C 87 % 8.92 C
1757 09-06-2019 02:20:00 11.1 C 87 % 9.02 C
1758 09-06-2019 02:25:00 11.1 C 87 % 9.02 C
1759 09-06-2019 02:30:00 11 C 87 % 8.92 C
1760 09-06-2019 02:35:00 10.9 C 87 % 8.82 C
1761 09-06-2019 02:40:00 10.8 C 88 % 8.89 C
1762 09-06-2019 02:45:00 10.8 C 88 % 8.89 C
1763 09-06-2019 02:50:00 10.7 C 88 % 8.8 C
1764 09-06-2019 02:55:00 10.7 C 88 % 8.8 C
1765 09-06-2019 03:00:00 10.6 C 89 % 8.86 C
1766 09-06-2019 03:05:00 10.6 C 89 % 8.86 C
1767 09-06-2019 03:10:00 10.5 C 89 % 8.77 C
1768 09-06-2019 03:15:00 10.4 C 89 % 8.67 C
1769 09-06-2019 03:20:00 10.4 C 89 % 8.67 C
1770 09-06-2019 03:25:00 10.3 C 89 % 8.57 C
1771 09-06-2019 03:30:00 10.3 C 89 % 8.57 C
1772 09-06-2019 03:35:00 10.2 C 89 % 8.47 C
1773 09-06-2019 03:40:00 10.1 C 89 % 8.37 C
1774 09-06-2019 03:45:00 10.1 C 90 % 8.54 C
1775 09-06-2019 03:50:00 10 C 89 % 8.27 C
Sensor: Nr:Datum:Temp:Feuchte:Taupunkt:
Aussen-T/F 1776 09-06-2019 03:55:00 9.9 C 89 % 8.17 C
1777 09-06-2019 04:00:00 9.8 C 90 % 8.24 C
1778 09-06-2019 04:05:00 9.8 C 90 % 8.24 C
1779 09-06-2019 04:10:00 9.8 C 90 % 8.24 C
1780 09-06-2019 04:15:00 9.7 C 90 % 8.14 C
1781 09-06-2019 04:20:00 9.6 C 90 % 8.04 C
1782 09-06-2019 04:25:00 9.4 C 90 % 7.85 C
1783 09-06-2019 04:30:00 9.3 C 90 % 7.75 C
1784 09-06-2019 04:35:00 9.2 C 90 % 7.65 C
1785 09-06-2019 04:40:00 9.2 C 91 % 7.81 C
1786 09-06-2019 04:45:00 9.1 C 91 % 7.71 C
1787 09-06-2019 04:50:00 9 C 91 % 7.61 C
1788 09-06-2019 04:55:00 8.9 C 91 % 7.51 C
1789 09-06-2019 05:00:00 8.9 C 91 % 7.51 C
1790 09-06-2019 05:05:00 8.8 C 92 % 7.57 C
1791 09-06-2019 05:10:00 8.8 C 92 % 7.57 C
1792 09-06-2019 05:15:00 8.7 C 92 % 7.47 C
1793 09-06-2019 05:20:00 8.7 C 92 % 7.47 C
1794 09-06-2019 05:25:00 8.6 C 92 % 7.38 C
1795 09-06-2019 05:30:00 8.6 C 92 % 7.38 C
1796 09-06-2019 05:35:00 8.6 C 93 % 7.53 C
1797 09-06-2019 05:40:00 8.6 C 93 % 7.53 C
1798 09-06-2019 05:45:00 8.6 C 93 % 7.53 C
1799 09-06-2019 05:50:00 8.6 C 93 % 7.53 C
1800 09-06-2019 05:55:00 8.6 C 93 % 7.53 C
Sensor: Nr:Datum:Temp:Feuchte:Taupunkt:
Aussen-T/F 1801 09-06-2019 06:00:00 8.6 C 93 % 7.53 C
1802 09-06-2019 06:05:00 8.6 C 93 % 7.53 C
1803 09-06-2019 06:10:00 8.5 C 93 % 7.43 C
1804 09-06-2019 06:15:00 8.5 C 93 % 7.43 C
1805 09-06-2019 06:20:00 8.4 C 93 % 7.34 C
1806 09-06-2019 06:25:00 8.5 C 93 % 7.43 C
1807 09-06-2019 06:30:00 8.6 C 93 % 7.53 C
1808 09-06-2019 06:35:00 8.6 C 94 % 7.69 C
1809 09-06-2019 06:40:00 8.7 C 94 % 7.79 C
1810 09-06-2019 06:45:00 8.8 C 94 % 7.89 C
1811 09-06-2019 06:50:00 8.8 C 94 % 7.89 C
1812 09-06-2019 06:55:00 9 C 94 % 8.09 C
1813 09-06-2019 07:00:00 9.2 C 94 % 8.29 C
1814 09-06-2019 07:05:00 9.3 C 95 % 8.54 C
1815 09-06-2019 07:10:00 9.3 C 95 % 8.54 C
1816 09-06-2019 07:15:00 9.4 C 94 % 8.48 C
1817 09-06-2019 07:20:00 9.6 C 94 % 8.68 C
1818 09-06-2019 07:25:00 9.6 C 95 % 8.84 C
1819 09-06-2019 07:30:00 9.7 C 95 % 8.94 C
1820 09-06-2019 07:35:00 9.8 C 94 % 8.88 C
1821 09-06-2019 07:40:00 9.9 C 95 % 9.14 C
1822 09-06-2019 07:45:00 10.1 C 94 % 9.18 C
1823 09-06-2019 07:50:00 10.1 C 94 % 9.18 C
1824 09-06-2019 07:55:00 10.2 C 94 % 9.28 C
1825 09-06-2019 08:00:00 10.3 C 94 % 9.38 C
Sensor: Nr:Datum:Temp:Feuchte:Taupunkt:
Aussen-T/F 1826 09-06-2019 08:05:00 10.4 C 94 % 9.48 C
1827 09-06-2019 08:10:00 10.5 C 94 % 9.58 C
1828 09-06-2019 08:15:00 10.6 C 94 % 9.68 C
1829 09-06-2019 08:20:00 10.7 C 94 % 9.77 C
1830 09-06-2019 08:25:00 10.8 C 94 % 9.87 C
1831 09-06-2019 08:30:00 11 C 95 % 10.23 C
1832 09-06-2019 08:35:00 11.2 C 95 % 10.43 C
1833 09-06-2019 08:40:00 11.4 C 95 % 10.63 C
1834 09-06-2019 08:45:00 11.7 C 94 % 10.77 C
1835 09-06-2019 08:50:00 11.8 C 94 % 10.87 C
1836 09-06-2019 08:55:00 12 C 94 % 11.07 C
1837 09-06-2019 09:00:00 12.1 C 93 % 11 C
1838 09-06-2019 09:05:00 12.2 C 93 % 11.1 C
1839 09-06-2019 09:10:00 12.3 C 92 % 11.04 C
1840 09-06-2019 09:15:00 12.4 C 92 % 11.14 C
1841 09-06-2019 09:20:00 12.5 C 91 % 11.07 C
1842 09-06-2019 09:25:00 12.7 C 91 % 11.27 C
1843 09-06-2019 09:30:00 12.8 C 91 % 11.37 C
1844 09-06-2019 09:35:00 12.9 C 90 % 11.3 C
1845 09-06-2019 09:40:00 13.1 C 90 % 11.5 C
1846 09-06-2019 09:45:00 13.3 C 90 % 11.7 C
1847 09-06-2019 09:50:00 13.6 C 89 % 11.82 C
1848 09-06-2019 09:55:00 13.8 C 88 % 11.85 C
1849 09-06-2019 10:00:00 14.1 C 88 % 12.14 C
1850 09-06-2019 10:05:00 14.3 C 86 % 11.99 C
Sensor: Nr:Datum:Temp:Feuchte:Taupunkt:
Aussen-T/F 1851 09-06-2019 10:10:00 14.6 C 83 % 11.75 C
1852 09-06-2019 10:15:00 15.2 C 80 % 11.78 C
1853 09-06-2019 10:20:00 15.9 C 76 % 11.68 C
1854 09-06-2019 10:25:00 16.6 C 72 % 11.54 C
1855 09-06-2019 10:30:00 17.3 C 68 % 11.34 C
1856 09-06-2019 10:35:00 17.7 C 66 % 11.27 C
1857 09-06-2019 10:40:00 18 C 65 % 11.33 C
1858 09-06-2019 10:45:00 18.2 C 65 % 11.52 C
1859 09-06-2019 10:50:00 18.3 C 64 % 11.38 C
1860 09-06-2019 10:55:00 18.4 C 63 % 11.23 C
1861 09-06-2019 11:00:00 18.6 C 62 % 11.18 C
1862 09-06-2019 11:05:00 18.6 C 60 % 10.69 C
1863 09-06-2019 11:10:00 18.7 C 59 % 10.53 C
1864 09-06-2019 11:15:00 18.8 C 58 % 10.37 C
1865 09-06-2019 11:20:00 18.9 C 58 % 10.46 C
1866 09-06-2019 11:25:00 18.9 C 56 % 9.94 C
1867 09-06-2019 11:30:00 18.9 C 57 % 10.2 C
1868 09-06-2019 11:35:00 19 C 56 % 10.03 C
1869 09-06-2019 11:40:00 19 C 55 % 9.76 C
1870 09-06-2019 11:45:00 19 C 56 % 10.03 C
1871 09-06-2019 11:50:00 19 C 56 % 10.03 C
1872 09-06-2019 11:55:00 19 C 58 % 10.56 C
1873 09-06-2019 12:00:00 19 C 57 % 10.3 C
1874 09-06-2019 12:05:00 19.2 C 56 % 10.22 C
1875 09-06-2019 12:10:00 19.5 C 56 % 10.5 C
Sensor: Nr:Datum:Temp:Feuchte:Taupunkt:
Aussen-T/F 1876 09-06-2019 12:15:00 19.7 C 55 % 10.41 C
1877 09-06-2019 12:20:00 19.8 C 54 % 10.23 C
1878 09-06-2019 12:25:00 19.8 C 52 % 9.67 C
1879 09-06-2019 12:30:00 19.8 C 53 % 9.95 C
1880 09-06-2019 12:35:00 19.9 C 52 % 9.76 C
1881 09-06-2019 12:40:00 20.1 C 53 % 10.23 C
1882 09-06-2019 12:45:00 20.2 C 52 % 10.04 C
1883 09-06-2019 12:50:00 20.1 C 52 % 9.94 C
1884 09-06-2019 12:55:00 20.1 C 52 % 9.94 C
1885 09-06-2019 13:00:00 20.1 C 52 % 9.94 C
1886 09-06-2019 13:05:00 20.2 C 52 % 10.04 C
1887 09-06-2019 13:10:00 20.3 C 53 % 10.41 C
1888 09-06-2019 13:15:00 20.3 C 52 % 10.13 C
1889 09-06-2019 13:20:00 20.5 C 51 % 10.02 C
1890 09-06-2019 13:25:00 20.6 C 51 % 10.12 C
1891 09-06-2019 13:30:00 20.7 C 51 % 10.21 C
1892 09-06-2019 13:35:00 20.8 C 52 % 10.59 C
1893 09-06-2019 13:40:00 20.9 C 52 % 10.68 C
1894 09-06-2019 13:45:00 21.2 C 50 % 10.37 C
1895 09-06-2019 13:50:00 21.4 C 52 % 11.14 C
1896 09-06-2019 13:55:00 21.6 C 52 % 11.33 C
1897 09-06-2019 14:00:00 21.7 C 49 % 10.53 C
1898 09-06-2019 14:05:00 21.8 C 50 % 10.92 C
1899 09-06-2019 14:10:00 21.8 C 49 % 10.62 C
1900 09-06-2019 14:15:00 21.8 C 49 % 10.62 C
Sensor: Nr:Datum:Temp:Feuchte:Taupunkt:
Aussen-T/F 1901 09-06-2019 14:20:00 21.9 C 48 % 10.4 C
1902 09-06-2019 14:25:00 21.9 C 49 % 10.71 C
1903 09-06-2019 14:30:00 21.9 C 49 % 10.71 C
1904 09-06-2019 14:35:00 22 C 52 % 11.7 C
1905 09-06-2019 14:40:00 22.1 C 58 % 13.45 C
1906 09-06-2019 14:45:00 22.1 C 50 % 11.2 C
1907 09-06-2019 14:50:00 22 C 52 % 11.7 C
1908 09-06-2019 14:55:00 22.1 C 51 % 11.5 C
1909 09-06-2019 15:00:00 22.2 C 50 % 11.29 C
1910 09-06-2019 15:05:00 22.2 C 49 % 10.98 C
1911 09-06-2019 15:10:00 22.1 C 52 % 11.79 C
1912 09-06-2019 15:15:00 22.1 C 51 % 11.5 C
1913 09-06-2019 15:20:00 22.2 C 52 % 11.88 C
1914 09-06-2019 15:25:00 22.4 C 49 % 11.17 C
1915 09-06-2019 15:30:00 22.4 C 50 % 11.47 C
1916 09-06-2019 15:35:00 22.6 C 51 % 11.96 C
1917 09-06-2019 15:40:00 22.7 C 50 % 11.75 C
1918 09-06-2019 15:45:00 22.8 C 51 % 12.14 C
1919 09-06-2019 15:50:00 22.9 C 50 % 11.93 C
1920 09-06-2019 15:55:00 22.9 C 49 % 11.63 C
1921 09-06-2019 16:00:00 22.9 C 50 % 11.93 C
1922 09-06-2019 16:05:00 22.9 C 50 % 11.93 C
1923 09-06-2019 16:10:00 22.9 C 51 % 12.23 C
1924 09-06-2019 16:15:00 22.9 C 50 % 11.93 C
1925 09-06-2019 16:20:00 22.7 C 51 % 12.05 C
Sensor: Nr:Datum:Temp:Feuchte:Taupunkt:
Aussen-T/F 1926 09-06-2019 16:25:00 22.8 C 50 % 11.84 C
1927 09-06-2019 16:30:00 22.8 C 50 % 11.84 C
1928 09-06-2019 16:35:00 22.8 C 51 % 12.14 C
1929 09-06-2019 16:40:00 22.8 C 51 % 12.14 C
1930 09-06-2019 16:45:00 22.7 C 50 % 11.75 C
1931 09-06-2019 16:50:00 22.6 C 52 % 12.25 C
1932 09-06-2019 16:55:00 22.7 C 52 % 12.34 C
1933 09-06-2019 17:00:00 22.6 C 52 % 12.25 C
1934 09-06-2019 17:05:00 22.6 C 52 % 12.25 C
1935 09-06-2019 17:10:00 22.6 C 51 % 11.96 C
1936 09-06-2019 17:15:00 22.7 C 51 % 12.05 C
1937 09-06-2019 17:20:00 22.8 C 52 % 12.43 C
1938 09-06-2019 17:25:00 22.9 C 52 % 12.53 C
1939 09-06-2019 17:30:00 22.8 C 51 % 12.14 C
1940 09-06-2019 17:35:00 22.8 C 50 % 11.84 C
1941 09-06-2019 17:40:00 22.8 C 52 % 12.43 C
1942 09-06-2019 17:45:00 22.7 C 52 % 12.34 C
1943 09-06-2019 17:50:00 22.6 C 51 % 11.96 C
1944 09-06-2019 17:55:00 22.5 C 53 % 12.45 C
1945 09-06-2019 18:00:00 22.6 C 52 % 12.25 C
1946 09-06-2019 18:05:00 22.7 C 50 % 11.75 C
1947 09-06-2019 18:10:00 22.8 C 51 % 12.14 C
1948 09-06-2019 18:15:00 23.1 C 49 % 11.81 C
1949 09-06-2019 18:20:00 23.4 C 50 % 12.39 C
1950 09-06-2019 18:25:00 23.9 C 48 % 12.23 C
Sensor: Nr:Datum:Temp:Feuchte:Taupunkt:
Aussen-T/F 1951 09-06-2019 18:30:00 23.8 C 47 % 11.82 C
1952 09-06-2019 18:35:00 23.6 C 48 % 11.95 C
1953 09-06-2019 18:40:00 23.1 C 49 % 11.81 C
1954 09-06-2019 18:45:00 22.8 C 51 % 12.14 C
1955 09-06-2019 18:50:00 22.7 C 54 % 12.92 C
1956 09-06-2019 18:55:00 22.6 C 56 % 13.38 C
1957 09-06-2019 19:00:00 22.6 C 57 % 13.65 C
1958 09-06-2019 19:05:00 22.4 C 58 % 13.73 C
1959 09-06-2019 19:10:00 22.3 C 62 % 14.67 C
1960 09-06-2019 19:15:00 22.2 C 63 % 14.82 C
1961 09-06-2019 19:20:00 22.1 C 64 % 14.97 C
1962 09-06-2019 19:25:00 21.8 C 64 % 14.69 C
1963 09-06-2019 19:30:00 21.6 C 65 % 14.74 C
1964 09-06-2019 19:35:00 21.4 C 65 % 14.55 C
1965 09-06-2019 19:40:00 21.2 C 65 % 14.36 C
1966 09-06-2019 19:45:00 20.9 C 66 % 14.31 C
1967 09-06-2019 19:50:00 20.7 C 66 % 14.12 C
1968 09-06-2019 19:55:00 20.5 C 67 % 14.16 C
1969 09-06-2019 20:00:00 20.3 C 67 % 13.97 C
1970 09-06-2019 20:05:00 20.2 C 68 % 14.11 C
1971 09-06-2019 20:10:00 20.1 C 69 % 14.24 C
1972 09-06-2019 20:15:00 19.9 C 68 % 13.82 C
1973 09-06-2019 20:20:00 19.8 C 69 % 13.95 C
1974 09-06-2019 20:25:00 19.8 C 69 % 13.95 C
1975 09-06-2019 20:30:00 19.7 C 70 % 14.08 C
Sensor: Nr:Datum:Temp:Feuchte:Taupunkt:
Aussen-T/F 1976 09-06-2019 20:35:00 19.6 C 70 % 13.98 C
1977 09-06-2019 20:40:00 19.5 C 69 % 13.66 C
1978 09-06-2019 20:45:00 19.4 C 70 % 13.79 C
1979 09-06-2019 20:50:00 19.3 C 70 % 13.69 C
1980 09-06-2019 20:55:00 19.3 C 70 % 13.69 C
1981 09-06-2019 21:00:00 19.2 C 70 % 13.6 C
1982 09-06-2019 21:05:00 19.1 C 71 % 13.72 C
1983 09-06-2019 21:10:00 19.1 C 71 % 13.72 C
1984 09-06-2019 21:15:00 19 C 72 % 13.84 C
1985 09-06-2019 21:20:00 18.9 C 72 % 13.74 C
1986 09-06-2019 21:25:00 18.9 C 72 % 13.74 C
1987 09-06-2019 21:30:00 18.8 C 73 % 13.86 C
1988 09-06-2019 21:35:00 18.8 C 73 % 13.86 C
1989 09-06-2019 21:40:00 18.7 C 73 % 13.76 C
1990 09-06-2019 21:45:00 18.7 C 73 % 13.76 C
1991 09-06-2019 21:50:00 18.6 C 73 % 13.67 C
1992 09-06-2019 21:55:00 18.6 C 73 % 13.67 C
1993 09-06-2019 22:00:00 18.6 C 74 % 13.88 C
1994 09-06-2019 22:05:00 18.5 C 74 % 13.78 C
1995 09-06-2019 22:10:00 18.5 C 74 % 13.78 C
1996 09-06-2019 22:15:00 18.4 C 74 % 13.68 C
1997 09-06-2019 22:20:00 18.4 C 74 % 13.68 C
1998 09-06-2019 22:25:00 18.4 C 74 % 13.68 C
1999 09-06-2019 22:30:00 18.4 C 74 % 13.68 C
2000 09-06-2019 22:35:00 18.3 C 76 % 14 C
Sensor: Nr:Datum:Temp:Feuchte:Taupunkt:
Aussen-T/F 2001 09-06-2019 22:40:00 18.3 C 75 % 13.79 C
2002 09-06-2019 22:45:00 18.2 C 75 % 13.7 C
2003 09-06-2019 22:50:00 18.2 C 75 % 13.7 C
2004 09-06-2019 22:55:00 18.2 C 76 % 13.9 C
2005 09-06-2019 23:00:00 18.1 C 76 % 13.81 C
2006 09-06-2019 23:05:00 18.1 C 76 % 13.81 C
2007 09-06-2019 23:10:00 18.1 C 75 % 13.6 C
2008 09-06-2019 23:15:00 18 C 76 % 13.71 C
2009 09-06-2019 23:20:00 17.9 C 76 % 13.61 C
2010 09-06-2019 23:25:00 17.9 C 76 % 13.61 C
2011 09-06-2019 23:30:00 17.9 C 76 % 13.61 C
2012 09-06-2019 23:35:00 17.9 C 76 % 13.61 C
2013 09-06-2019 23:40:00 17.9 C 76 % 13.61 C
2014 09-06-2019 23:45:00 17.9 C 76 % 13.61 C
2015 09-06-2019 23:50:00 17.9 C 77 % 13.81 C
2016 09-06-2019 23:55:00 17.8 C 78 % 13.91 C
2017 10-06-2019 00:00:00 17.8 C 77 % 13.72 C
2018 10-06-2019 00:05:00 17.8 C 77 % 13.72 C
2019 10-06-2019 00:10:00 17.7 C 77 % 13.62 C
2020 10-06-2019 00:15:00 17.7 C 78 % 13.82 C
2021 10-06-2019 00:20:00 17.6 C 78 % 13.72 C
2022 10-06-2019 00:25:00 17.5 C 78 % 13.62 C
2023 10-06-2019 00:30:00 17.4 C 78 % 13.53 C
2024 10-06-2019 00:35:00 17.4 C 78 % 13.53 C
2025 10-06-2019 00:40:00 17.4 C 78 % 13.53 C
Sensor: Nr:Datum:Temp:Feuchte:Taupunkt:
Aussen-T/F 2026 10-06-2019 00:45:00 17.4 C 78 % 13.53 C
2027 10-06-2019 00:50:00 17.3 C 78 % 13.43 C
2028 10-06-2019 00:55:00 17.3 C 79 % 13.63 C
2029 10-06-2019 01:00:00 17.3 C 78 % 13.43 C
2030 10-06-2019 01:05:00 17.3 C 77 % 13.23 C
2031 10-06-2019 01:10:00 17.2 C 77 % 13.14 C
2032 10-06-2019 01:15:00 17.2 C 77 % 13.14 C
2033 10-06-2019 01:20:00 17.1 C 77 % 13.04 C
2034 10-06-2019 01:25:00 17 C 78 % 13.14 C
2035 10-06-2019 01:30:00 16.9 C 78 % 13.04 C
2036 10-06-2019 01:35:00 16.8 C 78 % 12.94 C
2037 10-06-2019 01:40:00 16.8 C 78 % 12.94 C
2038 10-06-2019 01:45:00 16.7 C 78 % 12.85 C
2039 10-06-2019 01:50:00 16.6 C 78 % 12.75 C
2040 10-06-2019 01:55:00 16.6 C 78 % 12.75 C
2041 10-06-2019 02:00:00 16.6 C 79 % 12.95 C
2042 10-06-2019 02:05:00 16.5 C 79 % 12.85 C
2043 10-06-2019 02:10:00 16.4 C 79 % 12.75 C
2044 10-06-2019 02:15:00 16.4 C 79 % 12.75 C
2045 10-06-2019 02:20:00 16.3 C 80 % 12.85 C
2046 10-06-2019 02:25:00 16.3 C 79 % 12.65 C
2047 10-06-2019 02:30:00 16.1 C 80 % 12.65 C
2048 10-06-2019 02:35:00 15.9 C 80 % 12.46 C
2049 10-06-2019 02:40:00 15.8 C 80 % 12.36 C
2050 10-06-2019 02:45:00 15.7 C 80 % 12.26 C
Sensor: Nr:Datum:Temp:Feuchte:Taupunkt:
Aussen-T/F 2051 10-06-2019 02:50:00 15.6 C 81 % 12.35 C
2052 10-06-2019 02:55:00 15.4 C 81 % 12.16 C
2053 10-06-2019 03:00:00 15.3 C 82 % 12.25 C
2054 10-06-2019 03:05:00 15.1 C 83 % 12.24 C
2055 10-06-2019 03:10:00 15 C 84 % 12.32 C
2056 10-06-2019 03:15:00 15 C 84 % 12.32 C
2057 10-06-2019 03:20:00 14.9 C 85 % 12.4 C
2058 10-06-2019 03:25:00 14.9 C 85 % 12.4 C
2059 10-06-2019 03:30:00 14.9 C 85 % 12.4 C
2060 10-06-2019 03:35:00 14.9 C 86 % 12.58 C
2061 10-06-2019 03:40:00 14.9 C 86 % 12.58 C
2062 10-06-2019 03:45:00 14.8 C 86 % 12.48 C
2063 10-06-2019 03:50:00 14.8 C 86 % 12.48 C
2064 10-06-2019 03:55:00 14.8 C 85 % 12.3 C
2065 10-06-2019 04:00:00 14.7 C 86 % 12.38 C
2066 10-06-2019 04:05:00 14.7 C 86 % 12.38 C
2067 10-06-2019 04:10:00 14.7 C 86 % 12.38 C
2068 10-06-2019 04:15:00 14.6 C 86 % 12.29 C
2069 10-06-2019 04:20:00 14.5 C 86 % 12.19 C
2070 10-06-2019 04:25:00 14.4 C 86 % 12.09 C
2071 10-06-2019 04:30:00 14.5 C 87 % 12.36 C
2072 10-06-2019 04:35:00 14.6 C 87 % 12.46 C
2073 10-06-2019 04:40:00 14.7 C 87 % 12.56 C
2074 10-06-2019 04:45:00 14.7 C 87 % 12.56 C
2075 10-06-2019 04:50:00 14.7 C 87 % 12.56 C
Sensor: Nr:Datum:Temp:Feuchte:Taupunkt:
Aussen-T/F 2076 10-06-2019 04:55:00 14.7 C 87 % 12.56 C
2077 10-06-2019 05:00:00 14.7 C 87 % 12.56 C
2078 10-06-2019 05:05:00 14.8 C 87 % 12.66 C
2079 10-06-2019 05:10:00 14.8 C 87 % 12.66 C
2080 10-06-2019 05:15:00 14.8 C 87 % 12.66 C
2081 10-06-2019 05:20:00 14.8 C 87 % 12.66 C
2082 10-06-2019 05:25:00 14.8 C 87 % 12.66 C
2083 10-06-2019 05:30:00 14.8 C 88 % 12.83 C
2084 10-06-2019 05:35:00 14.7 C 88 % 12.73 C
2085 10-06-2019 05:40:00 14.7 C 88 % 12.73 C
2086 10-06-2019 05:45:00 14.8 C 88 % 12.83 C
2087 10-06-2019 05:50:00 14.8 C 88 % 12.83 C
2088 10-06-2019 05:55:00 14.8 C 88 % 12.83 C
2089 10-06-2019 06:00:00 14.8 C 88 % 12.83 C
2090 10-06-2019 06:05:00 14.8 C 88 % 12.83 C
2091 10-06-2019 06:10:00 14.8 C 88 % 12.83 C
2092 10-06-2019 06:15:00 14.8 C 88 % 12.83 C
2093 10-06-2019 06:20:00 14.8 C 88 % 12.83 C
2094 10-06-2019 06:25:00 14.8 C 89 % 13.01 C
2095 10-06-2019 06:30:00 14.8 C 89 % 13.01 C
2096 10-06-2019 06:35:00 14.8 C 88 % 12.83 C
2097 10-06-2019 06:40:00 14.8 C 89 % 13.01 C
2098 10-06-2019 06:45:00 14.9 C 89 % 13.1 C
2099 10-06-2019 06:50:00 14.9 C 89 % 13.1 C
2100 10-06-2019 06:55:00 14.9 C 89 % 13.1 C
Sensor: Nr:Datum:Temp:Feuchte:Taupunkt:
Aussen-T/F 2101 10-06-2019 07:00:00 14.9 C 89 % 13.1 C
2102 10-06-2019 07:05:00 14.9 C 89 % 13.1 C
2103 10-06-2019 07:10:00 15 C 90 % 13.37 C
2104 10-06-2019 07:15:00 15.1 C 89 % 13.3 C
2105 10-06-2019 07:20:00 15.2 C 89 % 13.4 C
2106 10-06-2019 07:25:00 15.4 C 88 % 13.42 C
2107 10-06-2019 07:30:00 15.5 C 87 % 13.35 C
2108 10-06-2019 07:35:00 15.7 C 87 % 13.54 C
2109 10-06-2019 07:40:00 15.8 C 86 % 13.46 C
2110 10-06-2019 07:45:00 16 C 86 % 13.66 C
2111 10-06-2019 07:50:00 16.2 C 85 % 13.68 C
2112 10-06-2019 07:55:00 16.3 C 84 % 13.59 C
2113 10-06-2019 08:00:00 16.5 C 83 % 13.6 C
2114 10-06-2019 08:05:00 16.7 C 82 % 13.61 C
2115 10-06-2019 08:10:00 16.9 C 83 % 14 C
2116 10-06-2019 08:15:00 17.2 C 83 % 14.29 C
2117 10-06-2019 08:20:00 17.4 C 83 % 14.48 C
2118 10-06-2019 08:25:00 17.8 C 81 % 14.5 C
2119 10-06-2019 08:30:00 18 C 79 % 14.31 C
2120 10-06-2019 08:35:00 18.2 C 79 % 14.5 C
2121 10-06-2019 08:40:00 18.3 C 78 % 14.4 C
2122 10-06-2019 08:45:00 18.4 C 77 % 14.3 C
2123 10-06-2019 08:50:00 18.6 C 78 % 14.69 C
2124 10-06-2019 08:55:00 18.7 C 77 % 14.59 C
2125 10-06-2019 09:00:00 18.8 C 77 % 14.68 C
Sensor: Nr:Datum:Temp:Feuchte:Taupunkt:
Aussen-T/F 2126 10-06-2019 09:05:00 18.8 C 76 % 14.48 C
2127 10-06-2019 09:10:00 18.8 C 76 % 14.48 C
2128 10-06-2019 09:15:00 18.8 C 76 % 14.48 C
2129 10-06-2019 09:20:00 18.8 C 77 % 14.68 C
2130 10-06-2019 09:25:00 18.8 C 77 % 14.68 C
2131 10-06-2019 09:30:00 19 C 76 % 14.68 C
2132 10-06-2019 09:35:00 19.1 C 75 % 14.57 C
2133 10-06-2019 09:40:00 19.1 C 75 % 14.57 C
2134 10-06-2019 09:45:00 19.1 C 75 % 14.57 C
2135 10-06-2019 09:50:00 19.1 C 75 % 14.57 C
2136 10-06-2019 09:55:00 19.1 C 75 % 14.57 C
2137 10-06-2019 10:00:00 19.2 C 75 % 14.66 C
2138 10-06-2019 10:05:00 19.3 C 74 % 14.55 C
2139 10-06-2019 10:10:00 19.4 C 74 % 14.65 C
2140 10-06-2019 10:15:00 19.4 C 75 % 14.86 C
2141 10-06-2019 10:20:00 19.6 C 75 % 15.05 C
2142 10-06-2019 10:25:00 19.7 C 74 % 14.94 C
2143 10-06-2019 10:30:00 19.9 C 74 % 15.13 C
2144 10-06-2019 10:35:00 20.1 C 72 % 14.9 C
2145 10-06-2019 10:40:00 20.2 C 71 % 14.78 C
2146 10-06-2019 10:45:00 20.3 C 72 % 15.09 C
2147 10-06-2019 10:50:00 20.5 C 71 % 15.06 C
2148 10-06-2019 10:55:00 20.6 C 71 % 15.16 C
2149 10-06-2019 11:00:00 20.7 C 70 % 15.03 C
2150 10-06-2019 11:05:00 20.7 C 71 % 15.25 C
Sensor: Nr:Datum:Temp:Feuchte:Taupunkt:
Aussen-T/F 2151 10-06-2019 11:10:00 20.8 C 70 % 15.13 C
2152 10-06-2019 11:15:00 20.9 C 69 % 15 C
2153 10-06-2019 11:20:00 21 C 69 % 15.1 C
2154 10-06-2019 11:25:00 21.1 C 68 % 14.97 C
2155 10-06-2019 11:30:00 21.2 C 69 % 15.29 C
2156 10-06-2019 11:35:00 21.3 C 69 % 15.38 C
2157 10-06-2019 11:40:00 21.4 C 67 % 15.02 C
2158 10-06-2019 11:45:00 21.5 C 67 % 15.12 C
2159 10-06-2019 11:50:00 21.6 C 66 % 14.98 C
2160 10-06-2019 11:55:00 21.7 C 67 % 15.31 C
2161 10-06-2019 12:00:00 21.9 C 65 % 15.02 C
2162 10-06-2019 12:05:00 22 C 65 % 15.12 C
2163 10-06-2019 12:10:00 22.1 C 65 % 15.21 C
2164 10-06-2019 12:15:00 22.1 C 64 % 14.97 C
2165 10-06-2019 12:20:00 22.2 C 62 % 14.58 C
2166 10-06-2019 12:25:00 22.3 C 63 % 14.92 C
2167 10-06-2019 12:30:00 22.3 C 64 % 15.16 C
2168 10-06-2019 12:35:00 22.4 C 65 % 15.5 C
2169 10-06-2019 12:40:00 22.5 C 65 % 15.59 C
2170 10-06-2019 12:45:00 22.6 C 63 % 15.2 C
2171 10-06-2019 12:50:00 22.8 C 62 % 15.14 C
2172 10-06-2019 12:55:00 22.9 C 61 % 14.98 C
2173 10-06-2019 13:00:00 23 C 60 % 14.82 C
2174 10-06-2019 13:05:00 23.1 C 61 % 15.17 C
2175 10-06-2019 13:10:00 23.1 C 62 % 15.42 C
Sensor: Nr:Datum:Temp:Feuchte:Taupunkt:
Aussen-T/F 2176 10-06-2019 13:15:00 23.1 C 61 % 15.17 C
2177 10-06-2019 13:20:00 23.1 C 61 % 15.17 C
2178 10-06-2019 13:25:00 23.1 C 64 % 15.92 C
2179 10-06-2019 13:30:00 23.1 C 61 % 15.17 C
2180 10-06-2019 13:35:00 23.1 C 61 % 15.17 C
2181 10-06-2019 13:40:00 23 C 63 % 15.58 C
2182 10-06-2019 13:45:00 22.9 C 63 % 15.48 C
2183 10-06-2019 13:50:00 23 C 61 % 15.08 C
2184 10-06-2019 13:55:00 23.2 C 61 % 15.26 C
2185 10-06-2019 14:00:00 23.2 C 63 % 15.77 C
2186 10-06-2019 14:05:00 23.2 C 62 % 15.52 C
2187 10-06-2019 14:10:00 23.1 C 62 % 15.42 C
2188 10-06-2019 14:15:00 23.2 C 62 % 15.52 C
2189 10-06-2019 14:20:00 23.2 C 62 % 15.52 C
2190 10-06-2019 14:25:00 23.2 C 62 % 15.52 C
2191 10-06-2019 14:30:00 23.2 C 63 % 15.77 C
2192 10-06-2019 14:35:00 23.2 C 64 % 16.01 C
2193 10-06-2019 14:40:00 23.3 C 64 % 16.11 C
2194 10-06-2019 14:45:00 23.3 C 61 % 15.36 C
2195 10-06-2019 14:50:00 23.3 C 62 % 15.61 C
2196 10-06-2019 14:55:00 23.3 C 64 % 16.11 C
2197 10-06-2019 15:00:00 23.3 C 63 % 15.86 C
2198 10-06-2019 15:05:00 23.3 C 63 % 15.86 C
2199 10-06-2019 15:10:00 23.3 C 63 % 15.86 C
2200 10-06-2019 15:15:00 23.3 C 63 % 15.86 C
Sensor: Nr:Datum:Temp:Feuchte:Taupunkt:
Aussen-T/F 2201 10-06-2019 15:20:00 23.2 C 63 % 15.77 C
2202 10-06-2019 15:25:00 23.2 C 63 % 15.77 C
2203 10-06-2019 15:30:00 23.1 C 65 % 16.16 C
2204 10-06-2019 15:35:00 23.2 C 62 % 15.52 C
2205 10-06-2019 15:40:00 23.3 C 62 % 15.61 C
2206 10-06-2019 15:45:00 23.2 C 62 % 15.52 C
2207 10-06-2019 15:50:00 23.1 C 63 % 15.67 C
2208 10-06-2019 15:55:00 23.2 C 63 % 15.77 C
2209 10-06-2019 16:00:00 23.4 C 62 % 15.71 C
2210 10-06-2019 16:05:00 23.9 C 61 % 15.92 C
2211 10-06-2019 16:10:00 24.3 C 59 % 15.78 C
2212 10-06-2019 16:15:00 24.3 C 59 % 15.78 C
2213 10-06-2019 16:20:00 24.3 C 60 % 16.04 C
2214 10-06-2019 16:25:00 24.4 C 60 % 16.13 C
2215 10-06-2019 16:30:00 24.4 C 59 % 15.87 C
2216 10-06-2019 16:35:00 24.4 C 59 % 15.87 C
2217 10-06-2019 16:40:00 24.1 C 59 % 15.59 C
2218 10-06-2019 16:45:00 23.9 C 60 % 15.66 C
2219 10-06-2019 16:50:00 23.8 C 60 % 15.57 C
2220 10-06-2019 16:55:00 23.6 C 60 % 15.38 C
2221 10-06-2019 17:00:00 23.4 C 61 % 15.45 C
2222 10-06-2019 17:05:00 23.3 C 61 % 15.36 C
2223 10-06-2019 17:10:00 23.3 C 62 % 15.61 C
2224 10-06-2019 17:15:00 23.4 C 62 % 15.71 C
2225 10-06-2019 17:20:00 23.7 C 59 % 15.21 C
Sensor: Nr:Datum:Temp:Feuchte:Taupunkt:
Aussen-T/F 2226 10-06-2019 17:25:00 23.8 C 59 % 15.31 C
2227 10-06-2019 17:30:00 23.8 C 63 % 16.33 C
2228 10-06-2019 17:35:00 23.9 C 60 % 15.66 C
2229 10-06-2019 17:40:00 23.8 C 59 % 15.31 C
2230 10-06-2019 17:45:00 23.8 C 62 % 16.08 C
2231 10-06-2019 17:50:00 23.8 C 61 % 15.83 C
2232 10-06-2019 17:55:00 23.8 C 60 % 15.57 C
2233 10-06-2019 18:00:00 23.8 C 60 % 15.57 C
2234 10-06-2019 18:05:00 23.6 C 60 % 15.38 C
2235 10-06-2019 18:10:00 23.6 C 61 % 15.64 C
2236 10-06-2019 18:15:00 23.7 C 62 % 15.99 C
2237 10-06-2019 18:20:00 23.7 C 61 % 15.73 C
2238 10-06-2019 18:25:00 23.6 C 60 % 15.38 C
2239 10-06-2019 18:30:00 23.2 C 62 % 15.52 C
2240 10-06-2019 18:35:00 22.9 C 62 % 15.23 C
2241 10-06-2019 18:40:00 22.8 C 63 % 15.39 C
2242 10-06-2019 18:45:00 22.6 C 64 % 15.45 C
2243 10-06-2019 18:50:00 22.4 C 63 % 15.01 C
2244 10-06-2019 18:55:00 22.4 C 65 % 15.5 C
2245 10-06-2019 19:00:00 22.3 C 65 % 15.4 C
2246 10-06-2019 19:05:00 22.2 C 64 % 15.07 C
2247 10-06-2019 19:10:00 22 C 62 % 14.39 C
2248 10-06-2019 19:15:00 21.8 C 63 % 14.45 C
2249 10-06-2019 19:20:00 21.7 C 64 % 14.6 C
2250 10-06-2019 19:25:00 21.6 C 64 % 14.5 C
Sensor: Nr:Datum:Temp:Feuchte:Taupunkt:
Aussen-T/F 2251 10-06-2019 19:30:00 21.6 C 65 % 14.74 C
2252 10-06-2019 19:35:00 21.6 C 66 % 14.98 C
2253 10-06-2019 19:40:00 21.6 C 65 % 14.74 C
2254 10-06-2019 19:45:00 21.4 C 65 % 14.55 C
2255 10-06-2019 19:50:00 21.3 C 65 % 14.46 C
2256 10-06-2019 19:55:00 21.3 C 68 % 15.16 C
2257 10-06-2019 20:00:00 21.2 C 67 % 14.83 C
2258 10-06-2019 20:05:00 21.1 C 66 % 14.5 C
2259 10-06-2019 20:10:00 20.9 C 69 % 15 C
2260 10-06-2019 20:15:00 20.8 C 69 % 14.91 C
2261 10-06-2019 20:20:00 20.7 C 69 % 14.81 C
2262 10-06-2019 20:25:00 20.6 C 70 % 14.94 C
2263 10-06-2019 20:30:00 20.6 C 70 % 14.94 C
2264 10-06-2019 20:35:00 20.4 C 70 % 14.75 C
2265 10-06-2019 20:40:00 20.4 C 72 % 15.18 C
2266 10-06-2019 20:45:00 20.3 C 72 % 15.09 C
2267 10-06-2019 20:50:00 20.2 C 72 % 14.99 C
2268 10-06-2019 20:55:00 20.2 C 73 % 15.21 C
2269 10-06-2019 21:00:00 20.1 C 75 % 15.53 C
2270 10-06-2019 21:05:00 19.9 C 75 % 15.34 C
2271 10-06-2019 21:10:00 19.7 C 75 % 15.15 C
2272 10-06-2019 21:15:00 19.6 C 74 % 14.84 C
2273 10-06-2019 21:20:00 19.4 C 74 % 14.65 C
2274 10-06-2019 21:25:00 19.3 C 74 % 14.55 C
2275 10-06-2019 21:30:00 19.3 C 74 % 14.55 C
Sensor: Nr:Datum:Temp:Feuchte:Taupunkt:
Aussen-T/F 2276 10-06-2019 21:35:00 19.3 C 74 % 14.55 C
2277 10-06-2019 21:40:00 19.2 C 75 % 14.66 C
2278 10-06-2019 21:45:00 19.1 C 75 % 14.57 C
2279 10-06-2019 21:50:00 18.9 C 75 % 14.37 C
2280 10-06-2019 21:55:00 18.8 C 76 % 14.48 C
2281 10-06-2019 22:00:00 18.6 C 77 % 14.49 C
2282 10-06-2019 22:05:00 18.4 C 77 % 14.3 C
2283 10-06-2019 22:10:00 18.3 C 78 % 14.4 C
2284 10-06-2019 22:15:00 18.2 C 79 % 14.5 C
2285 10-06-2019 22:20:00 18.1 C 79 % 14.4 C
2286 10-06-2019 22:25:00 18 C 80 % 14.5 C
2287 10-06-2019 22:30:00 17.9 C 79 % 14.21 C
2288 10-06-2019 22:35:00 17.8 C 80 % 14.31 C
2289 10-06-2019 22:40:00 17.7 C 80 % 14.21 C
2290 10-06-2019 22:45:00 17.7 C 81 % 14.4 C
2291 10-06-2019 22:50:00 17.6 C 82 % 14.49 C
2292 10-06-2019 22:55:00 17.4 C 82 % 14.3 C
2293 10-06-2019 23:00:00 17.3 C 82 % 14.2 C
2294 10-06-2019 23:05:00 17.2 C 82 % 14.1 C
2295 10-06-2019 23:10:00 17.2 C 82 % 14.1 C
2296 10-06-2019 23:15:00 17.1 C 82 % 14 C
2297 10-06-2019 23:20:00 17.1 C 82 % 14 C
2298 10-06-2019 23:25:00 17.1 C 82 % 14 C
2299 10-06-2019 23:30:00 17.1 C 82 % 14 C
2300 10-06-2019 23:35:00 17.1 C 83 % 14.19 C
Sensor: Nr:Datum:Temp:Feuchte:Taupunkt:
Aussen-T/F 2301 10-06-2019 23:40:00 17.1 C 83 % 14.19 C
2302 10-06-2019 23:45:00 17 C 83 % 14.09 C
2303 10-06-2019 23:50:00 16.9 C 83 % 14 C
2304 10-06-2019 23:55:00 16.9 C 84 % 14.18 C
2305 11-06-2019 00:00:00 16.8 C 84 % 14.08 C
2306 11-06-2019 00:05:00 16.7 C 85 % 14.17 C
2307 11-06-2019 00:10:00 16.7 C 85 % 14.17 C
2308 11-06-2019 00:15:00 16.6 C 85 % 14.07 C
2309 11-06-2019 00:20:00 16.6 C 85 % 14.07 C
2310 11-06-2019 00:25:00 16.5 C 86 % 14.15 C
2311 11-06-2019 00:30:00 16.5 C 86 % 14.15 C
2312 11-06-2019 00:35:00 16.5 C 86 % 14.15 C
2313 11-06-2019 00:40:00 16.5 C 86 % 14.15 C
2314 11-06-2019 00:45:00 16.5 C 86 % 14.15 C
2315 11-06-2019 00:50:00 16.4 C 86 % 14.05 C
2316 11-06-2019 00:55:00 16.4 C 86 % 14.05 C
2317 11-06-2019 01:00:00 16.4 C 86 % 14.05 C
2318 11-06-2019 01:05:00 16.4 C 87 % 14.23 C
2319 11-06-2019 01:10:00 16.4 C 87 % 14.23 C
2320 11-06-2019 01:15:00 16.4 C 87 % 14.23 C
2321 11-06-2019 01:20:00 16.4 C 87 % 14.23 C
2322 11-06-2019 01:25:00 16.4 C 87 % 14.23 C
2323 11-06-2019 01:30:00 16.4 C 87 % 14.23 C
2324 11-06-2019 01:35:00 16.4 C 87 % 14.23 C
2325 11-06-2019 01:40:00 16.4 C 87 % 14.23 C
Sensor: Nr:Datum:Temp:Feuchte:Taupunkt:
Aussen-T/F 2326 11-06-2019 01:45:00 16.4 C 87 % 14.23 C
2327 11-06-2019 01:50:00 16.3 C 86 % 13.95 C
2328 11-06-2019 01:55:00 16.3 C 87 % 14.13 C
2329 11-06-2019 02:00:00 16.3 C 86 % 13.95 C
2330 11-06-2019 02:05:00 16.3 C 86 % 13.95 C
2331 11-06-2019 02:10:00 16.3 C 86 % 13.95 C
2332 11-06-2019 02:15:00 16.2 C 86 % 13.86 C
2333 11-06-2019 02:20:00 16.2 C 86 % 13.86 C
2334 11-06-2019 02:25:00 16.2 C 86 % 13.86 C
2335 11-06-2019 02:30:00 16.2 C 86 % 13.86 C
2336 11-06-2019 02:35:00 16.1 C 86 % 13.76 C
2337 11-06-2019 02:40:00 16.1 C 86 % 13.76 C
2338 11-06-2019 02:45:00 16.1 C 86 % 13.76 C
2339 11-06-2019 02:50:00 16 C 87 % 13.84 C
2340 11-06-2019 02:55:00 15.9 C 88 % 13.92 C
2341 11-06-2019 03:00:00 15.8 C 89 % 13.99 C
2342 11-06-2019 03:05:00 15.7 C 89 % 13.89 C
2343 11-06-2019 03:10:00 15.6 C 89 % 13.79 C
2344 11-06-2019 03:15:00 15.4 C 90 % 13.77 C
2345 11-06-2019 03:20:00 15.3 C 90 % 13.67 C
2346 11-06-2019 03:25:00 15.3 C 91 % 13.84 C
2347 11-06-2019 03:30:00 15.2 C 91 % 13.74 C
2348 11-06-2019 03:35:00 15.1 C 91 % 13.64 C
2349 11-06-2019 03:40:00 15.1 C 92 % 13.81 C
2350 11-06-2019 03:45:00 15.1 C 92 % 13.81 C
Sensor: Nr:Datum:Temp:Feuchte:Taupunkt:
Aussen-T/F 2351 11-06-2019 03:50:00 15 C 92 % 13.71 C
2352 11-06-2019 03:55:00 14.9 C 92 % 13.61 C
2353 11-06-2019 04:00:00 14.8 C 92 % 13.51 C
2354 11-06-2019 04:05:00 14.8 C 93 % 13.68 C
2355 11-06-2019 04:10:00 14.7 C 93 % 13.58 C
2356 11-06-2019 04:15:00 14.7 C 93 % 13.58 C
2357 11-06-2019 04:20:00 14.7 C 93 % 13.58 C
2358 11-06-2019 04:25:00 14.6 C 93 % 13.48 C
2359 11-06-2019 04:30:00 14.6 C 93 % 13.48 C
2360 11-06-2019 04:35:00 14.6 C 93 % 13.48 C
2361 11-06-2019 04:40:00 14.5 C 93 % 13.38 C
2362 11-06-2019 04:45:00 14.4 C 93 % 13.28 C
2363 11-06-2019 04:50:00 14.4 C 94 % 13.45 C
2364 11-06-2019 04:55:00 14.4 C 94 % 13.45 C
2365 11-06-2019 05:00:00 14.3 C 94 % 13.35 C
2366 11-06-2019 05:05:00 14.3 C 94 % 13.35 C
2367 11-06-2019 05:10:00 14.3 C 94 % 13.35 C
2368 11-06-2019 05:15:00 14.3 C 94 % 13.35 C
2369 11-06-2019 05:20:00 14.2 C 94 % 13.25 C
2370 11-06-2019 05:25:00 14.2 C 94 % 13.25 C
2371 11-06-2019 05:30:00 14.2 C 94 % 13.25 C
2372 11-06-2019 05:35:00 14.2 C 94 % 13.25 C
2373 11-06-2019 05:40:00 14.2 C 94 % 13.25 C
2374 11-06-2019 05:45:00 14.2 C 94 % 13.25 C
2375 11-06-2019 05:50:00 14.1 C 94 % 13.15 C
Sensor: Nr:Datum:Temp:Feuchte:Taupunkt:
Aussen-T/F 2376 11-06-2019 05:55:00 14.1 C 94 % 13.15 C
2377 11-06-2019 06:00:00 14.1 C 94 % 13.15 C
2378 11-06-2019 06:05:00 14.1 C 94 % 13.15 C
2379 11-06-2019 06:10:00 14.1 C 95 % 13.31 C
2380 11-06-2019 06:15:00 14.1 C 95 % 13.31 C
2381 11-06-2019 06:20:00 14.1 C 95 % 13.31 C
2382 11-06-2019 06:25:00 14.1 C 95 % 13.31 C
2383 11-06-2019 06:30:00 14.1 C 95 % 13.31 C
2384 11-06-2019 06:35:00 14.2 C 95 % 13.41 C
2385 11-06-2019 06:40:00 14.2 C 95 % 13.41 C
2386 11-06-2019 06:45:00 14.2 C 95 % 13.41 C
2387 11-06-2019 06:50:00 14.3 C 95 % 13.51 C
2388 11-06-2019 06:55:00 14.3 C 95 % 13.51 C
2389 11-06-2019 07:00:00 14.3 C 95 % 13.51 C
2390 11-06-2019 07:05:00 14.3 C 95 % 13.51 C
2391 11-06-2019 07:10:00 14.3 C 95 % 13.51 C
2392 11-06-2019 07:15:00 14.4 C 95 % 13.61 C
2393 11-06-2019 07:20:00 14.4 C 96 % 13.77 C
2394 11-06-2019 07:25:00 14.6 C 96 % 13.97 C
2395 11-06-2019 07:30:00 14.6 C 96 % 13.97 C
2396 11-06-2019 07:35:00 14.6 C 95 % 13.81 C
2397 11-06-2019 07:40:00 14.6 C 95 % 13.81 C
2398 11-06-2019 07:45:00 14.6 C 95 % 13.81 C
2399 11-06-2019 07:50:00 14.6 C 95 % 13.81 C
2400 11-06-2019 07:55:00 14.7 C 96 % 14.07 C
Sensor: Nr:Datum:Temp:Feuchte:Taupunkt:
Aussen-T/F 2401 11-06-2019 08:00:00 14.8 C 96 % 14.17 C
2402 11-06-2019 08:05:00 14.9 C 96 % 14.27 C
2403 11-06-2019 08:10:00 14.9 C 95 % 14.11 C
2404 11-06-2019 08:15:00 14.9 C 96 % 14.27 C
2405 11-06-2019 08:20:00 15 C 96 % 14.37 C
2406 11-06-2019 08:25:00 15.1 C 96 % 14.47 C
2407 11-06-2019 08:30:00 15.1 C 96 % 14.47 C
2408 11-06-2019 08:35:00 15.1 C 96 % 14.47 C
2409 11-06-2019 08:40:00 15.1 C 95 % 14.31 C
2410 11-06-2019 08:45:00 15.1 C 95 % 14.31 C
2411 11-06-2019 08:50:00 15.1 C 95 % 14.31 C
2412 11-06-2019 08:55:00 15.1 C 95 % 14.31 C
2413 11-06-2019 09:00:00 15.2 C 95 % 14.4 C
2414 11-06-2019 09:05:00 15.2 C 95 % 14.4 C
2415 11-06-2019 09:10:00 15.3 C 95 % 14.5 C
2416 11-06-2019 09:15:00 15.3 C 95 % 14.5 C
2417 11-06-2019 09:20:00 15.3 C 95 % 14.5 C
2418 11-06-2019 09:25:00 15.3 C 95 % 14.5 C
2419 11-06-2019 09:30:00 15.3 C 93 % 14.18 C
2420 11-06-2019 09:35:00 15.3 C 93 % 14.18 C
2421 11-06-2019 09:40:00 15.4 C 93 % 14.27 C
2422 11-06-2019 09:45:00 15.4 C 92 % 14.11 C
2423 11-06-2019 09:50:00 15.5 C 93 % 14.37 C
2424 11-06-2019 09:55:00 15.6 C 92 % 14.31 C
2425 11-06-2019 10:00:00 15.8 C 92 % 14.5 C
Sensor: Nr:Datum:Temp:Feuchte:Taupunkt:
Aussen-T/F 2426 11-06-2019 10:05:00 16.1 C 93 % 14.97 C
2427 11-06-2019 10:10:00 16.3 C 93 % 15.17 C
2428 11-06-2019 10:15:00 16.3 C 91 % 14.83 C
2429 11-06-2019 10:20:00 16 C 87 % 13.84 C
2430 11-06-2019 10:25:00 15.9 C 87 % 13.74 C
2431 11-06-2019 10:30:00 16 C 89 % 14.19 C
2432 11-06-2019 10:35:00 16.2 C 91 % 14.73 C
2433 11-06-2019 10:40:00 16.2 C 91 % 14.73 C
2434 11-06-2019 10:45:00 16.3 C 91 % 14.83 C
2435 11-06-2019 10:50:00 16.4 C 92 % 15.1 C
2436 11-06-2019 10:55:00 16.5 C 92 % 15.2 C
2437 11-06-2019 11:00:00 16.7 C 92 % 15.39 C
2438 11-06-2019 11:05:00 16.6 C 90 % 14.95 C
2439 11-06-2019 11:10:00 16.5 C 89 % 14.68 C
2440 11-06-2019 11:15:00 16.4 C 86 % 14.05 C
2441 11-06-2019 11:20:00 16.6 C 83 % 13.7 C
2442 11-06-2019 11:25:00 16.8 C 83 % 13.9 C
2443 11-06-2019 11:30:00 16.9 C 82 % 13.81 C
2444 11-06-2019 11:35:00 17.1 C 80 % 13.62 C
2445 11-06-2019 11:40:00 17.3 C 80 % 13.82 C
2446 11-06-2019 11:45:00 17.4 C 85 % 14.85 C
2447 11-06-2019 11:50:00 17.4 C 86 % 15.03 C
2448 11-06-2019 11:55:00 17.4 C 87 % 15.21 C
2449 11-06-2019 12:00:00 17.4 C 87 % 15.21 C
2450 11-06-2019 12:05:00 17.4 C 87 % 15.21 C
Sensor: Nr:Datum:Temp:Feuchte:Taupunkt:
Aussen-T/F 2451 11-06-2019 12:10:00 17.3 C 84 % 14.57 C
2452 11-06-2019 12:15:00 17.4 C 80 % 13.92 C
2453 11-06-2019 12:20:00 17.5 C 79 % 13.82 C
2454 11-06-2019 12:25:00 17.7 C 77 % 13.62 C
2455 11-06-2019 12:30:00 17.9 C 77 % 13.81 C
2456 11-06-2019 12:35:00 18.1 C 75 % 13.6 C
2457 11-06-2019 12:40:00 18.2 C 74 % 13.49 C
2458 11-06-2019 12:45:00 18.3 C 74 % 13.59 C
2459 11-06-2019 12:50:00 18.3 C 75 % 13.79 C
2460 11-06-2019 12:55:00 18.3 C 74 % 13.59 C
2461 11-06-2019 13:00:00 18.5 C 75 % 13.99 C
2462 11-06-2019 13:05:00 18.7 C 74 % 13.97 C
2463 11-06-2019 13:10:00 18.8 C 74 % 14.07 C
2464 11-06-2019 13:15:00 18.8 C 72 % 13.65 C
2465 11-06-2019 13:20:00 18.9 C 75 % 14.37 C
2466 11-06-2019 13:25:00 18.9 C 74 % 14.17 C
2467 11-06-2019 13:30:00 19 C 70 % 13.41 C
2468 11-06-2019 13:35:00 19.2 C 71 % 13.82 C
2469 11-06-2019 13:40:00 19.3 C 71 % 13.91 C
2470 11-06-2019 13:45:00 19.6 C 71 % 14.2 C
2471 11-06-2019 13:50:00 19.7 C 68 % 13.63 C
2472 11-06-2019 13:55:00 19.7 C 68 % 13.63 C
2473 11-06-2019 14:00:00 19.8 C 67 % 13.5 C
2474 11-06-2019 14:05:00 19.9 C 67 % 13.59 C
2475 11-06-2019 14:10:00 20.1 C 66 % 13.55 C
Sensor: Nr:Datum:Temp:Feuchte:Taupunkt:
Aussen-T/F 2476 11-06-2019 14:15:00 20 C 67 % 13.69 C
2477 11-06-2019 14:20:00 19.9 C 66 % 13.36 C
2478 11-06-2019 14:25:00 19.9 C 66 % 13.36 C
2479 11-06-2019 14:30:00 20 C 67 % 13.69 C
2480 11-06-2019 14:35:00 20.2 C 66 % 13.65 C
2481 11-06-2019 14:40:00 20.5 C 69 % 14.62 C
2482 11-06-2019 14:45:00 20.8 C 66 % 14.22 C
2483 11-06-2019 14:50:00 20.8 C 65 % 13.98 C
2484 11-06-2019 14:55:00 21 C 61 % 13.2 C
2485 11-06-2019 15:00:00 20.9 C 65 % 14.08 C
2486 11-06-2019 15:05:00 21.1 C 66 % 14.5 C
2487 11-06-2019 15:10:00 21.2 C 62 % 13.63 C
2488 11-06-2019 15:15:00 21.2 C 60 % 13.13 C
2489 11-06-2019 15:20:00 21.2 C 61 % 13.38 C
2490 11-06-2019 15:25:00 21.2 C 62 % 13.63 C
2491 11-06-2019 15:30:00 21.4 C 65 % 14.55 C
2492 11-06-2019 15:35:00 21.6 C 60 % 13.51 C
2493 11-06-2019 15:40:00 21.4 C 59 % 13.06 C
2494 11-06-2019 15:45:00 21.2 C 60 % 13.13 C
2495 11-06-2019 15:50:00 21.6 C 64 % 14.5 C
2496 11-06-2019 15:55:00 21.8 C 58 % 13.17 C
2497 11-06-2019 16:00:00 21.8 C 60 % 13.69 C
2498 11-06-2019 16:05:00 21.7 C 58 % 13.08 C
2499 11-06-2019 16:10:00 21.5 C 59 % 13.15 C
2500 11-06-2019 16:15:00 21.3 C 60 % 13.22 C
Sensor: Nr:Datum:Temp:Feuchte:Taupunkt:
Aussen-T/F 2501 11-06-2019 16:20:00 21.1 C 60 % 13.04 C
2502 11-06-2019 16:25:00 20.9 C 61 % 13.1 C
2503 11-06-2019 16:30:00 20.8 C 63 % 13.5 C
2504 11-06-2019 16:35:00 20.8 C 72 % 15.57 C
2505 11-06-2019 16:40:00 20.6 C 74 % 15.8 C
2506 11-06-2019 16:45:00 20.4 C 76 % 16.03 C
2507 11-06-2019 16:50:00 20.3 C 77 % 16.14 C
2508 11-06-2019 16:55:00 20.1 C 78 % 16.14 C
2509 11-06-2019 17:00:00 20 C 78 % 16.05 C
2510 11-06-2019 17:05:00 19.8 C 78 % 15.85 C
2511 11-06-2019 17:10:00 19.7 C 78 % 15.76 C
2512 11-06-2019 17:15:00 19.6 C 78 % 15.66 C
2513 11-06-2019 17:20:00 19.4 C 78 % 15.47 C
2514 11-06-2019 17:25:00 19.2 C 79 % 15.47 C
2515 11-06-2019 17:30:00 19.2 C 79 % 15.47 C
2516 11-06-2019 17:35:00 19.1 C 80 % 15.57 C
2517 11-06-2019 17:40:00 18.9 C 80 % 15.38 C
2518 11-06-2019 17:45:00 18.9 C 81 % 15.57 C
2519 11-06-2019 17:50:00 18.8 C 81 % 15.47 C
2520 11-06-2019 17:55:00 18.8 C 82 % 15.66 C
2521 11-06-2019 18:00:00 18.8 C 82 % 15.66 C
2522 11-06-2019 18:05:00 18.8 C 82 % 15.66 C
2523 11-06-2019 18:10:00 18.8 C 82 % 15.66 C
2524 11-06-2019 18:15:00 18.8 C 82 % 15.66 C
2525 11-06-2019 18:20:00 18.8 C 82 % 15.66 C
Sensor: Nr:Datum:Temp:Feuchte:Taupunkt:
Aussen-T/F 2526 11-06-2019 18:25:00 18.7 C 83 % 15.75 C
2527 11-06-2019 18:30:00 18.7 C 83 % 15.75 C
2528 11-06-2019 18:35:00 18.6 C 83 % 15.66 C
2529 11-06-2019 18:40:00 18.6 C 82 % 15.47 C
2530 11-06-2019 18:45:00 18.6 C 78 % 14.69 C
2531 11-06-2019 18:50:00 18.8 C 83 % 15.85 C
2532 11-06-2019 18:55:00 19.1 C 84 % 16.33 C
2533 11-06-2019 19:00:00 19.2 C 81 % 15.86 C
2534 11-06-2019 19:05:00 19.4 C 78 % 15.47 C
2535 11-06-2019 19:10:00 19.7 C 72 % 14.51 C
2536 11-06-2019 19:15:00 20.2 C 71 % 14.78 C
2537 11-06-2019 19:20:00 20.7 C 69 % 14.81 C
2538 11-06-2019 19:25:00 21.1 C 66 % 14.5 C
2539 11-06-2019 19:30:00 21.1 C 65 % 14.27 C
2540 11-06-2019 19:35:00 20.8 C 66 % 14.22 C
2541 11-06-2019 19:40:00 20.7 C 67 % 14.36 C
2542 11-06-2019 19:45:00 20.5 C 67 % 14.16 C
2543 11-06-2019 19:50:00 20.5 C 74 % 15.71 C
2544 11-06-2019 19:55:00 20.3 C 76 % 15.93 C
2545 11-06-2019 20:00:00 20.1 C 76 % 15.74 C
2546 11-06-2019 20:05:00 19.9 C 78 % 15.95 C
2547 11-06-2019 20:10:00 19.7 C 78 % 15.76 C
2548 11-06-2019 20:15:00 19.4 C 79 % 15.66 C
2549 11-06-2019 20:20:00 19.2 C 80 % 15.67 C
2550 11-06-2019 20:25:00 19.1 C 81 % 15.76 C
Sensor: Nr:Datum:Temp:Feuchte:Taupunkt:
Aussen-T/F 2551 11-06-2019 20:30:00 19.1 C 81 % 15.76 C
2552 11-06-2019 20:35:00 18.9 C 81 % 15.57 C
2553 11-06-2019 20:40:00 18.9 C 81 % 15.57 C
2554 11-06-2019 20:45:00 18.8 C 81 % 15.47 C
2555 11-06-2019 20:50:00 18.7 C 81 % 15.37 C
2556 11-06-2019 20:55:00 18.5 C 81 % 15.18 C
2557 11-06-2019 21:00:00 18.4 C 82 % 15.27 C
2558 11-06-2019 21:05:00 18.3 C 82 % 15.17 C
2559 11-06-2019 21:10:00 18.2 C 82 % 15.08 C
2560 11-06-2019 21:15:00 18.1 C 82 % 14.98 C
2561 11-06-2019 21:20:00 17.9 C 83 % 14.97 C
2562 11-06-2019 21:25:00 17.8 C 83 % 14.88 C
2563 11-06-2019 21:30:00 17.7 C 84 % 14.96 C
2564 11-06-2019 21:35:00 17.6 C 84 % 14.87 C
2565 11-06-2019 21:40:00 17.4 C 84 % 14.67 C
2566 11-06-2019 21:45:00 17.3 C 84 % 14.57 C
2567 11-06-2019 21:50:00 17.3 C 84 % 14.57 C
2568 11-06-2019 21:55:00 17.2 C 84 % 14.47 C
2569 11-06-2019 22:00:00 17.2 C 85 % 14.66 C
2570 11-06-2019 22:05:00 17.2 C 85 % 14.66 C
2571 11-06-2019 22:10:00 17.1 C 84 % 14.38 C
2572 11-06-2019 22:15:00 17.1 C 85 % 14.56 C
2573 11-06-2019 22:20:00 17 C 85 % 14.46 C
2574 11-06-2019 22:25:00 16.9 C 85 % 14.36 C
2575 11-06-2019 22:30:00 16.8 C 85 % 14.26 C
Sensor: Nr:Datum:Temp:Feuchte:Taupunkt:
Aussen-T/F 2576 11-06-2019 22:35:00 16.7 C 84 % 13.98 C
2577 11-06-2019 22:40:00 16.6 C 84 % 13.89 C
2578 11-06-2019 22:45:00 16.4 C 85 % 13.87 C
2579 11-06-2019 22:50:00 16.3 C 85 % 13.77 C
2580 11-06-2019 22:55:00 16.2 C 85 % 13.68 C
2581 11-06-2019 23:00:00 16.1 C 85 % 13.58 C
2582 11-06-2019 23:05:00 15.9 C 85 % 13.38 C
2583 11-06-2019 23:10:00 15.9 C 86 % 13.56 C
2584 11-06-2019 23:15:00 15.8 C 86 % 13.46 C
2585 11-06-2019 23:20:00 15.8 C 87 % 13.64 C
2586 11-06-2019 23:25:00 15.7 C 87 % 13.54 C
2587 11-06-2019 23:30:00 15.7 C 87 % 13.54 C
2588 11-06-2019 23:35:00 15.6 C 87 % 13.45 C
2589 11-06-2019 23:40:00 15.6 C 87 % 13.45 C
2590 11-06-2019 23:45:00 15.5 C 87 % 13.35 C
2591 11-06-2019 23:50:00 15.5 C 87 % 13.35 C
2592 11-06-2019 23:55:00 15.4 C 87 % 13.25 C
2593 12-06-2019 00:00:00 15.4 C 87 % 13.25 C
2594 12-06-2019 00:05:00 15.4 C 87 % 13.25 C
2595 12-06-2019 00:10:00 15.4 C 87 % 13.25 C
2596 12-06-2019 00:15:00 15.3 C 87 % 13.15 C
2597 12-06-2019 00:20:00 15.3 C 87 % 13.15 C
2598 12-06-2019 00:25:00 15.2 C 87 % 13.05 C
2599 12-06-2019 00:30:00 15.2 C 87 % 13.05 C
2600 12-06-2019 00:35:00 15.1 C 87 % 12.95 C
Sensor: Nr:Datum:Temp:Feuchte:Taupunkt:
Aussen-T/F 2601 12-06-2019 00:40:00 15.1 C 87 % 12.95 C
2602 12-06-2019 00:45:00 14.9 C 87 % 12.76 C
2603 12-06-2019 00:50:00 14.9 C 87 % 12.76 C
2604 12-06-2019 00:55:00 14.8 C 87 % 12.66 C
2605 12-06-2019 01:00:00 14.7 C 87 % 12.56 C
2606 12-06-2019 01:05:00 14.6 C 87 % 12.46 C
2607 12-06-2019 01:10:00 14.5 C 88 % 12.54 C
2608 12-06-2019 01:15:00 14.4 C 88 % 12.44 C
2609 12-06-2019 01:20:00 14.3 C 89 % 12.51 C
2610 12-06-2019 01:25:00 14.3 C 89 % 12.51 C
2611 12-06-2019 01:30:00 14.2 C 89 % 12.41 C
2612 12-06-2019 01:35:00 14.2 C 89 % 12.41 C
2613 12-06-2019 01:40:00 14.3 C 90 % 12.68 C
2614 12-06-2019 01:45:00 14.3 C 90 % 12.68 C
2615 12-06-2019 01:50:00 14.4 C 90 % 12.78 C
2616 12-06-2019 01:55:00 14.5 C 90 % 12.88 C
2617 12-06-2019 02:00:00 14.5 C 90 % 12.88 C
2618 12-06-2019 02:05:00 14.6 C 90 % 12.98 C
2619 12-06-2019 02:10:00 14.6 C 90 % 12.98 C
2620 12-06-2019 02:15:00 14.6 C 90 % 12.98 C
2621 12-06-2019 02:20:00 14.6 C 90 % 12.98 C
2622 12-06-2019 02:25:00 14.6 C 90 % 12.98 C
2623 12-06-2019 02:30:00 14.6 C 90 % 12.98 C
2624 12-06-2019 02:35:00 14.6 C 90 % 12.98 C
2625 12-06-2019 02:40:00 14.6 C 90 % 12.98 C
Sensor: Nr:Datum:Temp:Feuchte:Taupunkt:
Aussen-T/F 2626 12-06-2019 02:45:00 14.6 C 90 % 12.98 C
2627 12-06-2019 02:50:00 14.6 C 90 % 12.98 C
2628 12-06-2019 02:55:00 14.6 C 90 % 12.98 C
2629 12-06-2019 03:00:00 14.6 C 90 % 12.98 C
2630 12-06-2019 03:05:00 14.6 C 90 % 12.98 C
2631 12-06-2019 03:10:00 14.6 C 90 % 12.98 C
2632 12-06-2019 03:15:00 14.5 C 91 % 13.05 C
2633 12-06-2019 03:20:00 14.5 C 91 % 13.05 C
2634 12-06-2019 03:25:00 14.5 C 91 % 13.05 C
2635 12-06-2019 03:30:00 14.5 C 91 % 13.05 C
2636 12-06-2019 03:35:00 14.5 C 91 % 13.05 C
2637 12-06-2019 03:40:00 14.5 C 91 % 13.05 C
2638 12-06-2019 03:45:00 14.5 C 91 % 13.05 C
2639 12-06-2019 03:50:00 14.5 C 91 % 13.05 C
2640 12-06-2019 03:55:00 14.5 C 91 % 13.05 C
2641 12-06-2019 04:00:00 14.4 C 91 % 12.95 C
2642 12-06-2019 04:05:00 14.4 C 91 % 12.95 C
2643 12-06-2019 04:10:00 14.4 C 91 % 12.95 C
2644 12-06-2019 04:15:00 14.4 C 91 % 12.95 C
2645 12-06-2019 04:20:00 14.4 C 91 % 12.95 C
2646 12-06-2019 04:25:00 14.4 C 91 % 12.95 C
2647 12-06-2019 04:30:00 14.4 C 91 % 12.95 C
2648 12-06-2019 04:35:00 14.4 C 91 % 12.95 C
2649 12-06-2019 04:40:00 14.4 C 91 % 12.95 C
2650 12-06-2019 04:45:00 14.4 C 91 % 12.95 C
Sensor: Nr:Datum:Temp:Feuchte:Taupunkt:
Aussen-T/F 2651 12-06-2019 04:50:00 14.4 C 91 % 12.95 C
2652 12-06-2019 04:55:00 14.3 C 91 % 12.85 C
2653 12-06-2019 05:00:00 14.3 C 91 % 12.85 C
2654 12-06-2019 05:05:00 14.2 C 91 % 12.75 C
2655 12-06-2019 05:10:00 14.1 C 91 % 12.65 C
2656 12-06-2019 05:15:00 14 C 92 % 12.72 C
2657 12-06-2019 05:20:00 14.1 C 92 % 12.82 C
2658 12-06-2019 05:25:00 14.1 C 92 % 12.82 C
2659 12-06-2019 05:30:00 14.1 C 92 % 12.82 C
2660 12-06-2019 05:35:00 14.1 C 92 % 12.82 C
2661 12-06-2019 05:40:00 14.1 C 92 % 12.82 C
2662 12-06-2019 05:45:00 14.1 C 92 % 12.82 C
2663 12-06-2019 05:50:00 14.2 C 92 % 12.92 C
2664 12-06-2019 05:55:00 14.1 C 92 % 12.82 C
2665 12-06-2019 06:00:00 14 C 92 % 12.72 C
2666 12-06-2019 06:05:00 13.9 C 92 % 12.62 C
2667 12-06-2019 06:10:00 13.8 C 92 % 12.52 C
2668 12-06-2019 06:15:00 13.8 C 92 % 12.52 C
2669 12-06-2019 06:20:00 13.8 C 92 % 12.52 C
2670 12-06-2019 06:25:00 13.8 C 92 % 12.52 C
2671 12-06-2019 06:30:00 13.9 C 93 % 12.79 C
2672 12-06-2019 06:35:00 13.9 C 93 % 12.79 C
2673 12-06-2019 06:40:00 14 C 93 % 12.89 C
2674 12-06-2019 06:45:00 14.1 C 93 % 12.99 C
2675 12-06-2019 06:50:00 14.2 C 93 % 13.08 C
Sensor: Nr:Datum:Temp:Feuchte:Taupunkt:
Aussen-T/F 2676 12-06-2019 06:55:00 14.3 C 92 % 13.02 C
2677 12-06-2019 07:00:00 14.4 C 92 % 13.12 C
2678 12-06-2019 07:05:00 14.6 C 92 % 13.32 C
2679 12-06-2019 07:10:00 14.7 C 91 % 13.25 C
2680 12-06-2019 07:15:00 14.7 C 91 % 13.25 C
2681 12-06-2019 07:20:00 14.8 C 91 % 13.35 C
2682 12-06-2019 07:25:00 14.8 C 92 % 13.51 C
2683 12-06-2019 07:30:00 14.9 C 92 % 13.61 C
2684 12-06-2019 07:35:00 15 C 91 % 13.54 C
2685 12-06-2019 07:40:00 15 C 91 % 13.54 C
2686 12-06-2019 07:45:00 15.1 C 91 % 13.64 C
2687 12-06-2019 07:50:00 15.2 C 91 % 13.74 C
2688 12-06-2019 07:55:00 15.3 C 91 % 13.84 C
2689 12-06-2019 08:00:00 15.4 C 91 % 13.94 C
2690 12-06-2019 08:05:00 15.4 C 90 % 13.77 C
2691 12-06-2019 08:10:00 15.4 C 89 % 13.6 C
2692 12-06-2019 08:15:00 15.5 C 89 % 13.7 C
2693 12-06-2019 08:20:00 15.6 C 89 % 13.79 C
2694 12-06-2019 08:25:00 15.7 C 89 % 13.89 C
2695 12-06-2019 08:30:00 15.8 C 89 % 13.99 C
2696 12-06-2019 08:35:00 15.9 C 88 % 13.92 C
2697 12-06-2019 08:40:00 16 C 88 % 14.01 C
2698 12-06-2019 08:45:00 16.2 C 88 % 14.21 C
2699 12-06-2019 08:50:00 16.3 C 88 % 14.31 C
2700 12-06-2019 08:55:00 16.6 C 86 % 14.25 C
Sensor: Nr:Datum:Temp:Feuchte:Taupunkt:
Aussen-T/F 2701 12-06-2019 09:00:00 16.7 C 85 % 14.17 C
2702 12-06-2019 09:05:00 16.8 C 84 % 14.08 C
2703 12-06-2019 09:10:00 16.8 C 84 % 14.08 C
2704 12-06-2019 09:15:00 16.7 C 84 % 13.98 C
2705 12-06-2019 09:20:00 16.7 C 85 % 14.17 C
2706 12-06-2019 09:25:00 16.6 C 85 % 14.07 C
2707 12-06-2019 09:30:00 16.6 C 86 % 14.25 C
2708 12-06-2019 09:35:00 16.5 C 86 % 14.15 C
2709 12-06-2019 09:40:00 16.4 C 87 % 14.23 C
2710 12-06-2019 09:45:00 16.3 C 87 % 14.13 C
2711 12-06-2019 09:50:00 16.2 C 88 % 14.21 C
2712 12-06-2019 09:55:00 16.1 C 89 % 14.29 C
2713 12-06-2019 10:00:00 15.9 C 89 % 14.09 C
2714 12-06-2019 10:05:00 15.7 C 90 % 14.06 C
2715 12-06-2019 10:10:00 15.6 C 91 % 14.14 C
2716 12-06-2019 10:15:00 15.5 C 92 % 14.21 C
2717 12-06-2019 10:20:00 15.4 C 92 % 14.11 C
2718 12-06-2019 10:25:00 15.2 C 92 % 13.91 C
2719 12-06-2019 10:30:00 15.1 C 93 % 13.98 C
2720 12-06-2019 10:35:00 14.9 C 92 % 13.61 C
2721 12-06-2019 10:40:00 14.8 C 93 % 13.68 C
2722 12-06-2019 10:45:00 14.7 C 93 % 13.58 C
2723 12-06-2019 10:50:00 14.6 C 93 % 13.48 C
2724 12-06-2019 10:55:00 14.4 C 93 % 13.28 C
2725 12-06-2019 11:00:00 14.4 C 94 % 13.45 C
Sensor: Nr:Datum:Temp:Feuchte:Taupunkt:
Aussen-T/F 2726 12-06-2019 11:05:00 14.3 C 93 % 13.18 C
2727 12-06-2019 11:10:00 14.2 C 93 % 13.08 C
2728 12-06-2019 11:15:00 14.1 C 93 % 12.99 C
2729 12-06-2019 11:20:00 14 C 93 % 12.89 C
2730 12-06-2019 11:25:00 13.8 C 93 % 12.69 C
2731 12-06-2019 11:30:00 13.8 C 93 % 12.69 C
2732 12-06-2019 11:35:00 13.8 C 93 % 12.69 C
2733 12-06-2019 11:40:00 13.8 C 94 % 12.85 C
2734 12-06-2019 11:45:00 13.8 C 94 % 12.85 C
2735 12-06-2019 11:50:00 13.8 C 94 % 12.85 C
2736 12-06-2019 11:55:00 13.9 C 94 % 12.95 C
2737 12-06-2019 12:00:00 13.9 C 95 % 13.11 C
2738 12-06-2019 12:05:00 14.2 C 95 % 13.41 C
2739 12-06-2019 12:10:00 14.2 C 95 % 13.41 C
2740 12-06-2019 12:15:00 14.3 C 95 % 13.51 C
2741 12-06-2019 12:20:00 14.4 C 95 % 13.61 C
2742 12-06-2019 12:25:00 14.4 C 95 % 13.61 C
2743 12-06-2019 12:30:00 14.4 C 95 % 13.61 C
2744 12-06-2019 12:35:00 14.4 C 95 % 13.61 C
2745 12-06-2019 12:40:00 14.6 C 95 % 13.81 C
2746 12-06-2019 12:45:00 14.7 C 95 % 13.91 C
2747 12-06-2019 12:50:00 14.7 C 95 % 13.91 C
2748 12-06-2019 12:55:00 14.7 C 95 % 13.91 C
2749 12-06-2019 13:00:00 14.7 C 94 % 13.74 C
2750 12-06-2019 13:05:00 14.7 C 95 % 13.91 C
Sensor: Nr:Datum:Temp:Feuchte:Taupunkt:
Aussen-T/F 2751 12-06-2019 13:10:00 14.8 C 94 % 13.84 C
2752 12-06-2019 13:15:00 14.9 C 95 % 14.11 C
2753 12-06-2019 13:20:00 14.8 C 94 % 13.84 C
2754 12-06-2019 13:25:00 14.9 C 93 % 13.78 C
2755 12-06-2019 13:30:00 15.3 C 94 % 14.34 C
2756 12-06-2019 13:35:00 15.5 C 93 % 14.37 C
2757 12-06-2019 13:40:00 15.8 C 93 % 14.67 C
2758 12-06-2019 13:45:00 16 C 91 % 14.53 C
2759 12-06-2019 13:50:00 16.2 C 92 % 14.9 C
2760 12-06-2019 13:55:00 16.3 C 88 % 14.31 C
2761 12-06-2019 14:00:00 16.4 C 89 % 14.58 C
2762 12-06-2019 14:05:00 16.7 C 89 % 14.88 C
2763 12-06-2019 14:10:00 16.8 C 87 % 14.62 C
2764 12-06-2019 14:15:00 16.8 C 86 % 14.45 C
2765 12-06-2019 14:20:00 17.1 C 88 % 15.1 C
2766 12-06-2019 14:25:00 17.2 C 86 % 14.84 C
2767 12-06-2019 14:30:00 17.4 C 83 % 14.48 C
2768 12-06-2019 14:35:00 17.6 C 79 % 13.92 C
2769 12-06-2019 14:40:00 17.7 C 80 % 14.21 C
2770 12-06-2019 14:45:00 17.7 C 80 % 14.21 C
2771 12-06-2019 14:50:00 17.5 C 79 % 13.82 C
2772 12-06-2019 14:55:00 17.2 C 81 % 13.91 C
2773 12-06-2019 15:00:00 17.1 C 82 % 14 C
2774 12-06-2019 15:05:00 17.1 C 83 % 14.19 C
2775 12-06-2019 15:10:00 17.3 C 81 % 14.01 C
Sensor: Nr:Datum:Temp:Feuchte:Taupunkt:
Aussen-T/F 2776 12-06-2019 15:15:00 17.7 C 80 % 14.21 C
2777 12-06-2019 15:20:00 18.1 C 83 % 15.17 C
2778 12-06-2019 15:25:00 18.3 C 79 % 14.6 C
2779 12-06-2019 15:30:00 18.7 C 77 % 14.59 C
2780 12-06-2019 15:35:00 19 C 77 % 14.88 C
2781 12-06-2019 15:40:00 19 C 72 % 13.84 C
2782 12-06-2019 15:45:00 18.9 C 72 % 13.74 C
2783 12-06-2019 15:50:00 18.6 C 75 % 14.08 C
2784 12-06-2019 15:55:00 18.6 C 74 % 13.88 C
2785 12-06-2019 16:00:00 19.1 C 70 % 13.5 C
2786 12-06-2019 16:05:00 19.5 C 70 % 13.89 C
2787 12-06-2019 16:10:00 19.8 C 69 % 13.95 C
2788 12-06-2019 16:15:00 20.1 C 67 % 13.78 C
2789 12-06-2019 16:20:00 20.1 C 66 % 13.55 C
2790 12-06-2019 16:25:00 20.2 C 66 % 13.65 C
2791 12-06-2019 16:30:00 20.5 C 64 % 13.46 C
2792 12-06-2019 16:35:00 20.3 C 65 % 13.51 C
2793 12-06-2019 16:40:00 20.1 C 67 % 13.78 C
2794 12-06-2019 16:45:00 20.2 C 66 % 13.65 C
2795 12-06-2019 16:50:00 20.7 C 65 % 13.89 C
2796 12-06-2019 16:55:00 20.9 C 64 % 13.84 C
2797 12-06-2019 17:00:00 21.3 C 61 % 13.48 C
2798 12-06-2019 17:05:00 21.4 C 64 % 14.31 C
2799 12-06-2019 17:10:00 21.7 C 60 % 13.6 C
2800 12-06-2019 17:15:00 21.8 C 62 % 14.2 C
Sensor: Nr:Datum:Temp:Feuchte:Taupunkt:
Aussen-T/F 2801 12-06-2019 17:20:00 21.9 C 62 % 14.29 C
2802 12-06-2019 17:25:00 22.1 C 58 % 13.45 C
2803 12-06-2019 17:30:00 22.1 C 57 % 13.19 C
2804 12-06-2019 17:35:00 22.1 C 54 % 12.36 C
2805 12-06-2019 17:40:00 22 C 58 % 13.36 C
2806 12-06-2019 17:45:00 21.9 C 55 % 12.46 C
2807 12-06-2019 17:50:00 21.7 C 58 % 13.08 C
2808 12-06-2019 17:55:00 21.8 C 59 % 13.44 C
2809 12-06-2019 18:00:00 22 C 58 % 13.36 C
2810 12-06-2019 18:05:00 22.3 C 59 % 13.9 C
2811 12-06-2019 18:10:00 22.3 C 53 % 12.26 C
2812 12-06-2019 18:15:00 22.4 C 56 % 13.2 C
2813 12-06-2019 18:20:00 22.7 C 55 % 13.2 C
2814 12-06-2019 18:25:00 22.9 C 53 % 12.82 C
2815 12-06-2019 18:30:00 23.1 C 54 % 13.29 C
2816 12-06-2019 18:35:00 23 C 52 % 12.62 C
2817 12-06-2019 18:40:00 22.9 C 52 % 12.53 C
2818 12-06-2019 18:45:00 22.8 C 53 % 12.73 C
2819 12-06-2019 18:50:00 22.7 C 52 % 12.34 C
2820 12-06-2019 18:55:00 22.6 C 50 % 11.66 C
2821 12-06-2019 19:00:00 22.4 C 52 % 12.07 C
2822 12-06-2019 19:05:00 22.3 C 51 % 11.68 C
2823 12-06-2019 19:10:00 22.2 C 52 % 11.88 C
2824 12-06-2019 19:15:00 22.3 C 52 % 11.97 C
2825 12-06-2019 19:20:00 22.3 C 51 % 11.68 C
Sensor: Nr:Datum:Temp:Feuchte:Taupunkt:
Aussen-T/F 2826 12-06-2019 19:25:00 22.1 C 54 % 12.36 C
2827 12-06-2019 19:30:00 21.9 C 52 % 11.61 C
2828 12-06-2019 19:35:00 21.7 C 53 % 11.71 C
2829 12-06-2019 19:40:00 21.7 C 54 % 11.99 C
2830 12-06-2019 19:45:00 21.4 C 55 % 11.99 C
2831 12-06-2019 19:50:00 21.4 C 55 % 11.99 C
2832 12-06-2019 19:55:00 21.4 C 56 % 12.27 C
2833 12-06-2019 20:00:00 21.3 C 55 % 11.9 C
2834 12-06-2019 20:05:00 21.2 C 55 % 11.81 C
2835 12-06-2019 20:10:00 21.3 C 55 % 11.9 C
2836 12-06-2019 20:15:00 21.4 C 65 % 14.55 C
2837 12-06-2019 20:20:00 21.5 C 60 % 13.41 C
2838 12-06-2019 20:25:00 21.6 C 66 % 14.98 C
2839 12-06-2019 20:30:00 21.5 C 63 % 14.16 C
2840 12-06-2019 20:35:00 21.4 C 65 % 14.55 C
2841 12-06-2019 20:40:00 21.3 C 67 % 14.93 C
2842 12-06-2019 20:45:00 21.1 C 67 % 14.74 C
2843 12-06-2019 20:50:00 20.8 C 67 % 14.45 C
2844 12-06-2019 20:55:00 20.4 C 69 % 14.52 C
2845 12-06-2019 21:00:00 20 C 69 % 14.14 C
2846 12-06-2019 21:05:00 19.6 C 70 % 13.98 C
2847 12-06-2019 21:10:00 19.2 C 71 % 13.82 C
2848 12-06-2019 21:15:00 18.8 C 72 % 13.65 C
2849 12-06-2019 21:20:00 18.3 C 73 % 13.38 C
2850 12-06-2019 21:25:00 17.9 C 73 % 12.99 C
Sensor: Nr:Datum:Temp:Feuchte:Taupunkt:
Aussen-T/F 2851 12-06-2019 21:30:00 17.6 C 74 % 12.91 C
2852 12-06-2019 21:35:00 17.2 C 76 % 12.94 C
2853 12-06-2019 21:40:00 16.9 C 77 % 12.84 C
2854 12-06-2019 21:45:00 16.5 C 79 % 12.85 C
2855 12-06-2019 21:50:00 16.2 C 80 % 12.75 C
2856 12-06-2019 21:55:00 15.8 C 80 % 12.36 C
2857 12-06-2019 22:00:00 15.5 C 81 % 12.26 C
2858 12-06-2019 22:05:00 15.2 C 82 % 12.15 C
2859 12-06-2019 22:10:00 14.9 C 83 % 12.04 C
2860 12-06-2019 22:15:00 14.7 C 83 % 11.85 C
2861 12-06-2019 22:20:00 14.6 C 84 % 11.93 C
2862 12-06-2019 22:25:00 14.4 C 85 % 11.91 C
2863 12-06-2019 22:30:00 14.2 C 85 % 11.72 C
2864 12-06-2019 22:35:00 14.1 C 86 % 11.8 C
2865 12-06-2019 22:40:00 13.9 C 86 % 11.6 C
2866 12-06-2019 22:45:00 13.8 C 87 % 11.68 C
2867 12-06-2019 22:50:00 13.7 C 87 % 11.58 C
2868 12-06-2019 22:55:00 13.6 C 88 % 11.65 C
2869 12-06-2019 23:00:00 13.6 C 88 % 11.65 C
2870 12-06-2019 23:05:00 13.5 C 88 % 11.55 C
2871 12-06-2019 23:10:00 13.4 C 88 % 11.45 C
2872 12-06-2019 23:15:00 13.3 C 88 % 11.36 C
2873 12-06-2019 23:20:00 13.2 C 88 % 11.26 C
2874 12-06-2019 23:25:00 13.2 C 88 % 11.26 C
2875 12-06-2019 23:30:00 13.1 C 88 % 11.16 C
Sensor: Nr:Datum:Temp:Feuchte:Taupunkt:
Aussen-T/F 2876 12-06-2019 23:35:00 13.1 C 89 % 11.33 C
2877 12-06-2019 23:40:00 13 C 88 % 11.06 C
2878 12-06-2019 23:45:00 12.9 C 88 % 10.96 C
2879 12-06-2019 23:50:00 12.8 C 89 % 11.03 C
2880 12-06-2019 23:55:00 12.8 C 89 % 11.03 C
2881 13-06-2019 00:00:00 12.8 C 89 % 11.03 C
2882 13-06-2019 00:05:00 12.7 C 89 % 10.94 C
2883 13-06-2019 00:10:00 12.7 C 89 % 10.94 C
2884 13-06-2019 00:15:00 12.7 C 89 % 10.94 C
2885 13-06-2019 00:20:00 12.6 C 89 % 10.84 C
2886 13-06-2019 00:25:00 12.6 C 90 % 11 C
2887 13-06-2019 00:30:00 12.6 C 90 % 11 C
2888 13-06-2019 00:35:00 12.6 C 90 % 11 C
2889 13-06-2019 00:40:00 12.5 C 90 % 10.91 C
2890 13-06-2019 00:45:00 12.4 C 90 % 10.81 C
2891 13-06-2019 00:50:00 12.3 C 90 % 10.71 C
2892 13-06-2019 00:55:00 12.2 C 90 % 10.61 C
2893 13-06-2019 01:00:00 12.2 C 90 % 10.61 C
2894 13-06-2019 01:05:00 12.1 C 90 % 10.51 C
2895 13-06-2019 01:10:00 11.9 C 90 % 10.31 C
2896 13-06-2019 01:15:00 11.8 C 90 % 10.21 C
2897 13-06-2019 01:20:00 11.8 C 91 % 10.38 C
2898 13-06-2019 01:25:00 11.7 C 91 % 10.28 C
2899 13-06-2019 01:30:00 11.6 C 91 % 10.18 C
2900 13-06-2019 01:35:00 11.6 C 91 % 10.18 C
Sensor: Nr:Datum:Temp:Feuchte:Taupunkt:
Aussen-T/F 2901 13-06-2019 01:40:00 11.5 C 91 % 10.08 C
2902 13-06-2019 01:45:00 11.4 C 91 % 9.98 C
2903 13-06-2019 01:50:00 11.3 C 91 % 9.89 C
2904 13-06-2019 01:55:00 11.3 C 92 % 10.05 C
2905 13-06-2019 02:00:00 11.2 C 92 % 9.95 C
2906 13-06-2019 02:05:00 11.2 C 92 % 9.95 C
2907 13-06-2019 02:10:00 11.1 C 92 % 9.85 C
2908 13-06-2019 02:15:00 11.1 C 92 % 9.85 C
2909 13-06-2019 02:20:00 10.9 C 92 % 9.65 C
2910 13-06-2019 02:25:00 10.9 C 92 % 9.65 C
2911 13-06-2019 02:30:00 10.8 C 92 % 9.55 C
2912 13-06-2019 02:35:00 10.8 C 93 % 9.71 C
2913 13-06-2019 02:40:00 10.8 C 93 % 9.71 C
2914 13-06-2019 02:45:00 10.7 C 93 % 9.62 C
2915 13-06-2019 02:50:00 10.7 C 93 % 9.62 C
2916 13-06-2019 02:55:00 10.6 C 93 % 9.52 C
2917 13-06-2019 03:00:00 10.6 C 93 % 9.52 C
2918 13-06-2019 03:05:00 10.5 C 93 % 9.42 C
2919 13-06-2019 03:10:00 10.4 C 93 % 9.32 C
2920 13-06-2019 03:15:00 10.4 C 93 % 9.32 C
2921 13-06-2019 03:20:00 10.4 C 93 % 9.32 C
2922 13-06-2019 03:25:00 10.3 C 94 % 9.38 C
2923 13-06-2019 03:30:00 10.3 C 94 % 9.38 C
2924 13-06-2019 03:35:00 10.2 C 94 % 9.28 C
2925 13-06-2019 03:40:00 10.2 C 94 % 9.28 C
Sensor: Nr:Datum:Temp:Feuchte:Taupunkt:
Aussen-T/F 2926 13-06-2019 03:45:00 10.1 C 94 % 9.18 C
2927 13-06-2019 03:50:00 10.1 C 94 % 9.18 C
2928 13-06-2019 03:55:00 10 C 94 % 9.08 C
2929 13-06-2019 04:00:00 9.9 C 94 % 8.98 C
2930 13-06-2019 04:05:00 9.9 C 94 % 8.98 C
2931 13-06-2019 04:10:00 9.9 C 94 % 8.98 C
2932 13-06-2019 04:15:00 9.8 C 94 % 8.88 C
2933 13-06-2019 04:20:00 9.8 C 94 % 8.88 C
2934 13-06-2019 04:25:00 9.8 C 94 % 8.88 C
2935 13-06-2019 04:30:00 9.8 C 94 % 8.88 C
2936 13-06-2019 04:35:00 9.8 C 94 % 8.88 C
2937 13-06-2019 04:40:00 9.7 C 94 % 8.78 C
2938 13-06-2019 04:45:00 9.7 C 94 % 8.78 C
2939 13-06-2019 04:50:00 9.6 C 94 % 8.68 C
2940 13-06-2019 04:55:00 9.6 C 94 % 8.68 C
2941 13-06-2019 05:00:00 9.6 C 94 % 8.68 C
2942 13-06-2019 05:05:00 9.5 C 95 % 8.74 C
2943 13-06-2019 05:10:00 9.5 C 95 % 8.74 C
2944 13-06-2019 05:15:00 9.5 C 95 % 8.74 C
2945 13-06-2019 05:20:00 9.5 C 95 % 8.74 C
2946 13-06-2019 05:25:00 9.5 C 95 % 8.74 C
2947 13-06-2019 05:30:00 9.4 C 95 % 8.64 C
2948 13-06-2019 05:35:00 9.4 C 95 % 8.64 C
2949 13-06-2019 05:40:00 9.4 C 95 % 8.64 C
2950 13-06-2019 05:45:00 9.4 C 95 % 8.64 C
Sensor: Nr:Datum:Temp:Feuchte:Taupunkt:
Aussen-T/F 2951 13-06-2019 05:50:00 9.4 C 95 % 8.64 C
2952 13-06-2019 05:55:00 9.4 C 95 % 8.64 C
2953 13-06-2019 06:00:00 9.4 C 95 % 8.64 C
2954 13-06-2019 06:05:00 9.4 C 95 % 8.64 C
2955 13-06-2019 06:10:00 9.4 C 95 % 8.64 C
2956 13-06-2019 06:15:00 9.4 C 95 % 8.64 C
2957 13-06-2019 06:20:00 9.4 C 95 % 8.64 C
2958 13-06-2019 06:25:00 9.4 C 95 % 8.64 C
2959 13-06-2019 06:30:00 9.5 C 95 % 8.74 C
2960 13-06-2019 06:35:00 9.5 C 95 % 8.74 C
2961 13-06-2019 06:40:00 9.6 C 96 % 8.99 C
2962 13-06-2019 06:45:00 9.6 C 96 % 8.99 C
2963 13-06-2019 06:50:00 9.7 C 96 % 9.09 C
2964 13-06-2019 06:55:00 9.8 C 96 % 9.19 C
2965 13-06-2019 07:00:00 9.8 C 96 % 9.19 C
2966 13-06-2019 07:05:00 9.9 C 96 % 9.29 C
2967 13-06-2019 07:10:00 10 C 96 % 9.39 C
2968 13-06-2019 07:15:00 10.1 C 96 % 9.49 C
2969 13-06-2019 07:20:00 10.2 C 96 % 9.59 C
2970 13-06-2019 07:25:00 10.3 C 96 % 9.69 C
2971 13-06-2019 07:30:00 10.3 C 96 % 9.69 C
2972 13-06-2019 07:35:00 10.4 C 96 % 9.79 C
2973 13-06-2019 07:40:00 10.6 C 96 % 9.99 C
2974 13-06-2019 07:45:00 10.7 C 96 % 10.09 C
2975 13-06-2019 07:50:00 10.7 C 96 % 10.09 C
Sensor: Nr:Datum:Temp:Feuchte:Taupunkt:
Aussen-T/F 2976 13-06-2019 07:55:00 10.8 C 96 % 10.19 C
2977 13-06-2019 08:00:00 10.9 C 96 % 10.29 C
2978 13-06-2019 08:05:00 11.1 C 96 % 10.49 C
2979 13-06-2019 08:10:00 11.2 C 96 % 10.59 C
2980 13-06-2019 08:15:00 11.4 C 96 % 10.79 C
2981 13-06-2019 08:20:00 11.6 C 96 % 10.98 C
2982 13-06-2019 08:25:00 11.7 C 96 % 11.08 C
2983 13-06-2019 08:30:00 11.8 C 96 % 11.18 C
2984 13-06-2019 08:35:00 11.9 C 96 % 11.28 C
2985 13-06-2019 08:40:00 12.1 C 96 % 11.48 C
2986 13-06-2019 08:45:00 12.2 C 95 % 11.42 C
2987 13-06-2019 08:50:00 12.4 C 95 % 11.62 C
2988 13-06-2019 08:55:00 12.7 C 94 % 11.76 C
2989 13-06-2019 09:00:00 12.9 C 93 % 11.8 C
2990 13-06-2019 09:05:00 13.2 C 92 % 11.93 C
2991 13-06-2019 09:10:00 13.7 C 85 % 11.23 C
2992 13-06-2019 09:15:00 14.4 C 82 % 11.37 C
2993 13-06-2019 09:20:00 15 C 80 % 11.58 C
2994 13-06-2019 09:25:00 15.3 C 80 % 11.87 C
2995 13-06-2019 09:30:00 15.6 C 75 % 11.19 C
2996 13-06-2019 09:35:00 15.9 C 74 % 11.28 C
2997 13-06-2019 09:40:00 16.2 C 73 % 11.36 C
2998 13-06-2019 09:45:00 16.4 C 73 % 11.55 C
2999 13-06-2019 09:50:00 16.6 C 71 % 11.32 C
3000 13-06-2019 09:55:00 16.7 C 71 % 11.42 C
Sensor: Nr:Datum:Temp:Feuchte:Taupunkt:
Aussen-T/F 3001 13-06-2019 10:00:00 16.8 C 70 % 11.3 C
3002 13-06-2019 10:05:00 17.1 C 67 % 10.93 C
3003 13-06-2019 10:10:00 17.3 C 67 % 11.12 C
3004 13-06-2019 10:15:00 17.4 C 70 % 11.88 C
3005 13-06-2019 10:20:00 17.7 C 67 % 11.5 C
3006 13-06-2019 10:25:00 18 C 65 % 11.33 C
3007 13-06-2019 10:30:00 18.2 C 62 % 10.81 C
3008 13-06-2019 10:35:00 18.3 C 64 % 11.38 C
3009 13-06-2019 10:40:00 18.4 C 64 % 11.47 C
3010 13-06-2019 10:45:00 18.7 C 62 % 11.28 C
3011 13-06-2019 10:50:00 18.6 C 61 % 10.94 C
3012 13-06-2019 10:55:00 18.5 C 62 % 11.09 C
3013 13-06-2019 11:00:00 18.7 C 62 % 11.28 C
3014 13-06-2019 11:05:00 18.8 C 63 % 11.61 C
3015 13-06-2019 11:10:00 18.8 C 60 % 10.88 C
3016 13-06-2019 11:15:00 18.8 C 61 % 11.13 C
3017 13-06-2019 11:20:00 18.8 C 61 % 11.13 C
3018 13-06-2019 11:25:00 18.8 C 61 % 11.13 C
3019 13-06-2019 11:30:00 19 C 61 % 11.31 C
3020 13-06-2019 11:35:00 19.3 C 60 % 11.35 C
3021 13-06-2019 11:40:00 19.6 C 61 % 11.88 C
3022 13-06-2019 11:45:00 19.7 C 61 % 11.97 C
3023 13-06-2019 11:50:00 19.7 C 59 % 11.47 C
3024 13-06-2019 11:55:00 19.8 C 60 % 11.82 C
3025 13-06-2019 12:00:00 19.8 C 59 % 11.56 C
Sensor: Nr:Datum:Temp:Feuchte:Taupunkt:
Aussen-T/F 3026 13-06-2019 12:05:00 19.7 C 57 % 10.95 C
3027 13-06-2019 12:10:00 19.4 C 58 % 10.93 C
3028 13-06-2019 12:15:00 19.3 C 57 % 10.58 C
3029 13-06-2019 12:20:00 19.2 C 58 % 10.74 C
3030 13-06-2019 12:25:00 19.2 C 59 % 11 C
3031 13-06-2019 12:30:00 19.2 C 56 % 10.22 C
3032 13-06-2019 12:35:00 19.3 C 55 % 10.04 C
3033 13-06-2019 12:40:00 19.3 C 55 % 10.04 C
3034 13-06-2019 12:45:00 19.3 C 57 % 10.58 C
3035 13-06-2019 12:50:00 19.5 C 57 % 10.76 C
3036 13-06-2019 12:55:00 19.8 C 56 % 10.78 C
3037 13-06-2019 13:00:00 20.1 C 54 % 10.51 C
3038 13-06-2019 13:05:00 20.3 C 57 % 11.51 C
3039 13-06-2019 13:10:00 20.4 C 54 % 10.79 C
3040 13-06-2019 13:15:00 20.7 C 53 % 10.78 C
3041 13-06-2019 13:20:00 20.9 C 54 % 11.25 C
3042 13-06-2019 13:25:00 21.1 C 53 % 11.15 C
3043 13-06-2019 13:30:00 21.1 C 53 % 11.15 C
3044 13-06-2019 13:35:00 21.2 C 55 % 11.81 C
3045 13-06-2019 13:40:00 21.2 C 49 % 10.07 C
3046 13-06-2019 13:45:00 21.1 C 50 % 10.28 C
3047 13-06-2019 13:50:00 21.2 C 53 % 11.25 C
3048 13-06-2019 13:55:00 21.2 C 55 % 11.81 C
3049 13-06-2019 14:00:00 21.3 C 50 % 10.46 C
3050 13-06-2019 14:05:00 21.5 C 52 % 11.24 C
Sensor: Nr:Datum:Temp:Feuchte:Taupunkt:
Aussen-T/F 3051 13-06-2019 14:10:00 21.6 C 50 % 10.74 C
3052 13-06-2019 14:15:00 21.3 C 50 % 10.46 C
3053 13-06-2019 14:20:00 21 C 52 % 10.78 C
3054 13-06-2019 14:25:00 20.7 C 53 % 10.78 C
3055 13-06-2019 14:30:00 20.7 C 54 % 11.07 C
3056 13-06-2019 14:35:00 21.1 C 52 % 10.87 C
3057 13-06-2019 14:40:00 21.4 C 50 % 10.55 C
3058 13-06-2019 14:45:00 21.5 C 49 % 10.34 C
3059 13-06-2019 14:50:00 21.6 C 52 % 11.33 C
3060 13-06-2019 14:55:00 21.5 C 50 % 10.65 C
3061 13-06-2019 15:00:00 21.3 C 53 % 11.34 C
3062 13-06-2019 15:05:00 21.4 C 53 % 11.43 C
3063 13-06-2019 15:10:00 21.7 C 52 % 11.42 C
3064 13-06-2019 15:15:00 22 C 48 % 10.49 C
3065 13-06-2019 15:20:00 22.1 C 47 % 10.27 C
3066 13-06-2019 15:25:00 22.4 C 46 % 10.22 C
3067 13-06-2019 15:30:00 22.3 C 47 % 10.45 C
3068 13-06-2019 15:35:00 22.2 C 46 % 10.04 C
3069 13-06-2019 15:40:00 21.9 C 49 % 10.71 C
3070 13-06-2019 15:45:00 22.4 C 48 % 10.86 C
3071 13-06-2019 15:50:00 22.8 C 46 % 10.58 C
3072 13-06-2019 15:55:00 23.1 C 49 % 11.81 C
3073 13-06-2019 16:00:00 23.5 C 45 % 10.89 C
3074 13-06-2019 16:05:00 23.7 C 43 % 10.39 C
3075 13-06-2019 16:10:00 23.4 C 41 % 9.41 C
Sensor: Nr:Datum:Temp:Feuchte:Taupunkt:
Aussen-T/F 3076 13-06-2019 16:15:00 23.6 C 44 % 10.64 C
3077 13-06-2019 16:20:00 23.7 C 42 % 10.03 C
3078 13-06-2019 16:25:00 23.9 C 43 % 10.57 C
3079 13-06-2019 16:30:00 24.3 C 42 % 10.57 C
3080 13-06-2019 16:35:00 24.2 C 41 % 10.12 C
3081 13-06-2019 16:40:00 24.2 C 40 % 9.75 C
3082 13-06-2019 16:45:00 23.9 C 43 % 10.57 C
3083 13-06-2019 16:50:00 23.9 C 41 % 9.85 C
3084 13-06-2019 16:55:00 24 C 42 % 10.3 C
3085 13-06-2019 17:00:00 24.2 C 43 % 10.84 C
3086 13-06-2019 17:05:00 24.4 C 43 % 11.02 C
3087 13-06-2019 17:10:00 24.6 C 42 % 10.84 C
3088 13-06-2019 17:15:00 24.5 C 42 % 10.75 C
3089 13-06-2019 17:20:00 24.5 C 42 % 10.75 C
3090 13-06-2019 17:25:00 24.4 C 39 % 9.56 C
3091 13-06-2019 17:30:00 23.9 C 43 % 10.57 C
3092 13-06-2019 17:35:00 23.9 C 42 % 10.21 C
3093 13-06-2019 17:40:00 24.3 C 41 % 10.21 C
3094 13-06-2019 17:45:00 24.6 C 42 % 10.84 C
3095 13-06-2019 17:50:00 24.8 C 40 % 10.29 C
3096 13-06-2019 17:55:00 24.9 C 40 % 10.38 C
3097 13-06-2019 18:00:00 24.9 C 38 % 9.61 C
3098 13-06-2019 18:05:00 24.8 C 42 % 11.02 C
3099 13-06-2019 18:10:00 24.9 C 41 % 10.75 C
3100 13-06-2019 18:15:00 24.8 C 41 % 10.66 C
Sensor: Nr:Datum:Temp:Feuchte:Taupunkt:
Aussen-T/F 3101 13-06-2019 18:20:00 24.7 C 41 % 10.57 C
3102 13-06-2019 18:25:00 24.7 C 40 % 10.2 C
3103 13-06-2019 18:30:00 24.8 C 41 % 10.66 C
3104 13-06-2019 18:35:00 24.4 C 42 % 10.66 C
3105 13-06-2019 18:40:00 23.9 C 47 % 11.91 C
3106 13-06-2019 18:45:00 23.4 C 48 % 11.77 C
3107 13-06-2019 18:50:00 23.3 C 45 % 10.71 C
3108 13-06-2019 18:55:00 23.3 C 51 % 12.6 C
3109 13-06-2019 19:00:00 23.2 C 50 % 12.21 C
3110 13-06-2019 19:05:00 22.9 C 53 % 12.82 C
3111 13-06-2019 19:10:00 22.7 C 56 % 13.47 C
3112 13-06-2019 19:15:00 22.4 C 60 % 14.26 C
3113 13-06-2019 19:20:00 22.2 C 60 % 14.07 C
3114 13-06-2019 19:25:00 21.8 C 62 % 14.2 C
3115 13-06-2019 19:30:00 21.2 C 59 % 12.87 C
3116 13-06-2019 19:35:00 19.8 C 63 % 12.56 C
3117 13-06-2019 19:40:00 18.4 C 75 % 13.89 C
3118 13-06-2019 19:45:00 17.4 C 79 % 13.72 C
3119 13-06-2019 19:50:00 16.7 C 82 % 13.61 C
3120 13-06-2019 19:55:00 16.2 C 85 % 13.68 C
3121 13-06-2019 20:00:00 15.8 C 86 % 13.46 C
3122 13-06-2019 20:05:00 15.6 C 87 % 13.45 C
3123 13-06-2019 20:10:00 15.4 C 89 % 13.6 C
3124 13-06-2019 20:15:00 15.4 C 89 % 13.6 C
3125 13-06-2019 20:20:00 15.6 C 91 % 14.14 C
Sensor: Nr:Datum:Temp:Feuchte:Taupunkt:
Aussen-T/F 3126 13-06-2019 20:25:00 15.9 C 92 % 14.6 C
3127 13-06-2019 20:30:00 16.1 C 91 % 14.63 C
3128 13-06-2019 20:35:00 16.3 C 91 % 14.83 C
3129 13-06-2019 20:40:00 16.4 C 90 % 14.76 C
3130 13-06-2019 20:45:00 16.4 C 90 % 14.76 C
3131 13-06-2019 20:50:00 16.4 C 89 % 14.58 C
3132 13-06-2019 20:55:00 16.4 C 89 % 14.58 C
3133 13-06-2019 21:00:00 16.3 C 89 % 14.48 C
3134 13-06-2019 21:05:00 16.2 C 89 % 14.39 C
3135 13-06-2019 21:10:00 15.9 C 88 % 13.92 C
3136 13-06-2019 21:15:00 15.7 C 89 % 13.89 C
3137 13-06-2019 21:20:00 15.5 C 89 % 13.7 C
3138 13-06-2019 21:25:00 15.2 C 89 % 13.4 C
3139 13-06-2019 21:30:00 15 C 89 % 13.2 C
3140 13-06-2019 21:35:00 14.8 C 89 % 13.01 C
3141 13-06-2019 21:40:00 14.5 C 89 % 12.71 C
3142 13-06-2019 21:45:00 14.3 C 89 % 12.51 C
3143 13-06-2019 21:50:00 14.1 C 89 % 12.32 C
3144 13-06-2019 21:55:00 13.9 C 90 % 12.29 C
3145 13-06-2019 22:00:00 13.7 C 90 % 12.09 C
3146 13-06-2019 22:05:00 13.7 C 91 % 12.26 C
3147 13-06-2019 22:10:00 13.5 C 91 % 12.06 C
3148 13-06-2019 22:15:00 13.4 C 91 % 11.96 C
3149 13-06-2019 22:20:00 13.3 C 91 % 11.86 C
3150 13-06-2019 22:25:00 13.2 C 92 % 11.93 C
Sensor: Nr:Datum:Temp:Feuchte:Taupunkt:
Aussen-T/F 3151 13-06-2019 22:30:00 13.2 C 92 % 11.93 C
3152 13-06-2019 22:35:00 13.1 C 92 % 11.83 C
3153 13-06-2019 22:40:00 13 C 92 % 11.73 C
3154 13-06-2019 22:45:00 12.9 C 92 % 11.63 C
3155 13-06-2019 22:50:00 12.8 C 93 % 11.7 C
3156 13-06-2019 22:55:00 12.8 C 93 % 11.7 C
3157 13-06-2019 23:00:00 12.8 C 93 % 11.7 C
3158 13-06-2019 23:05:00 12.8 C 93 % 11.7 C
3159 13-06-2019 23:10:00 12.8 C 94 % 11.86 C
3160 13-06-2019 23:15:00 12.8 C 94 % 11.86 C
3161 13-06-2019 23:20:00 12.9 C 94 % 11.96 C
3162 13-06-2019 23:25:00 12.9 C 94 % 11.96 C
3163 13-06-2019 23:30:00 12.9 C 94 % 11.96 C
3164 13-06-2019 23:35:00 12.9 C 94 % 11.96 C
3165 13-06-2019 23:40:00 12.8 C 94 % 11.86 C
3166 13-06-2019 23:45:00 12.7 C 94 % 11.76 C
3167 13-06-2019 23:50:00 12.6 C 94 % 11.66 C
3168 13-06-2019 23:55:00 12.5 C 94 % 11.56 C
3169 14-06-2019 00:00:00 12.4 C 94 % 11.46 C
3170 14-06-2019 00:05:00 12.4 C 94 % 11.46 C
3171 14-06-2019 00:10:00 12.3 C 94 % 11.36 C
3172 14-06-2019 00:15:00 12.2 C 94 % 11.26 C
3173 14-06-2019 00:20:00 12.2 C 94 % 11.26 C
3174 14-06-2019 00:25:00 12.1 C 94 % 11.16 C
3175 14-06-2019 00:30:00 12 C 94 % 11.07 C
Sensor: Nr:Datum:Temp:Feuchte:Taupunkt:
Aussen-T/F 3176 14-06-2019 00:35:00 11.9 C 94 % 10.97 C
3177 14-06-2019 00:40:00 11.9 C 94 % 10.97 C
3178 14-06-2019 00:45:00 11.8 C 94 % 10.87 C
3179 14-06-2019 00:50:00 11.8 C 95 % 11.03 C
3180 14-06-2019 00:55:00 11.8 C 95 % 11.03 C
3181 14-06-2019 01:00:00 11.7 C 95 % 10.93 C
3182 14-06-2019 01:05:00 11.7 C 95 % 10.93 C
3183 14-06-2019 01:10:00 11.7 C 95 % 10.93 C
3184 14-06-2019 01:15:00 11.7 C 95 % 10.93 C
3185 14-06-2019 01:20:00 11.7 C 95 % 10.93 C
3186 14-06-2019 01:25:00 11.7 C 95 % 10.93 C
3187 14-06-2019 01:30:00 11.8 C 95 % 11.03 C
3188 14-06-2019 01:35:00 11.8 C 95 % 11.03 C
3189 14-06-2019 01:40:00 11.7 C 95 % 10.93 C
3190 14-06-2019 01:45:00 11.7 C 95 % 10.93 C
3191 14-06-2019 01:50:00 11.8 C 96 % 11.18 C
3192 14-06-2019 01:55:00 11.8 C 96 % 11.18 C
3193 14-06-2019 02:00:00 11.9 C 96 % 11.28 C
3194 14-06-2019 02:05:00 11.9 C 96 % 11.28 C
3195 14-06-2019 02:10:00 12 C 96 % 11.38 C
3196 14-06-2019 02:15:00 12.1 C 96 % 11.48 C
3197 14-06-2019 02:20:00 12.2 C 96 % 11.58 C
3198 14-06-2019 02:25:00 12.2 C 96 % 11.58 C
3199 14-06-2019 02:30:00 12.3 C 96 % 11.68 C
3200 14-06-2019 02:35:00 12.3 C 96 % 11.68 C
Sensor: Nr:Datum:Temp:Feuchte:Taupunkt:
Aussen-T/F 3201 14-06-2019 02:40:00 12.3 C 96 % 11.68 C
3202 14-06-2019 02:45:00 12.3 C 96 % 11.68 C
3203 14-06-2019 02:50:00 12.3 C 96 % 11.68 C
3204 14-06-2019 02:55:00 12.2 C 96 % 11.58 C
3205 14-06-2019 03:00:00 12.1 C 96 % 11.48 C
3206 14-06-2019 03:05:00 12.1 C 96 % 11.48 C
3207 14-06-2019 03:10:00 12 C 96 % 11.38 C
3208 14-06-2019 03:15:00 12.1 C 96 % 11.48 C
3209 14-06-2019 03:20:00 12.1 C 96 % 11.48 C
3210 14-06-2019 03:25:00 12.1 C 96 % 11.48 C
3211 14-06-2019 03:30:00 12.1 C 96 % 11.48 C
3212 14-06-2019 03:35:00 12 C 96 % 11.38 C
3213 14-06-2019 03:40:00 12 C 96 % 11.38 C
3214 14-06-2019 03:45:00 11.9 C 96 % 11.28 C
3215 14-06-2019 03:50:00 11.8 C 96 % 11.18 C
3216 14-06-2019 03:55:00 11.8 C 96 % 11.18 C
3217 14-06-2019 04:00:00 11.7 C 96 % 11.08 C
3218 14-06-2019 04:05:00 11.6 C 96 % 10.98 C
3219 14-06-2019 04:10:00 11.6 C 96 % 10.98 C
3220 14-06-2019 04:15:00 11.5 C 96 % 10.88 C
3221 14-06-2019 04:20:00 11.5 C 96 % 10.88 C
3222 14-06-2019 04:25:00 11.6 C 96 % 10.98 C
3223 14-06-2019 04:30:00 11.6 C 96 % 10.98 C
3224 14-06-2019 04:35:00 11.6 C 96 % 10.98 C
3225 14-06-2019 04:40:00 11.6 C 96 % 10.98 C
Sensor: Nr:Datum:Temp:Feuchte:Taupunkt:
Aussen-T/F 3226 14-06-2019 04:45:00 11.6 C 96 % 10.98 C
3227 14-06-2019 04:50:00 11.6 C 96 % 10.98 C
3228 14-06-2019 04:55:00 11.6 C 96 % 10.98 C
3229 14-06-2019 05:00:00 11.6 C 96 % 10.98 C
3230 14-06-2019 05:05:00 11.6 C 96 % 10.98 C
3231 14-06-2019 05:10:00 11.5 C 96 % 10.88 C
3232 14-06-2019 05:15:00 11.4 C 96 % 10.79 C
3233 14-06-2019 05:20:00 11.4 C 96 % 10.79 C
3234 14-06-2019 05:25:00 11.4 C 96 % 10.79 C
3235 14-06-2019 05:30:00 11.3 C 96 % 10.69 C
3236 14-06-2019 05:35:00 11.4 C 97 % 10.94 C
3237 14-06-2019 05:40:00 11.4 C 97 % 10.94 C
3238 14-06-2019 05:45:00 11.4 C 97 % 10.94 C
3239 14-06-2019 05:50:00 11.3 C 97 % 10.84 C
3240 14-06-2019 05:55:00 11.3 C 97 % 10.84 C
3241 14-06-2019 06:00:00 11.3 C 96 % 10.69 C
3242 14-06-2019 06:05:00 11.4 C 96 % 10.79 C
3243 14-06-2019 06:10:00 11.3 C 97 % 10.84 C
3244 14-06-2019 06:15:00 11.3 C 96 % 10.69 C
3245 14-06-2019 06:20:00 11.3 C 97 % 10.84 C
3246 14-06-2019 06:25:00 11.3 C 97 % 10.84 C
3247 14-06-2019 06:30:00 11.3 C 97 % 10.84 C
3248 14-06-2019 06:35:00 11.4 C 97 % 10.94 C
3249 14-06-2019 06:40:00 11.4 C 97 % 10.94 C
3250 14-06-2019 06:45:00 11.4 C 97 % 10.94 C
Sensor: Nr:Datum:Temp:Feuchte:Taupunkt:
Aussen-T/F 3251 14-06-2019 06:50:00 11.3 C 97 % 10.84 C
3252 14-06-2019 06:55:00 11.3 C 97 % 10.84 C
3253 14-06-2019 07:00:00 11.3 C 97 % 10.84 C
3254 14-06-2019 07:05:00 11.3 C 97 % 10.84 C
3255 14-06-2019 07:10:00 11.3 C 97 % 10.84 C
3256 14-06-2019 07:15:00 11.3 C 97 % 10.84 C
3257 14-06-2019 07:20:00 11.4 C 97 % 10.94 C
3258 14-06-2019 07:25:00 11.4 C 97 % 10.94 C
3259 14-06-2019 07:30:00 11.4 C 97 % 10.94 C
3260 14-06-2019 07:35:00 11.4 C 97 % 10.94 C
3261 14-06-2019 07:40:00 11.5 C 97 % 11.04 C
3262 14-06-2019 07:45:00 11.6 C 97 % 11.14 C
3263 14-06-2019 07:50:00 11.6 C 97 % 11.14 C
3264 14-06-2019 07:55:00 11.7 C 97 % 11.24 C
3265 14-06-2019 08:00:00 11.7 C 97 % 11.24 C
3266 14-06-2019 08:05:00 11.7 C 97 % 11.24 C
3267 14-06-2019 08:10:00 11.8 C 97 % 11.34 C
3268 14-06-2019 08:15:00 11.8 C 97 % 11.34 C
3269 14-06-2019 08:20:00 11.9 C 97 % 11.44 C
3270 14-06-2019 08:25:00 12 C 97 % 11.54 C
3271 14-06-2019 08:30:00 12.1 C 97 % 11.64 C
3272 14-06-2019 08:35:00 12.3 C 97 % 11.84 C
3273 14-06-2019 08:40:00 12.4 C 97 % 11.94 C
3274 14-06-2019 08:45:00 12.6 C 97 % 12.14 C
3275 14-06-2019 08:50:00 12.7 C 97 % 12.24 C
Sensor: Nr:Datum:Temp:Feuchte:Taupunkt:
Aussen-T/F 3276 14-06-2019 08:55:00 12.8 C 97 % 12.34 C
3277 14-06-2019 09:00:00 13.1 C 97 % 12.63 C
3278 14-06-2019 09:05:00 13.2 C 98 % 12.89 C
3279 14-06-2019 09:10:00 13.4 C 98 % 13.09 C
3280 14-06-2019 09:15:00 13.6 C 97 % 13.13 C
3281 14-06-2019 09:20:00 13.8 C 98 % 13.49 C
3282 14-06-2019 09:25:00 14.1 C 98 % 13.79 C
3283 14-06-2019 09:30:00 14.4 C 98 % 14.09 C
3284 14-06-2019 09:35:00 14.7 C 98 % 14.39 C
3285 14-06-2019 09:40:00 15 C 98 % 14.69 C
3286 14-06-2019 09:45:00 15.2 C 98 % 14.89 C
3287 14-06-2019 09:50:00 15.4 C 98 % 15.09 C
3288 14-06-2019 09:55:00 15.6 C 98 % 15.29 C
3289 14-06-2019 10:00:00 15.8 C 98 % 15.48 C
3290 14-06-2019 10:05:00 16.2 C 98 % 15.88 C
3291 14-06-2019 10:10:00 16.4 C 98 % 16.08 C
3292 14-06-2019 10:15:00 16.7 C 98 % 16.38 C
3293 14-06-2019 10:20:00 16.9 C 98 % 16.58 C
3294 14-06-2019 10:25:00 17.2 C 98 % 16.88 C
3295 14-06-2019 10:30:00 17.4 C 98 % 17.08 C
3296 14-06-2019 10:35:00 17.6 C 98 % 17.28 C
3297 14-06-2019 10:40:00 17.7 C 98 % 17.38 C
3298 14-06-2019 10:45:00 17.9 C 98 % 17.58 C
3299 14-06-2019 10:50:00 18 C 98 % 17.68 C
3300 14-06-2019 10:55:00 18.2 C 98 % 17.88 C
Sensor: Nr:Datum:Temp:Feuchte:Taupunkt:
Aussen-T/F 3301 14-06-2019 11:00:00 18.1 C 97 % 17.62 C
3302 14-06-2019 11:05:00 18.1 C 97 % 17.62 C
3303 14-06-2019 11:10:00 18.2 C 97 % 17.72 C
3304 14-06-2019 11:15:00 18.3 C 97 % 17.82 C
3305 14-06-2019 11:20:00 18.3 C 97 % 17.82 C
3306 14-06-2019 11:25:00 18.3 C 96 % 17.65 C
3307 14-06-2019 11:30:00 18.5 C 97 % 18.01 C
3308 14-06-2019 11:35:00 18.7 C 96 % 18.05 C
3309 14-06-2019 11:40:00 18.8 C 96 % 18.15 C
3310 14-06-2019 11:45:00 18.9 C 94 % 17.91 C
3311 14-06-2019 11:50:00 19.4 C 94 % 18.41 C
3312 14-06-2019 11:55:00 19.8 C 94 % 18.81 C
3313 14-06-2019 12:00:00 20 C 92 % 18.66 C
3314 14-06-2019 12:05:00 20.1 C 78 % 16.14 C
3315 14-06-2019 12:10:00 20.7 C 82 % 17.52 C
3316 14-06-2019 12:15:00 21.1 C 73 % 16.07 C
3317 14-06-2019 12:20:00 21.5 C 72 % 16.24 C
3318 14-06-2019 12:25:00 21.7 C 64 % 14.6 C
3319 14-06-2019 12:30:00 22.1 C 74 % 17.25 C
3320 14-06-2019 12:35:00 22.3 C 72 % 17.01 C
3321 14-06-2019 12:40:00 22.3 C 59 % 13.9 C
3322 14-06-2019 12:45:00 22.6 C 66 % 15.93 C
3323 14-06-2019 12:50:00 22.7 C 61 % 14.79 C
3324 14-06-2019 12:55:00 22.8 C 63 % 15.39 C
3325 14-06-2019 13:00:00 23.1 C 69 % 17.1 C
Sensor: Nr:Datum:Temp:Feuchte:Taupunkt:
Aussen-T/F 3326 14-06-2019 13:05:00 23.3 C 63 % 15.86 C
3327 14-06-2019 13:10:00 23.8 C 65 % 16.83 C
3328 14-06-2019 13:15:00 24 C 60 % 15.76 C
3329 14-06-2019 13:20:00 24.1 C 66 % 17.35 C
3330 14-06-2019 13:25:00 24.1 C 52 % 13.63 C
3331 14-06-2019 13:30:00 24.4 C 56 % 15.06 C
3332 14-06-2019 13:35:00 24.7 C 56 % 15.33 C
3333 14-06-2019 13:40:00 24.8 C 48 % 13.05 C
3334 14-06-2019 13:45:00 24.9 C 54 % 14.95 C
3335 14-06-2019 13:50:00 24.9 C 54 % 14.95 C
3336 14-06-2019 13:55:00 25.1 C 48 % 13.32 C
3337 14-06-2019 14:00:00 25.3 C 49 % 13.82 C
3338 14-06-2019 14:05:00 25.6 C 50 % 14.41 C
3339 14-06-2019 14:10:00 25.7 C 50 % 14.5 C
3340 14-06-2019 14:15:00 25.9 C 50 % 14.68 C
3341 14-06-2019 14:20:00 26.1 C 47 % 13.91 C
3342 14-06-2019 14:25:00 26.2 C 48 % 14.32 C
3343 14-06-2019 14:30:00 26.2 C 47 % 14 C
3344 14-06-2019 14:35:00 26.2 C 54 % 16.16 C
3345 14-06-2019 14:40:00 26.2 C 52 % 15.57 C
3346 14-06-2019 14:45:00 26.2 C 50 % 14.96 C
3347 14-06-2019 14:50:00 26.2 C 52 % 15.57 C
3348 14-06-2019 14:55:00 26.2 C 54 % 16.16 C
3349 14-06-2019 15:00:00 26.3 C 57 % 17.1 C
3350 14-06-2019 15:05:00 26.2 C 50 % 14.96 C
Sensor: Nr:Datum:Temp:Feuchte:Taupunkt:
Aussen-T/F 3351 14-06-2019 15:10:00 26.2 C 57 % 17.01 C
3352 14-06-2019 15:15:00 26.3 C 49 % 14.74 C
3353 14-06-2019 15:20:00 26.4 C 53 % 16.05 C
3354 14-06-2019 15:25:00 26.5 C 49 % 14.92 C
3355 14-06-2019 15:30:00 26.4 C 49 % 14.83 C
3356 14-06-2019 15:35:00 26.4 C 45 % 13.51 C
3357 14-06-2019 15:40:00 26.4 C 43 % 12.82 C
3358 14-06-2019 15:45:00 26.4 C 55 % 16.63 C
3359 14-06-2019 15:50:00 26.3 C 46 % 13.76 C
3360 14-06-2019 15:55:00 26.4 C 55 % 16.63 C
3361 14-06-2019 16:00:00 26.3 C 53 % 15.96 C
3362 14-06-2019 16:05:00 26.3 C 56 % 16.82 C
3363 14-06-2019 16:10:00 26.2 C 53 % 15.87 C
3364 14-06-2019 16:15:00 26.1 C 60 % 17.73 C
3365 14-06-2019 16:20:00 26.1 C 64 % 18.76 C
3366 14-06-2019 16:25:00 26 C 59 % 17.37 C
3367 14-06-2019 16:30:00 25.9 C 64 % 18.57 C
3368 14-06-2019 16:35:00 25.8 C 56 % 16.36 C
3369 14-06-2019 16:40:00 25.8 C 54 % 15.79 C
3370 14-06-2019 16:45:00 25.8 C 63 % 18.22 C
3371 14-06-2019 16:50:00 25.6 C 52 % 15.02 C
3372 14-06-2019 16:55:00 25.5 C 56 % 16.08 C
3373 14-06-2019 17:00:00 25.4 C 66 % 18.58 C
3374 14-06-2019 17:05:00 25.4 C 68 % 19.06 C
3375 14-06-2019 17:10:00 25.3 C 65 % 18.25 C
Sensor: Nr:Datum:Temp:Feuchte:Taupunkt:
Aussen-T/F 3376 14-06-2019 17:15:00 25.3 C 65 % 18.25 C
3377 14-06-2019 17:20:00 25.4 C 63 % 17.84 C
3378 14-06-2019 17:25:00 25.3 C 60 % 16.98 C
3379 14-06-2019 17:30:00 25.4 C 69 % 19.3 C
3380 14-06-2019 17:35:00 25.3 C 69 % 19.2 C
3381 14-06-2019 17:40:00 25.1 C 57 % 15.98 C
3382 14-06-2019 17:45:00 25.1 C 67 % 18.54 C
3383 14-06-2019 17:50:00 25 C 71 % 19.37 C
3384 14-06-2019 17:55:00 24.8 C 69 % 18.72 C
3385 14-06-2019 18:00:00 24.6 C 63 % 17.09 C
3386 14-06-2019 18:05:00 24.4 C 70 % 18.57 C
3387 14-06-2019 18:10:00 24.4 C 64 % 17.15 C
3388 14-06-2019 18:15:00 24.6 C 68 % 18.3 C
3389 14-06-2019 18:20:00 24.8 C 66 % 18.01 C
3390 14-06-2019 18:25:00 24.8 C 69 % 18.72 C
3391 14-06-2019 18:30:00 24.7 C 68 % 18.4 C
3392 14-06-2019 18:35:00 24.7 C 73 % 19.53 C
3393 14-06-2019 18:40:00 24.6 C 73 % 19.44 C
3394 14-06-2019 18:45:00 24.3 C 68 % 18.01 C
3395 14-06-2019 18:50:00 24.1 C 69 % 18.06 C
3396 14-06-2019 18:55:00 23.9 C 74 % 18.98 C
3397 14-06-2019 19:00:00 23.7 C 74 % 18.79 C
3398 14-06-2019 19:05:00 23.4 C 72 % 18.06 C
3399 14-06-2019 19:10:00 23.2 C 74 % 18.31 C
3400 14-06-2019 19:15:00 22.8 C 72 % 17.49 C
Sensor: Nr:Datum:Temp:Feuchte:Taupunkt:
Aussen-T/F 3401 14-06-2019 19:20:00 22.7 C 72 % 17.39 C
3402 14-06-2019 19:25:00 22.6 C 75 % 17.94 C
3403 14-06-2019 19:30:00 22.6 C 75 % 17.94 C
3404 14-06-2019 19:35:00 22.4 C 75 % 17.75 C
3405 14-06-2019 19:40:00 22.2 C 75 % 17.56 C
3406 14-06-2019 19:45:00 21.9 C 75 % 17.27 C
3407 14-06-2019 19:50:00 21.7 C 76 % 17.28 C
3408 14-06-2019 19:55:00 21.4 C 76 % 16.99 C
3409 14-06-2019 20:00:00 21.2 C 77 % 17.01 C
3410 14-06-2019 20:05:00 21 C 76 % 16.61 C
3411 14-06-2019 20:10:00 20.8 C 77 % 16.62 C
3412 14-06-2019 20:15:00 20.6 C 77 % 16.43 C
3413 14-06-2019 20:20:00 20.4 C 78 % 16.44 C
3414 14-06-2019 20:25:00 20.3 C 78 % 16.34 C
3415 14-06-2019 20:30:00 20.2 C 79 % 16.44 C
3416 14-06-2019 20:35:00 20.1 C 79 % 16.34 C
3417 14-06-2019 20:40:00 19.9 C 79 % 16.15 C
3418 14-06-2019 20:45:00 19.8 C 79 % 16.05 C
3419 14-06-2019 20:50:00 19.6 C 80 % 16.06 C
3420 14-06-2019 20:55:00 19.6 C 81 % 16.25 C
3421 14-06-2019 21:00:00 19.4 C 81 % 16.06 C
3422 14-06-2019 21:05:00 19.3 C 81 % 15.96 C
3423 14-06-2019 21:10:00 19.3 C 82 % 16.15 C
3424 14-06-2019 21:15:00 19.3 C 83 % 16.34 C
3425 14-06-2019 21:20:00 19.3 C 83 % 16.34 C
Sensor: Nr:Datum:Temp:Feuchte:Taupunkt:
Aussen-T/F 3426 14-06-2019 21:25:00 19.2 C 83 % 16.24 C
3427 14-06-2019 21:30:00 19.1 C 84 % 16.33 C
3428 14-06-2019 21:35:00 19 C 85 % 16.42 C
3429 14-06-2019 21:40:00 18.9 C 85 % 16.32 C
3430 14-06-2019 21:45:00 18.8 C 85 % 16.23 C
3431 14-06-2019 21:50:00 18.7 C 85 % 16.13 C
3432 14-06-2019 21:55:00 18.7 C 85 % 16.13 C
3433 14-06-2019 22:00:00 18.6 C 84 % 15.84 C
3434 14-06-2019 22:05:00 18.5 C 84 % 15.75 C
3435 14-06-2019 22:10:00 18.6 C 84 % 15.84 C
3436 14-06-2019 22:15:00 18.7 C 84 % 15.94 C
3437 14-06-2019 22:20:00 18.7 C 83 % 15.75 C
3438 14-06-2019 22:25:00 18.8 C 83 % 15.85 C
3439 14-06-2019 22:30:00 18.9 C 83 % 15.95 C
3440 14-06-2019 22:35:00 18.9 C 84 % 16.14 C
3441 14-06-2019 22:40:00 19 C 84 % 16.24 C
3442 14-06-2019 22:45:00 19 C 84 % 16.24 C
3443 14-06-2019 22:50:00 18.9 C 84 % 16.14 C
3444 14-06-2019 22:55:00 18.9 C 84 % 16.14 C
3445 14-06-2019 23:00:00 18.9 C 84 % 16.14 C
3446 14-06-2019 23:05:00 18.8 C 85 % 16.23 C
3447 14-06-2019 23:10:00 18.8 C 85 % 16.23 C
3448 14-06-2019 23:15:00 18.7 C 86 % 16.31 C
3449 14-06-2019 23:20:00 18.7 C 86 % 16.31 C
3450 14-06-2019 23:25:00 18.7 C 86 % 16.31 C
Sensor: Nr:Datum:Temp:Feuchte:Taupunkt:
Aussen-T/F 3451 14-06-2019 23:30:00 18.6 C 87 % 16.39 C
3452 14-06-2019 23:35:00 18.5 C 87 % 16.3 C
3453 14-06-2019 23:40:00 18.4 C 87 % 16.2 C
3454 14-06-2019 23:45:00 18.4 C 88 % 16.38 C
3455 14-06-2019 23:50:00 18.4 C 88 % 16.38 C
3456 14-06-2019 23:55:00 18.3 C 89 % 16.46 C
3457 15-06-2019 00:00:00 18.2 C 90 % 16.53 C
3458 15-06-2019 00:05:00 18.1 C 90 % 16.43 C
3459 15-06-2019 00:10:00 18 C 91 % 16.51 C
3460 15-06-2019 00:15:00 17.9 C 91 % 16.41 C
3461 15-06-2019 00:20:00 17.8 C 91 % 16.31 C
3462 15-06-2019 00:25:00 17.6 C 92 % 16.28 C
3463 15-06-2019 00:30:00 17.5 C 92 % 16.19 C
3464 15-06-2019 00:35:00 17.4 C 92 % 16.09 C
3465 15-06-2019 00:40:00 17.3 C 92 % 15.99 C
3466 15-06-2019 00:45:00 17.2 C 92 % 15.89 C
3467 15-06-2019 00:50:00 17.1 C 93 % 15.96 C
3468 15-06-2019 00:55:00 17 C 93 % 15.86 C
3469 15-06-2019 01:00:00 16.9 C 93 % 15.76 C
3470 15-06-2019 01:05:00 16.8 C 93 % 15.66 C
3471 15-06-2019 01:10:00 16.8 C 93 % 15.66 C
3472 15-06-2019 01:15:00 16.7 C 93 % 15.56 C
3473 15-06-2019 01:20:00 16.6 C 93 % 15.46 C
3474 15-06-2019 01:25:00 16.5 C 93 % 15.36 C
3475 15-06-2019 01:30:00 16.4 C 93 % 15.27 C
Sensor: Nr:Datum:Temp:Feuchte:Taupunkt:
Aussen-T/F 3476 15-06-2019 01:35:00 16.4 C 93 % 15.27 C
3477 15-06-2019 01:40:00 16.3 C 93 % 15.17 C
3478 15-06-2019 01:45:00 16.2 C 94 % 15.23 C
3479 15-06-2019 01:50:00 16.2 C 93 % 15.07 C
3480 15-06-2019 01:55:00 16.1 C 94 % 15.13 C
3481 15-06-2019 02:00:00 16 C 94 % 15.03 C
3482 15-06-2019 02:05:00 15.9 C 94 % 14.94 C
3483 15-06-2019 02:10:00 15.9 C 94 % 14.94 C
3484 15-06-2019 02:15:00 15.8 C 94 % 14.84 C
3485 15-06-2019 02:20:00 15.8 C 94 % 14.84 C
3486 15-06-2019 02:25:00 15.7 C 94 % 14.74 C
3487 15-06-2019 02:30:00 15.7 C 94 % 14.74 C
3488 15-06-2019 02:35:00 15.6 C 94 % 14.64 C
3489 15-06-2019 02:40:00 15.5 C 94 % 14.54 C
3490 15-06-2019 02:45:00 15.4 C 94 % 14.44 C
3491 15-06-2019 02:50:00 15.5 C 95 % 14.7 C
3492 15-06-2019 02:55:00 15.4 C 95 % 14.6 C
3493 15-06-2019 03:00:00 15.4 C 95 % 14.6 C
3494 15-06-2019 03:05:00 15.3 C 95 % 14.5 C
3495 15-06-2019 03:10:00 15.2 C 94 % 14.24 C
3496 15-06-2019 03:15:00 15.1 C 94 % 14.14 C
3497 15-06-2019 03:20:00 15.1 C 95 % 14.31 C
3498 15-06-2019 03:25:00 15.1 C 95 % 14.31 C
3499 15-06-2019 03:30:00 15 C 95 % 14.21 C
3500 15-06-2019 03:35:00 15.1 C 95 % 14.31 C
Sensor: Nr:Datum:Temp:Feuchte:Taupunkt:
Aussen-T/F 3501 15-06-2019 03:40:00 15.1 C 96 % 14.47 C
3502 15-06-2019 03:45:00 15.2 C 96 % 14.57 C
3503 15-06-2019 03:50:00 15.2 C 96 % 14.57 C
3504 15-06-2019 03:55:00 15.2 C 95 % 14.4 C
3505 15-06-2019 04:00:00 15.2 C 95 % 14.4 C
3506 15-06-2019 04:05:00 15.2 C 95 % 14.4 C
3507 15-06-2019 04:10:00 15.2 C 96 % 14.57 C
3508 15-06-2019 04:15:00 15.1 C 96 % 14.47 C
3509 15-06-2019 04:20:00 15.1 C 95 % 14.31 C
3510 15-06-2019 04:25:00 15 C 95 % 14.21 C
3511 15-06-2019 04:30:00 15.2 C 96 % 14.57 C
3512 15-06-2019 04:35:00 15.2 C 96 % 14.57 C
3513 15-06-2019 04:40:00 15.2 C 96 % 14.57 C
3514 15-06-2019 04:45:00 15.1 C 96 % 14.47 C
3515 15-06-2019 04:50:00 15.1 C 96 % 14.47 C
3516 15-06-2019 04:55:00 15.1 C 96 % 14.47 C
3517 15-06-2019 05:00:00 15.1 C 96 % 14.47 C
3518 15-06-2019 05:05:00 15 C 96 % 14.37 C
3519 15-06-2019 05:10:00 14.9 C 96 % 14.27 C
3520 15-06-2019 05:15:00 14.8 C 96 % 14.17 C
3521 15-06-2019 05:20:00 14.7 C 96 % 14.07 C
3522 15-06-2019 05:25:00 14.6 C 95 % 13.81 C
3523 15-06-2019 05:30:00 14.8 C 96 % 14.17 C
3524 15-06-2019 05:35:00 15.1 C 96 % 14.47 C
3525 15-06-2019 05:40:00 15.2 C 97 % 14.73 C
Sensor: Nr:Datum:Temp:Feuchte:Taupunkt:
Aussen-T/F 3526 15-06-2019 05:45:00 15.3 C 97 % 14.83 C
3527 15-06-2019 05:50:00 15.3 C 96 % 14.67 C
3528 15-06-2019 05:55:00 15.4 C 96 % 14.77 C
3529 15-06-2019 06:00:00 15.4 C 96 % 14.77 C
3530 15-06-2019 06:05:00 15.4 C 96 % 14.77 C
3531 15-06-2019 06:10:00 15.4 C 96 % 14.77 C
3532 15-06-2019 06:15:00 15.4 C 96 % 14.77 C
3533 15-06-2019 06:20:00 15.4 C 96 % 14.77 C
3534 15-06-2019 06:25:00 15.4 C 96 % 14.77 C
3535 15-06-2019 06:30:00 15.5 C 96 % 14.86 C
3536 15-06-2019 06:35:00 15.6 C 97 % 15.13 C
3537 15-06-2019 06:40:00 15.7 C 97 % 15.23 C
3538 15-06-2019 06:45:00 15.7 C 97 % 15.23 C
3539 15-06-2019 06:50:00 15.8 C 97 % 15.32 C
3540 15-06-2019 06:55:00 15.8 C 97 % 15.32 C
3541 15-06-2019 07:00:00 15.8 C 97 % 15.32 C
3542 15-06-2019 07:05:00 15.9 C 97 % 15.42 C
3543 15-06-2019 07:10:00 15.9 C 97 % 15.42 C
3544 15-06-2019 07:15:00 16 C 97 % 15.52 C
3545 15-06-2019 07:20:00 16 C 97 % 15.52 C
3546 15-06-2019 07:25:00 16.1 C 97 % 15.62 C
3547 15-06-2019 07:30:00 16.2 C 97 % 15.72 C
3548 15-06-2019 07:35:00 16.2 C 97 % 15.72 C
3549 15-06-2019 07:40:00 16.3 C 97 % 15.82 C
3550 15-06-2019 07:45:00 16.4 C 97 % 15.92 C
Sensor: Nr:Datum:Temp:Feuchte:Taupunkt:
Aussen-T/F 3551 15-06-2019 07:50:00 16.6 C 97 % 16.12 C
3552 15-06-2019 07:55:00 16.7 C 97 % 16.22 C
3553 15-06-2019 08:00:00 16.7 C 97 % 16.22 C
3554 15-06-2019 08:05:00 16.8 C 97 % 16.32 C
3555 15-06-2019 08:10:00 16.7 C 97 % 16.22 C
3556 15-06-2019 08:15:00 16.7 C 97 % 16.22 C
3557 15-06-2019 08:20:00 16.8 C 97 % 16.32 C
3558 15-06-2019 08:25:00 17 C 97 % 16.52 C
3559 15-06-2019 08:30:00 17.1 C 97 % 16.62 C
3560 15-06-2019 08:35:00 17.1 C 97 % 16.62 C
3561 15-06-2019 08:40:00 17 C 96 % 16.36 C
3562 15-06-2019 08:45:00 17 C 96 % 16.36 C
3563 15-06-2019 08:50:00 17.1 C 95 % 16.29 C
3564 15-06-2019 08:55:00 17.3 C 94 % 16.33 C
3565 15-06-2019 09:00:00 17.6 C 94 % 16.62 C
3566 15-06-2019 09:05:00 17.8 C 93 % 16.65 C
3567 15-06-2019 09:10:00 17.9 C 92 % 16.58 C
3568 15-06-2019 09:15:00 18.1 C 92 % 16.78 C
3569 15-06-2019 09:20:00 18.2 C 91 % 16.71 C
3570 15-06-2019 09:25:00 18.4 C 90 % 16.73 C
3571 15-06-2019 09:30:00 18.5 C 89 % 16.65 C
3572 15-06-2019 09:35:00 18.6 C 90 % 16.93 C
3573 15-06-2019 09:40:00 18.8 C 88 % 16.77 C
3574 15-06-2019 09:45:00 19.1 C 87 % 16.89 C
3575 15-06-2019 09:50:00 19.2 C 87 % 16.98 C
Sensor: Nr:Datum:Temp:Feuchte:Taupunkt:
Aussen-T/F 3576 15-06-2019 09:55:00 19.3 C 86 % 16.9 C
3577 15-06-2019 10:00:00 19.4 C 85 % 16.81 C
3578 15-06-2019 10:05:00 19.4 C 85 % 16.81 C
3579 15-06-2019 10:10:00 19.6 C 83 % 16.63 C
3580 15-06-2019 10:15:00 19.7 C 84 % 16.92 C
3581 15-06-2019 10:20:00 19.8 C 82 % 16.64 C
3582 15-06-2019 10:25:00 19.8 C 82 % 16.64 C
3583 15-06-2019 10:30:00 19.9 C 81 % 16.54 C
3584 15-06-2019 10:35:00 20.1 C 82 % 16.93 C
3585 15-06-2019 10:40:00 20.3 C 81 % 16.93 C
3586 15-06-2019 10:45:00 20.5 C 79 % 16.73 C
3587 15-06-2019 10:50:00 20.4 C 78 % 16.44 C
3588 15-06-2019 10:55:00 20.3 C 80 % 16.74 C
3589 15-06-2019 11:00:00 20.3 C 79 % 16.54 C
3590 15-06-2019 11:05:00 20.3 C 75 % 15.72 C
3591 15-06-2019 11:10:00 20.4 C 75 % 15.82 C
3592 15-06-2019 11:15:00 20.4 C 73 % 15.4 C
3593 15-06-2019 11:20:00 20.6 C 73 % 15.59 C
3594 15-06-2019 11:25:00 20.7 C 73 % 15.69 C
3595 15-06-2019 11:30:00 20.8 C 71 % 15.35 C
3596 15-06-2019 11:35:00 21 C 71 % 15.54 C
3597 15-06-2019 11:40:00 21.1 C 71 % 15.64 C
3598 15-06-2019 11:45:00 21.2 C 69 % 15.29 C
3599 15-06-2019 11:50:00 21.4 C 69 % 15.48 C
3600 15-06-2019 11:55:00 21.4 C 70 % 15.7 C
Sensor: Nr:Datum:Temp:Feuchte:Taupunkt:
Aussen-T/F 3601 15-06-2019 12:00:00 21.5 C 69 % 15.57 C
3602 15-06-2019 12:05:00 21.6 C 69 % 15.67 C
3603 15-06-2019 12:10:00 21.7 C 68 % 15.54 C
3604 15-06-2019 12:15:00 21.7 C 67 % 15.31 C
3605 15-06-2019 12:20:00 21.7 C 68 % 15.54 C
3606 15-06-2019 12:25:00 21.5 C 67 % 15.12 C
3607 15-06-2019 12:30:00 21.5 C 70 % 15.8 C
3608 15-06-2019 12:35:00 21.7 C 69 % 15.77 C
3609 15-06-2019 12:40:00 21.7 C 70 % 15.99 C
3610 15-06-2019 12:45:00 21.7 C 74 % 16.86 C
3611 15-06-2019 12:50:00 21.6 C 72 % 16.34 C
3612 15-06-2019 12:55:00 21.4 C 72 % 16.14 C
3613 15-06-2019 13:00:00 21.3 C 72 % 16.05 C
3614 15-06-2019 13:05:00 21 C 72 % 15.76 C
3615 15-06-2019 13:10:00 20.9 C 74 % 16.09 C
3616 15-06-2019 13:15:00 20.8 C 75 % 16.21 C
3617 15-06-2019 13:20:00 20.7 C 76 % 16.32 C
3618 15-06-2019 13:25:00 20.8 C 75 % 16.21 C
3619 15-06-2019 13:30:00 21.1 C 76 % 16.7 C
3620 15-06-2019 13:35:00 21.3 C 73 % 16.26 C
3621 15-06-2019 13:40:00 21.7 C 73 % 16.65 C
3622 15-06-2019 13:45:00 21.9 C 72 % 16.62 C
3623 15-06-2019 13:50:00 22 C 74 % 17.15 C
3624 15-06-2019 13:55:00 21.9 C 75 % 17.27 C
3625 15-06-2019 14:00:00 21.8 C 77 % 17.59 C
Sensor: Nr:Datum:Temp:Feuchte:Taupunkt:
Aussen-T/F 3626 15-06-2019 14:05:00 21.8 C 78 % 17.79 C
3627 15-06-2019 14:10:00 21.7 C 79 % 17.9 C
3628 15-06-2019 14:15:00 21.8 C 71 % 16.31 C
3629 15-06-2019 14:20:00 21.9 C 70 % 16.18 C
3630 15-06-2019 14:25:00 21.9 C 72 % 16.62 C
3631 15-06-2019 14:30:00 21.9 C 74 % 17.06 C
3632 15-06-2019 14:35:00 21.8 C 73 % 16.75 C
3633 15-06-2019 14:40:00 21.7 C 71 % 16.21 C
3634 15-06-2019 14:45:00 21.4 C 71 % 15.93 C
3635 15-06-2019 14:50:00 21.1 C 72 % 15.86 C
3636 15-06-2019 14:55:00 21.1 C 74 % 16.29 C
3637 15-06-2019 15:00:00 21.1 C 73 % 16.07 C
3638 15-06-2019 15:05:00 21.1 C 73 % 16.07 C
3639 15-06-2019 15:10:00 21.3 C 73 % 16.26 C
3640 15-06-2019 15:15:00 21.7 C 72 % 16.43 C
3641 15-06-2019 15:20:00 22.1 C 71 % 16.6 C
3642 15-06-2019 15:25:00 22.2 C 69 % 16.24 C
3643 15-06-2019 15:30:00 22.2 C 70 % 16.47 C
3644 15-06-2019 15:35:00 22.5 C 68 % 16.3 C
3645 15-06-2019 15:40:00 22.8 C 68 % 16.59 C
3646 15-06-2019 15:45:00 22.9 C 66 % 16.21 C
3647 15-06-2019 15:50:00 22.8 C 66 % 16.12 C
3648 15-06-2019 15:55:00 22.7 C 67 % 16.26 C
3649 15-06-2019 16:00:00 22.7 C 66 % 16.02 C
3650 15-06-2019 16:05:00 22.8 C 69 % 16.82 C
Sensor: Nr:Datum:Temp:Feuchte:Taupunkt:
Aussen-T/F 3651 15-06-2019 16:10:00 23.2 C 67 % 16.73 C
3652 15-06-2019 16:15:00 23.6 C 64 % 16.39 C
3653 15-06-2019 16:20:00 23.7 C 62 % 15.99 C
3654 15-06-2019 16:25:00 23.6 C 68 % 17.35 C
3655 15-06-2019 16:30:00 23.7 C 69 % 17.67 C
3656 15-06-2019 16:35:00 23.9 C 65 % 16.92 C
3657 15-06-2019 16:40:00 24.3 C 62 % 16.55 C
3658 15-06-2019 16:45:00 24.6 C 58 % 15.79 C
3659 15-06-2019 16:50:00 24.5 C 58 % 15.7 C
3660 15-06-2019 16:55:00 24.7 C 56 % 15.33 C
3661 15-06-2019 17:00:00 25 C 55 % 15.33 C
3662 15-06-2019 17:05:00 25.4 C 57 % 16.26 C
3663 15-06-2019 17:10:00 25.5 C 56 % 16.08 C
3664 15-06-2019 17:15:00 25.5 C 54 % 15.51 C
3665 15-06-2019 17:20:00 25.3 C 56 % 15.89 C
3666 15-06-2019 17:25:00 25.5 C 55 % 15.8 C
3667 15-06-2019 17:30:00 25.4 C 55 % 15.7 C
3668 15-06-2019 17:35:00 25.3 C 53 % 15.03 C
3669 15-06-2019 17:40:00 25.2 C 54 % 15.23 C
3670 15-06-2019 17:45:00 25.2 C 54 % 15.23 C
3671 15-06-2019 17:50:00 25.3 C 54 % 15.33 C
3672 15-06-2019 17:55:00 25.7 C 54 % 15.7 C
3673 15-06-2019 18:00:00 25.8 C 54 % 15.79 C
3674 15-06-2019 18:05:00 26 C 56 % 16.54 C
3675 15-06-2019 18:10:00 26.3 C 52 % 15.66 C
Sensor: Nr:Datum:Temp:Feuchte:Taupunkt:
Aussen-T/F 3676 15-06-2019 18:15:00 26.4 C 52 % 15.75 C
3677 15-06-2019 18:20:00 26.3 C 45 % 13.42 C
3678 15-06-2019 18:25:00 26.5 C 54 % 16.44 C
3679 15-06-2019 18:30:00 26.7 C 43 % 13.09 C
3680 15-06-2019 18:35:00 26.8 C 44 % 13.53 C
3681 15-06-2019 18:40:00 26.4 C 45 % 13.51 C
3682 15-06-2019 18:45:00 25.9 C 49 % 14.37 C
3683 15-06-2019 18:50:00 25.7 C 45 % 12.88 C
3684 15-06-2019 18:55:00 26.1 C 47 % 13.91 C
3685 15-06-2019 19:00:00 26.5 C 44 % 13.26 C
3686 15-06-2019 19:05:00 26.4 C 44 % 13.17 C
3687 15-06-2019 19:10:00 26.1 C 46 % 13.58 C
3688 15-06-2019 19:15:00 25.8 C 47 % 13.64 C
3689 15-06-2019 19:20:00 25.8 C 56 % 16.36 C
3690 15-06-2019 19:25:00 25.7 C 51 % 14.81 C
3691 15-06-2019 19:30:00 25.4 C 54 % 15.42 C
3692 15-06-2019 19:35:00 25.2 C 59 % 16.62 C
3693 15-06-2019 19:40:00 24.8 C 60 % 16.51 C
3694 15-06-2019 19:45:00 24.4 C 61 % 16.39 C
3695 15-06-2019 19:50:00 24.2 C 62 % 16.46 C
3696 15-06-2019 19:55:00 24 C 65 % 17.01 C
3697 15-06-2019 20:00:00 23.9 C 65 % 16.92 C
3698 15-06-2019 20:05:00 23.9 C 64 % 16.68 C
3699 15-06-2019 20:10:00 23.8 C 64 % 16.58 C
3700 15-06-2019 20:15:00 23.6 C 65 % 16.64 C
Sensor: Nr:Datum:Temp:Feuchte:Taupunkt:
Aussen-T/F 3701 15-06-2019 20:20:00 23.5 C 65 % 16.54 C
3702 15-06-2019 20:25:00 23.4 C 62 % 15.71 C
3703 15-06-2019 20:30:00 23.3 C 66 % 16.59 C
3704 15-06-2019 20:35:00 23.3 C 66 % 16.59 C
3705 15-06-2019 20:40:00 23.2 C 66 % 16.5 C
3706 15-06-2019 20:45:00 23.2 C 67 % 16.73 C
3707 15-06-2019 20:50:00 23.2 C 68 % 16.97 C
3708 15-06-2019 20:55:00 22.9 C 68 % 16.68 C
3709 15-06-2019 21:00:00 22.8 C 69 % 16.82 C
3710 15-06-2019 21:05:00 22.4 C 69 % 16.43 C
3711 15-06-2019 21:10:00 22.1 C 69 % 16.15 C
3712 15-06-2019 21:15:00 21.7 C 70 % 15.99 C
3713 15-06-2019 21:20:00 21.3 C 71 % 15.83 C
3714 15-06-2019 21:25:00 21.1 C 71 % 15.64 C
3715 15-06-2019 21:30:00 20.7 C 71 % 15.25 C
3716 15-06-2019 21:35:00 20.4 C 71 % 14.97 C
3717 15-06-2019 21:40:00 20.2 C 71 % 14.78 C
3718 15-06-2019 21:45:00 20.1 C 72 % 14.9 C
3719 15-06-2019 21:50:00 19.8 C 74 % 15.03 C
3720 15-06-2019 21:55:00 19.6 C 75 % 15.05 C
3721 15-06-2019 22:00:00 19.3 C 75 % 14.76 C
3722 15-06-2019 22:05:00 19.1 C 76 % 14.77 C
3723 15-06-2019 22:10:00 18.9 C 77 % 14.78 C
3724 15-06-2019 22:15:00 18.7 C 78 % 14.79 C
3725 15-06-2019 22:20:00 18.6 C 79 % 14.89 C
Sensor: Nr:Datum:Temp:Feuchte:Taupunkt:
Aussen-T/F 3726 15-06-2019 22:25:00 18.4 C 79 % 14.69 C
3727 15-06-2019 22:30:00 18.3 C 79 % 14.6 C
3728 15-06-2019 22:35:00 18.2 C 80 % 14.69 C
3729 15-06-2019 22:40:00 18.1 C 80 % 14.6 C
3730 15-06-2019 22:45:00 18.1 C 80 % 14.6 C
3731 15-06-2019 22:50:00 18.1 C 80 % 14.6 C
3732 15-06-2019 22:55:00 18 C 81 % 14.69 C
3733 15-06-2019 23:00:00 17.9 C 81 % 14.59 C
3734 15-06-2019 23:05:00 17.9 C 80 % 14.4 C
3735 15-06-2019 23:10:00 17.9 C 81 % 14.59 C
3736 15-06-2019 23:15:00 17.8 C 81 % 14.5 C
3737 15-06-2019 23:20:00 17.7 C 82 % 14.59 C
3738 15-06-2019 23:25:00 17.7 C 82 % 14.59 C
3739 15-06-2019 23:30:00 17.6 C 82 % 14.49 C
3740 15-06-2019 23:35:00 17.5 C 82 % 14.39 C
3741 15-06-2019 23:40:00 17.5 C 83 % 14.58 C
3742 15-06-2019 23:45:00 17.4 C 82 % 14.3 C
3743 15-06-2019 23:50:00 17.3 C 83 % 14.39 C
3744 15-06-2019 23:55:00 17.3 C 82 % 14.2 C
3745 16-06-2019 00:00:00 17.2 C 83 % 14.29 C
3746 16-06-2019 00:05:00 17.2 C 84 % 14.47 C
3747 16-06-2019 00:10:00 17.2 C 84 % 14.47 C
3748 16-06-2019 00:15:00 17.3 C 84 % 14.57 C
3749 16-06-2019 00:20:00 17.3 C 84 % 14.57 C
3750 16-06-2019 00:25:00 17.3 C 84 % 14.57 C
Sensor: Nr:Datum:Temp:Feuchte:Taupunkt:
Aussen-T/F 3751 16-06-2019 00:30:00 17.3 C 83 % 14.39 C
3752 16-06-2019 00:35:00 17.3 C 83 % 14.39 C
3753 16-06-2019 00:40:00 17.4 C 82 % 14.3 C
3754 16-06-2019 00:45:00 17.3 C 82 % 14.2 C
3755 16-06-2019 00:50:00 17.4 C 83 % 14.48 C
3756 16-06-2019 00:55:00 17.4 C 83 % 14.48 C
3757 16-06-2019 01:00:00 17.4 C 83 % 14.48 C
3758 16-06-2019 01:05:00 17.4 C 83 % 14.48 C
3759 16-06-2019 01:10:00 17.4 C 83 % 14.48 C
3760 16-06-2019 01:15:00 17.4 C 84 % 14.67 C
3761 16-06-2019 01:20:00 17.4 C 83 % 14.48 C
3762 16-06-2019 01:25:00 17.4 C 83 % 14.48 C
3763 16-06-2019 01:30:00 17.4 C 83 % 14.48 C
3764 16-06-2019 01:35:00 17.4 C 83 % 14.48 C
3765 16-06-2019 01:40:00 17.4 C 83 % 14.48 C
3766 16-06-2019 01:45:00 17.4 C 83 % 14.48 C
3767 16-06-2019 01:50:00 17.4 C 83 % 14.48 C
3768 16-06-2019 01:55:00 17.4 C 83 % 14.48 C
3769 16-06-2019 02:00:00 17.4 C 83 % 14.48 C
3770 16-06-2019 02:05:00 17.3 C 83 % 14.39 C
3771 16-06-2019 02:10:00 17.3 C 84 % 14.57 C
3772 16-06-2019 02:15:00 17.2 C 84 % 14.47 C
3773 16-06-2019 02:20:00 17.2 C 83 % 14.29 C
3774 16-06-2019 02:25:00 17.2 C 84 % 14.47 C
3775 16-06-2019 02:30:00 17.2 C 84 % 14.47 C
Sensor: Nr:Datum:Temp:Feuchte:Taupunkt:
Aussen-T/F 3776 16-06-2019 02:35:00 17.1 C 84 % 14.38 C
3777 16-06-2019 02:40:00 17.1 C 84 % 14.38 C
3778 16-06-2019 02:45:00 17.1 C 84 % 14.38 C
3779 16-06-2019 02:50:00 17.1 C 85 % 14.56 C
3780 16-06-2019 02:55:00 17.1 C 85 % 14.56 C
3781 16-06-2019 03:00:00 17 C 85 % 14.46 C
3782 16-06-2019 03:05:00 17 C 85 % 14.46 C
3783 16-06-2019 03:10:00 16.9 C 85 % 14.36 C
3784 16-06-2019 03:15:00 16.9 C 85 % 14.36 C
3785 16-06-2019 03:20:00 16.9 C 85 % 14.36 C
3786 16-06-2019 03:25:00 16.9 C 85 % 14.36 C
3787 16-06-2019 03:30:00 16.9 C 85 % 14.36 C
3788 16-06-2019 03:35:00 16.8 C 85 % 14.26 C
3789 16-06-2019 03:40:00 16.8 C 84 % 14.08 C
3790 16-06-2019 03:45:00 16.9 C 84 % 14.18 C
3791 16-06-2019 03:50:00 16.9 C 83 % 14 C
3792 16-06-2019 03:55:00 16.9 C 83 % 14 C
3793 16-06-2019 04:00:00 17.1 C 82 % 14 C
3794 16-06-2019 04:05:00 17.2 C 82 % 14.1 C
3795 16-06-2019 04:10:00 17.2 C 81 % 13.91 C
3796 16-06-2019 04:15:00 17.3 C 81 % 14.01 C
3797 16-06-2019 04:20:00 17.3 C 82 % 14.2 C
3798 16-06-2019 04:25:00 17.2 C 82 % 14.1 C
3799 16-06-2019 04:30:00 17.2 C 82 % 14.1 C
3800 16-06-2019 04:35:00 17.1 C 83 % 14.19 C
Sensor: Nr:Datum:Temp:Feuchte:Taupunkt:
Aussen-T/F 3801 16-06-2019 04:40:00 17 C 83 % 14.09 C
3802 16-06-2019 04:45:00 16.9 C 83 % 14 C
3803 16-06-2019 04:50:00 16.8 C 84 % 14.08 C
3804 16-06-2019 04:55:00 16.7 C 84 % 13.98 C
3805 16-06-2019 05:00:00 16.7 C 84 % 13.98 C
3806 16-06-2019 05:05:00 16.6 C 84 % 13.89 C
3807 16-06-2019 05:10:00 16.5 C 84 % 13.79 C
3808 16-06-2019 05:15:00 16.4 C 85 % 13.87 C
3809 16-06-2019 05:20:00 16.3 C 85 % 13.77 C
3810 16-06-2019 05:25:00 16.3 C 85 % 13.77 C
3811 16-06-2019 05:30:00 16.3 C 85 % 13.77 C
3812 16-06-2019 05:35:00 16.2 C 84 % 13.5 C
3813 16-06-2019 05:40:00 16.2 C 86 % 13.86 C
3814 16-06-2019 05:45:00 16.1 C 86 % 13.76 C
3815 16-06-2019 05:50:00 16.1 C 87 % 13.94 C
3816 16-06-2019 05:55:00 15.9 C 87 % 13.74 C
3817 16-06-2019 06:00:00 15.8 C 87 % 13.64 C
3818 16-06-2019 06:05:00 15.7 C 88 % 13.72 C
3819 16-06-2019 06:10:00 15.7 C 88 % 13.72 C
3820 16-06-2019 06:15:00 15.6 C 88 % 13.62 C
3821 16-06-2019 06:20:00 15.4 C 89 % 13.6 C
3822 16-06-2019 06:25:00 15.4 C 89 % 13.6 C
3823 16-06-2019 06:30:00 15.4 C 90 % 13.77 C
3824 16-06-2019 06:35:00 15.4 C 90 % 13.77 C
3825 16-06-2019 06:40:00 15.3 C 91 % 13.84 C
Sensor: Nr:Datum:Temp:Feuchte:Taupunkt:
Aussen-T/F 3826 16-06-2019 06:45:00 15.3 C 91 % 13.84 C
3827 16-06-2019 06:50:00 15.3 C 91 % 13.84 C
3828 16-06-2019 06:55:00 15.3 C 91 % 13.84 C
3829 16-06-2019 07:00:00 15.3 C 91 % 13.84 C
3830 16-06-2019 07:05:00 15.3 C 92 % 14.01 C
3831 16-06-2019 07:10:00 15.3 C 92 % 14.01 C
3832 16-06-2019 07:15:00 15.4 C 92 % 14.11 C
3833 16-06-2019 07:20:00 15.5 C 92 % 14.21 C
3834 16-06-2019 07:25:00 15.5 C 92 % 14.21 C
3835 16-06-2019 07:30:00 15.6 C 92 % 14.31 C
3836 16-06-2019 07:35:00 15.6 C 91 % 14.14 C
3837 16-06-2019 07:40:00 15.6 C 91 % 14.14 C
3838 16-06-2019 07:45:00 15.7 C 90 % 14.06 C
3839 16-06-2019 07:50:00 15.8 C 90 % 14.16 C
3840 16-06-2019 07:55:00 16 C 91 % 14.53 C
3841 16-06-2019 08:00:00 16.1 C 91 % 14.63 C
3842 16-06-2019 08:05:00 16.2 C 91 % 14.73 C
3843 16-06-2019 08:10:00 16.2 C 91 % 14.73 C
3844 16-06-2019 08:15:00 16.1 C 89 % 14.29 C
3845 16-06-2019 08:20:00 16.1 C 90 % 14.46 C
3846 16-06-2019 08:25:00 16.1 C 90 % 14.46 C
3847 16-06-2019 08:30:00 16.1 C 90 % 14.46 C
3848 16-06-2019 08:35:00 16.1 C 90 % 14.46 C
3849 16-06-2019 08:40:00 15.9 C 89 % 14.09 C
3850 16-06-2019 08:45:00 15.9 C 89 % 14.09 C
Sensor: Nr:Datum:Temp:Feuchte:Taupunkt:
Aussen-T/F 3851 16-06-2019 08:50:00 15.8 C 88 % 13.82 C
3852 16-06-2019 08:55:00 15.9 C 89 % 14.09 C
3853 16-06-2019 09:00:00 16.1 C 89 % 14.29 C
3854 16-06-2019 09:05:00 16.2 C 87 % 14.03 C
3855 16-06-2019 09:10:00 16.3 C 84 % 13.59 C
3856 16-06-2019 09:15:00 16.6 C 85 % 14.07 C
3857 16-06-2019 09:20:00 16.6 C 83 % 13.7 C
3858 16-06-2019 09:25:00 16.9 C 80 % 13.43 C
3859 16-06-2019 09:30:00 17.2 C 79 % 13.53 C
3860 16-06-2019 09:35:00 17.4 C 78 % 13.53 C
3861 16-06-2019 09:40:00 17.6 C 77 % 13.52 C
3862 16-06-2019 09:45:00 17.8 C 79 % 14.11 C
3863 16-06-2019 09:50:00 17.8 C 77 % 13.72 C
3864 16-06-2019 09:55:00 18 C 77 % 13.91 C
3865 16-06-2019 10:00:00 18.1 C 77 % 14.01 C
3866 16-06-2019 10:05:00 18.2 C 74 % 13.49 C
3867 16-06-2019 10:10:00 18.4 C 73 % 13.48 C
3868 16-06-2019 10:15:00 18.7 C 73 % 13.76 C
3869 16-06-2019 10:20:00 19.1 C 71 % 13.72 C
3870 16-06-2019 10:25:00 19.4 C 71 % 14.01 C
3871 16-06-2019 10:30:00 19.7 C 67 % 13.4 C
3872 16-06-2019 10:35:00 19.8 C 72 % 14.61 C
3873 16-06-2019 10:40:00 19.9 C 67 % 13.59 C
3874 16-06-2019 10:45:00 19.9 C 64 % 12.89 C
3875 16-06-2019 10:50:00 20.1 C 64 % 13.08 C
Sensor: Nr:Datum:Temp:Feuchte:Taupunkt:
Aussen-T/F 3876 16-06-2019 10:55:00 20.3 C 64 % 13.27 C
3877 16-06-2019 11:00:00 20.6 C 63 % 13.31 C
3878 16-06-2019 11:05:00 20.7 C 61 % 12.91 C
3879 16-06-2019 11:10:00 20.7 C